<?xml version="1.0" encoding="UTF-8" standalone="no" ?><gpx xmlns="http://www.topografix.com/GPX/1/1" xmlns:gpxx="http://www.garmin.com/xmlschemas/GpxExtensions/v3" xmlns:wptx1="http://www.garmin.com/xmlschemas/WaypointExtension/v1" xmlns:gpxtpx="http://www.garmin.com/xmlschemas/TrackPointExtension/v1" creator="GuideVTT.com" version="1.1" xmlns:xsi="http://www.w3.org/2001/XMLSchema-instance" xsi:schemaLocation="http://www.topografix.com/GPX/1/1 http://www.topografix.com/GPX/1/1/gpx.xsd http://www.garmin.com/xmlschemas/GpxExtensions/v3 http://www8.garmin.com/xmlschemas/GpxExtensionsv3.xsd http://www.garmin.com/xmlschemas/WaypointExtension/v1 http://www8.garmin.com/xmlschemas/WaypointExtensionv1.xsd http://www.garmin.com/xmlschemas/TrackPointExtension/v1 http://www.garmin.com/xmlschemas/TrackPointExtensionv1.xsd">
<metadata><link href="http://www.garmin.com"><text>Garmin International</text></link><time>2013-06-22T15:13:50Z</time></metadata>
<trk><name>2020-12-13_0949__20201213_0949.gpx</name><extensions><gpxx:TrackExtension><gpxx:DisplayColor>Cyan</gpxx:DisplayColor></gpxx:TrackExtension></extensions><trkseg>
<trkpt lat="48.9453493" lon="2.6903857"><ele>42.71</ele><time>2026-4-29T0:12:2Z</time></trkpt>
<trkpt lat="48.9453015" lon="2.6907007"><ele>51.06</ele><time>2026-4-29T0:12:5Z</time></trkpt>
<trkpt lat="48.9453193" lon="2.6909770"><ele>49.73</ele><time>2026-4-29T0:12:8Z</time></trkpt>
<trkpt lat="48.9452435" lon="2.6912937"><ele>49.77</ele><time>2026-4-29T0:12:11Z</time></trkpt>
<trkpt lat="48.9452216" lon="2.6915804"><ele>51.13</ele><time>2026-4-29T0:12:14Z</time></trkpt>
<trkpt lat="48.9452040" lon="2.6919217"><ele>51.28</ele><time>2026-4-29T0:12:17Z</time></trkpt>
<trkpt lat="48.9451818" lon="2.6922444"><ele>52.10</ele><time>2026-4-29T0:12:20Z</time></trkpt>
<trkpt lat="48.9451571" lon="2.6925720"><ele>52.33</ele><time>2026-4-29T0:12:23Z</time></trkpt>
<trkpt lat="48.9451415" lon="2.6929179"><ele>51.48</ele><time>2026-4-29T0:12:26Z</time></trkpt>
<trkpt lat="48.9451229" lon="2.6932431"><ele>52.69</ele><time>2026-4-29T0:12:29Z</time></trkpt>
<trkpt lat="48.9451067" lon="2.6935596"><ele>52.27</ele><time>2026-4-29T0:12:32Z</time></trkpt>
<trkpt lat="48.9450703" lon="2.6938611"><ele>52.13</ele><time>2026-4-29T0:12:35Z</time></trkpt>
<trkpt lat="48.9450220" lon="2.6941620"><ele>52.43</ele><time>2026-4-29T0:12:38Z</time></trkpt>
<trkpt lat="48.9449818" lon="2.6944671"><ele>52.22</ele><time>2026-4-29T0:12:41Z</time></trkpt>
<trkpt lat="48.9449465" lon="2.6947481"><ele>52.04</ele><time>2026-4-29T0:12:44Z</time></trkpt>
<trkpt lat="48.9448776" lon="2.6950366"><ele>52.85</ele><time>2026-4-29T0:12:47Z</time></trkpt>
<trkpt lat="48.9447831" lon="2.6953405"><ele>53.36</ele><time>2026-4-29T0:12:50Z</time></trkpt>
<trkpt lat="48.9447035" lon="2.6956343"><ele>53.20</ele><time>2026-4-29T0:12:53Z</time></trkpt>
<trkpt lat="48.9446617" lon="2.6959679"><ele>52.19</ele><time>2026-4-29T0:12:56Z</time></trkpt>
<trkpt lat="48.9446265" lon="2.6962905"><ele>52.34</ele><time>2026-4-29T0:12:59Z</time></trkpt>
<trkpt lat="48.9446229" lon="2.6966091"><ele>51.64</ele><time>2026-4-29T0:13:2Z</time></trkpt>
<trkpt lat="48.9446531" lon="2.6969287"><ele>51.37</ele><time>2026-4-29T0:13:5Z</time></trkpt>
<trkpt lat="48.9446977" lon="2.6972705"><ele>50.63</ele><time>2026-4-29T0:13:8Z</time></trkpt>
<trkpt lat="48.9447858" lon="2.6975658"><ele>50.01</ele><time>2026-4-29T0:13:11Z</time></trkpt>
<trkpt lat="48.9448950" lon="2.6978289"><ele>49.63</ele><time>2026-4-29T0:13:14Z</time></trkpt>
<trkpt lat="48.9449926" lon="2.6980597"><ele>50.38</ele><time>2026-4-29T0:13:17Z</time></trkpt>
<trkpt lat="48.9451404" lon="2.6982820"><ele>50.72</ele><time>2026-4-29T0:13:20Z</time></trkpt>
<trkpt lat="48.9452857" lon="2.6985230"><ele>50.26</ele><time>2026-4-29T0:13:23Z</time></trkpt>
<trkpt lat="48.9454651" lon="2.6986332"><ele>50.00</ele><time>2026-4-29T0:13:26Z</time></trkpt>
<trkpt lat="48.9456255" lon="2.6987704"><ele>49.67</ele><time>2026-4-29T0:13:29Z</time></trkpt>
<trkpt lat="48.9458049" lon="2.6988982"><ele>49.26</ele><time>2026-4-29T0:13:32Z</time></trkpt>
<trkpt lat="48.9459992" lon="2.6990287"><ele>50.23</ele><time>2026-4-29T0:13:35Z</time></trkpt>
<trkpt lat="48.9461764" lon="2.6991914"><ele>50.21</ele><time>2026-4-29T0:13:38Z</time></trkpt>
<trkpt lat="48.9463355" lon="2.6993293"><ele>49.93</ele><time>2026-4-29T0:13:41Z</time></trkpt>
<trkpt lat="48.9464783" lon="2.6995005"><ele>49.81</ele><time>2026-4-29T0:13:44Z</time></trkpt>
<trkpt lat="48.9466417" lon="2.6996485"><ele>51.19</ele><time>2026-4-29T0:13:47Z</time></trkpt>
<trkpt lat="48.9468151" lon="2.6998189"><ele>51.57</ele><time>2026-4-29T0:13:50Z</time></trkpt>
<trkpt lat="48.9469624" lon="2.7000053"><ele>51.19</ele><time>2026-4-29T0:13:53Z</time></trkpt>
<trkpt lat="48.9470910" lon="2.7002096"><ele>48.46</ele><time>2026-4-29T0:13:56Z</time></trkpt>
<trkpt lat="48.9472075" lon="2.7004462"><ele>47.13</ele><time>2026-4-29T0:13:59Z</time></trkpt>
<trkpt lat="48.9473564" lon="2.7006945"><ele>49.19</ele><time>2026-4-29T0:14:2Z</time></trkpt>
<trkpt lat="48.9474616" lon="2.7009237"><ele>49.10</ele><time>2026-4-29T0:14:5Z</time></trkpt>
<trkpt lat="48.9475554" lon="2.7011701"><ele>49.51</ele><time>2026-4-29T0:14:8Z</time></trkpt>
<trkpt lat="48.9476332" lon="2.7014172"><ele>48.53</ele><time>2026-4-29T0:14:11Z</time></trkpt>
<trkpt lat="48.9477217" lon="2.7017522"><ele>48.49</ele><time>2026-4-29T0:14:14Z</time></trkpt>
<trkpt lat="48.9477845" lon="2.7020867"><ele>48.84</ele><time>2026-4-29T0:14:17Z</time></trkpt>
<trkpt lat="48.9478257" lon="2.7024263"><ele>48.72</ele><time>2026-4-29T0:14:20Z</time></trkpt>
<trkpt lat="48.9478751" lon="2.7027486"><ele>49.91</ele><time>2026-4-29T0:14:23Z</time></trkpt>
<trkpt lat="48.9479258" lon="2.7030893"><ele>49.59</ele><time>2026-4-29T0:14:26Z</time></trkpt>
<trkpt lat="48.9479779" lon="2.7034313"><ele>49.31</ele><time>2026-4-29T0:14:29Z</time></trkpt>
<trkpt lat="48.9480181" lon="2.7037276"><ele>51.39</ele><time>2026-4-29T0:14:32Z</time></trkpt>
<trkpt lat="48.9480404" lon="2.7040250"><ele>51.51</ele><time>2026-4-29T0:14:35Z</time></trkpt>
<trkpt lat="48.9480707" lon="2.7043298"><ele>51.85</ele><time>2026-4-29T0:14:38Z</time></trkpt>
<trkpt lat="48.9480920" lon="2.7046492"><ele>51.98</ele><time>2026-4-29T0:14:41Z</time></trkpt>
<trkpt lat="48.9481039" lon="2.7049813"><ele>51.32</ele><time>2026-4-29T0:14:44Z</time></trkpt>
<trkpt lat="48.9481130" lon="2.7053093"><ele>51.11</ele><time>2026-4-29T0:14:47Z</time></trkpt>
<trkpt lat="48.9481122" lon="2.7056245"><ele>51.41</ele><time>2026-4-29T0:14:50Z</time></trkpt>
<trkpt lat="48.9481033" lon="2.7059443"><ele>50.32</ele><time>2026-4-29T0:14:53Z</time></trkpt>
<trkpt lat="48.9480842" lon="2.7062592"><ele>50.61</ele><time>2026-4-29T0:14:56Z</time></trkpt>
<trkpt lat="48.9480467" lon="2.7065658"><ele>50.62</ele><time>2026-4-29T0:14:59Z</time></trkpt>
<trkpt lat="48.9479904" lon="2.7068646"><ele>50.98</ele><time>2026-4-29T0:15:2Z</time></trkpt>
<trkpt lat="48.9479382" lon="2.7071419"><ele>52.39</ele><time>2026-4-29T0:15:5Z</time></trkpt>
<trkpt lat="48.9478357" lon="2.7074125"><ele>53.87</ele><time>2026-4-29T0:15:8Z</time></trkpt>
<trkpt lat="48.9477039" lon="2.7076514"><ele>52.74</ele><time>2026-4-29T0:15:11Z</time></trkpt>
<trkpt lat="48.9475273" lon="2.7078207"><ele>52.37</ele><time>2026-4-29T0:15:14Z</time></trkpt>
<trkpt lat="48.9473365" lon="2.7079348"><ele>52.16</ele><time>2026-4-29T0:15:17Z</time></trkpt>
<trkpt lat="48.9471422" lon="2.7079997"><ele>51.36</ele><time>2026-4-29T0:15:20Z</time></trkpt>
<trkpt lat="48.9469485" lon="2.7080256"><ele>50.04</ele><time>2026-4-29T0:15:23Z</time></trkpt>
<trkpt lat="48.9467334" lon="2.7080358"><ele>49.03</ele><time>2026-4-29T0:15:26Z</time></trkpt>
<trkpt lat="48.9464968" lon="2.7081453"><ele>48.93</ele><time>2026-4-29T0:15:29Z</time></trkpt>
<trkpt lat="48.9463144" lon="2.7081043"><ele>48.83</ele><time>2026-4-29T0:15:32Z</time></trkpt>
<trkpt lat="48.9461165" lon="2.7080844"><ele>47.70</ele><time>2026-4-29T0:15:35Z</time></trkpt>
<trkpt lat="48.9459022" lon="2.7081357"><ele>47.80</ele><time>2026-4-29T0:15:38Z</time></trkpt>
<trkpt lat="48.9457242" lon="2.7081975"><ele>48.46</ele><time>2026-4-29T0:15:41Z</time></trkpt>
<trkpt lat="48.9455319" lon="2.7083209"><ele>47.89</ele><time>2026-4-29T0:15:44Z</time></trkpt>
<trkpt lat="48.9453519" lon="2.7084679"><ele>46.82</ele><time>2026-4-29T0:15:47Z</time></trkpt>
<trkpt lat="48.9451927" lon="2.7086427"><ele>49.17</ele><time>2026-4-29T0:15:50Z</time></trkpt>
<trkpt lat="48.9450444" lon="2.7088573"><ele>50.98</ele><time>2026-4-29T0:15:53Z</time></trkpt>
<trkpt lat="48.9449120" lon="2.7091046"><ele>51.21</ele><time>2026-4-29T0:15:56Z</time></trkpt>
<trkpt lat="48.9447793" lon="2.7093544"><ele>50.97</ele><time>2026-4-29T0:15:59Z</time></trkpt>
<trkpt lat="48.9446834" lon="2.7096872"><ele>51.06</ele><time>2026-4-29T0:16:2Z</time></trkpt>
<trkpt lat="48.9446414" lon="2.7099816"><ele>53.17</ele><time>2026-4-29T0:16:5Z</time></trkpt>
<trkpt lat="48.9446203" lon="2.7102688"><ele>53.79</ele><time>2026-4-29T0:16:8Z</time></trkpt>
<trkpt lat="48.9446187" lon="2.7105629"><ele>51.03</ele><time>2026-4-29T0:16:11Z</time></trkpt>
<trkpt lat="48.9446392" lon="2.7109196"><ele>48.75</ele><time>2026-4-29T0:16:14Z</time></trkpt>
<trkpt lat="48.9446515" lon="2.7112703"><ele>49.35</ele><time>2026-4-29T0:16:17Z</time></trkpt>
<trkpt lat="48.9446719" lon="2.7115427"><ele>48.89</ele><time>2026-4-29T0:16:20Z</time></trkpt>
<trkpt lat="48.9447000" lon="2.7118966"><ele>47.85</ele><time>2026-4-29T0:16:23Z</time></trkpt>
<trkpt lat="48.9447196" lon="2.7122461"><ele>47.56</ele><time>2026-4-29T0:16:26Z</time></trkpt>
<trkpt lat="48.9447360" lon="2.7125931"><ele>47.80</ele><time>2026-4-29T0:16:29Z</time></trkpt>
<trkpt lat="48.9447506" lon="2.7129181"><ele>48.41</ele><time>2026-4-29T0:16:32Z</time></trkpt>
<trkpt lat="48.9447730" lon="2.7132576"><ele>48.42</ele><time>2026-4-29T0:16:35Z</time></trkpt>
<trkpt lat="48.9447990" lon="2.7136152"><ele>48.06</ele><time>2026-4-29T0:16:38Z</time></trkpt>
<trkpt lat="48.9448167" lon="2.7139582"><ele>47.73</ele><time>2026-4-29T0:16:41Z</time></trkpt>
<trkpt lat="48.9448375" lon="2.7143063"><ele>48.96</ele><time>2026-4-29T0:16:44Z</time></trkpt>
<trkpt lat="48.9448593" lon="2.7146547"><ele>49.16</ele><time>2026-4-29T0:16:47Z</time></trkpt>
<trkpt lat="48.9448721" lon="2.7150034"><ele>48.59</ele><time>2026-4-29T0:16:50Z</time></trkpt>
<trkpt lat="48.9448821" lon="2.7153350"><ele>48.65</ele><time>2026-4-29T0:16:53Z</time></trkpt>
<trkpt lat="48.9449026" lon="2.7156918"><ele>48.79</ele><time>2026-4-29T0:16:56Z</time></trkpt>
<trkpt lat="48.9449146" lon="2.7160374"><ele>49.77</ele><time>2026-4-29T0:16:59Z</time></trkpt>
<trkpt lat="48.9449339" lon="2.7163998"><ele>49.66</ele><time>2026-4-29T0:17:2Z</time></trkpt>
<trkpt lat="48.9449511" lon="2.7167589"><ele>49.22</ele><time>2026-4-29T0:17:5Z</time></trkpt>
<trkpt lat="48.9449775" lon="2.7170313"><ele>50.13</ele><time>2026-4-29T0:17:8Z</time></trkpt>
<trkpt lat="48.9449899" lon="2.7173107"><ele>51.28</ele><time>2026-4-29T0:17:11Z</time></trkpt>
<trkpt lat="48.9449730" lon="2.7176715"><ele>52.53</ele><time>2026-4-29T0:17:14Z</time></trkpt>
<trkpt lat="48.9449971" lon="2.7180275"><ele>51.40</ele><time>2026-4-29T0:17:17Z</time></trkpt>
<trkpt lat="48.9450288" lon="2.7183813"><ele>50.97</ele><time>2026-4-29T0:17:20Z</time></trkpt>
<trkpt lat="48.9450577" lon="2.7186679"><ele>50.26</ele><time>2026-4-29T0:17:23Z</time></trkpt>
<trkpt lat="48.9450570" lon="2.7189577"><ele>50.48</ele><time>2026-4-29T0:17:26Z</time></trkpt>
<trkpt lat="48.9450618" lon="2.7192381"><ele>50.12</ele><time>2026-4-29T0:17:29Z</time></trkpt>
<trkpt lat="48.9450589" lon="2.7195983"><ele>50.62</ele><time>2026-4-29T0:17:32Z</time></trkpt>
<trkpt lat="48.9450476" lon="2.7199478"><ele>50.17</ele><time>2026-4-29T0:17:35Z</time></trkpt>
<trkpt lat="48.9450630" lon="2.7203061"><ele>51.32</ele><time>2026-4-29T0:17:38Z</time></trkpt>
<trkpt lat="48.9450401" lon="2.7205868"><ele>50.42</ele><time>2026-4-29T0:17:41Z</time></trkpt>
<trkpt lat="48.9450412" lon="2.7209306"><ele>50.77</ele><time>2026-4-29T0:17:44Z</time></trkpt>
<trkpt lat="48.9450436" lon="2.7212730"><ele>51.45</ele><time>2026-4-29T0:17:47Z</time></trkpt>
<trkpt lat="48.9450195" lon="2.7215843"><ele>51.12</ele><time>2026-4-29T0:17:50Z</time></trkpt>
<trkpt lat="48.9449984" lon="2.7219258"><ele>50.86</ele><time>2026-4-29T0:17:53Z</time></trkpt>
<trkpt lat="48.9449764" lon="2.7222665"><ele>51.20</ele><time>2026-4-29T0:17:56Z</time></trkpt>
<trkpt lat="48.9449423" lon="2.7226009"><ele>50.56</ele><time>2026-4-29T0:17:59Z</time></trkpt>
<trkpt lat="48.9448575" lon="2.7229019"><ele>50.23</ele><time>2026-4-29T0:18:2Z</time></trkpt>
<trkpt lat="48.9448073" lon="2.7232302"><ele>49.87</ele><time>2026-4-29T0:18:5Z</time></trkpt>
<trkpt lat="48.9447397" lon="2.7235688"><ele>47.67</ele><time>2026-4-29T0:18:8Z</time></trkpt>
<trkpt lat="48.9446470" lon="2.7238636"><ele>47.40</ele><time>2026-4-29T0:18:11Z</time></trkpt>
<trkpt lat="48.9445325" lon="2.7240892"><ele>46.28</ele><time>2026-4-29T0:18:14Z</time></trkpt>
<trkpt lat="48.9443937" lon="2.7243766"><ele>47.23</ele><time>2026-4-29T0:18:17Z</time></trkpt>
<trkpt lat="48.9442358" lon="2.7246317"><ele>48.03</ele><time>2026-4-29T0:18:20Z</time></trkpt>
<trkpt lat="48.9440544" lon="2.7248615"><ele>48.54</ele><time>2026-4-29T0:18:23Z</time></trkpt>
<trkpt lat="48.9438679" lon="2.7250445"><ele>49.19</ele><time>2026-4-29T0:18:26Z</time></trkpt>
<trkpt lat="48.9436971" lon="2.7251499"><ele>49.84</ele><time>2026-4-29T0:18:29Z</time></trkpt>
<trkpt lat="48.9434856" lon="2.7253110"><ele>48.59</ele><time>2026-4-29T0:18:32Z</time></trkpt>
<trkpt lat="48.9432660" lon="2.7254605"><ele>49.33</ele><time>2026-4-29T0:18:35Z</time></trkpt>
<trkpt lat="48.9430696" lon="2.7256212"><ele>49.69</ele><time>2026-4-29T0:18:38Z</time></trkpt>
<trkpt lat="48.9428781" lon="2.7258020"><ele>49.64</ele><time>2026-4-29T0:18:41Z</time></trkpt>
<trkpt lat="48.9426955" lon="2.7259987"><ele>48.75</ele><time>2026-4-29T0:18:44Z</time></trkpt>
<trkpt lat="48.9425355" lon="2.7262303"><ele>50.23</ele><time>2026-4-29T0:18:47Z</time></trkpt>
<trkpt lat="48.9423677" lon="2.7264422"><ele>50.86</ele><time>2026-4-29T0:18:50Z</time></trkpt>
<trkpt lat="48.9422285" lon="2.7266906"><ele>50.96</ele><time>2026-4-29T0:18:53Z</time></trkpt>
<trkpt lat="48.9421015" lon="2.7269482"><ele>51.01</ele><time>2026-4-29T0:18:56Z</time></trkpt>
<trkpt lat="48.9419718" lon="2.7272251"><ele>51.34</ele><time>2026-4-29T0:18:59Z</time></trkpt>
<trkpt lat="48.9418729" lon="2.7275219"><ele>50.31</ele><time>2026-4-29T0:19:2Z</time></trkpt>
<trkpt lat="48.9417702" lon="2.7278152"><ele>51.22</ele><time>2026-4-29T0:19:5Z</time></trkpt>
<trkpt lat="48.9416857" lon="2.7281386"><ele>50.62</ele><time>2026-4-29T0:19:8Z</time></trkpt>
<trkpt lat="48.9415886" lon="2.7284533"><ele>51.50</ele><time>2026-4-29T0:19:11Z</time></trkpt>
<trkpt lat="48.9415105" lon="2.7287735"><ele>51.27</ele><time>2026-4-29T0:19:14Z</time></trkpt>
<trkpt lat="48.9414509" lon="2.7291007"><ele>51.49</ele><time>2026-4-29T0:19:17Z</time></trkpt>
<trkpt lat="48.9413989" lon="2.7294088"><ele>51.14</ele><time>2026-4-29T0:19:20Z</time></trkpt>
<trkpt lat="48.9413642" lon="2.7297314"><ele>51.24</ele><time>2026-4-29T0:19:23Z</time></trkpt>
<trkpt lat="48.9413310" lon="2.7300554"><ele>52.57</ele><time>2026-4-29T0:19:26Z</time></trkpt>
<trkpt lat="48.9413086" lon="2.7303981"><ele>52.26</ele><time>2026-4-29T0:19:29Z</time></trkpt>
<trkpt lat="48.9412875" lon="2.7307407"><ele>51.68</ele><time>2026-4-29T0:19:32Z</time></trkpt>
<trkpt lat="48.9412612" lon="2.7310557"><ele>49.84</ele><time>2026-4-29T0:19:35Z</time></trkpt>
<trkpt lat="48.9412440" lon="2.7313748"><ele>51.02</ele><time>2026-4-29T0:19:38Z</time></trkpt>
<trkpt lat="48.9412435" lon="2.7317021"><ele>51.12</ele><time>2026-4-29T0:19:41Z</time></trkpt>
<trkpt lat="48.9412435" lon="2.7320321"><ele>50.64</ele><time>2026-4-29T0:19:44Z</time></trkpt>
<trkpt lat="48.9412501" lon="2.7323844"><ele>50.96</ele><time>2026-4-29T0:19:47Z</time></trkpt>
<trkpt lat="48.9412717" lon="2.7327168"><ele>51.65</ele><time>2026-4-29T0:19:50Z</time></trkpt>
<trkpt lat="48.9412847" lon="2.7330546"><ele>52.03</ele><time>2026-4-29T0:19:53Z</time></trkpt>
<trkpt lat="48.9413219" lon="2.7334123"><ele>52.93</ele><time>2026-4-29T0:19:56Z</time></trkpt>
<trkpt lat="48.9413434" lon="2.7337452"><ele>52.73</ele><time>2026-4-29T0:19:59Z</time></trkpt>
<trkpt lat="48.9413702" lon="2.7340848"><ele>52.39</ele><time>2026-4-29T0:20:2Z</time></trkpt>
<trkpt lat="48.9414148" lon="2.7344189"><ele>52.15</ele><time>2026-4-29T0:20:5Z</time></trkpt>
<trkpt lat="48.9414275" lon="2.7347477"><ele>52.57</ele><time>2026-4-29T0:20:8Z</time></trkpt>
<trkpt lat="48.9414628" lon="2.7350750"><ele>52.65</ele><time>2026-4-29T0:20:11Z</time></trkpt>
<trkpt lat="48.9414878" lon="2.7354117"><ele>52.75</ele><time>2026-4-29T0:20:14Z</time></trkpt>
<trkpt lat="48.9415030" lon="2.7357634"><ele>51.59</ele><time>2026-4-29T0:20:17Z</time></trkpt>
<trkpt lat="48.9415295" lon="2.7361118"><ele>50.85</ele><time>2026-4-29T0:20:20Z</time></trkpt>
<trkpt lat="48.9415407" lon="2.7364493"><ele>50.85</ele><time>2026-4-29T0:20:23Z</time></trkpt>
<trkpt lat="48.9415301" lon="2.7367972"><ele>49.86</ele><time>2026-4-29T0:20:26Z</time></trkpt>
<trkpt lat="48.9415245" lon="2.7371274"><ele>48.65</ele><time>2026-4-29T0:20:29Z</time></trkpt>
<trkpt lat="48.9415252" lon="2.7374325"><ele>49.17</ele><time>2026-4-29T0:20:32Z</time></trkpt>
<trkpt lat="48.9414992" lon="2.7377591"><ele>49.32</ele><time>2026-4-29T0:20:35Z</time></trkpt>
<trkpt lat="48.9414541" lon="2.7381022"><ele>48.71</ele><time>2026-4-29T0:20:38Z</time></trkpt>
<trkpt lat="48.9414170" lon="2.7384366"><ele>48.81</ele><time>2026-4-29T0:20:41Z</time></trkpt>
<trkpt lat="48.9413972" lon="2.7387759"><ele>48.88</ele><time>2026-4-29T0:20:44Z</time></trkpt>
<trkpt lat="48.9413578" lon="2.7391231"><ele>50.10</ele><time>2026-4-29T0:20:47Z</time></trkpt>
<trkpt lat="48.9413064" lon="2.7394514"><ele>50.86</ele><time>2026-4-29T0:20:50Z</time></trkpt>
<trkpt lat="48.9412361" lon="2.7397762"><ele>51.05</ele><time>2026-4-29T0:20:53Z</time></trkpt>
<trkpt lat="48.9411590" lon="2.7401082"><ele>51.50</ele><time>2026-4-29T0:20:56Z</time></trkpt>
<trkpt lat="48.9410922" lon="2.7404460"><ele>52.05</ele><time>2026-4-29T0:20:59Z</time></trkpt>
<trkpt lat="48.9410335" lon="2.7407070"><ele>51.96</ele><time>2026-4-29T0:21:2Z</time></trkpt>
<trkpt lat="48.9409581" lon="2.7410375"><ele>51.83</ele><time>2026-4-29T0:21:5Z</time></trkpt>
<trkpt lat="48.9409218" lon="2.7413075"><ele>51.34</ele><time>2026-4-29T0:21:8Z</time></trkpt>
<trkpt lat="48.9408658" lon="2.7416340"><ele>51.06</ele><time>2026-4-29T0:21:11Z</time></trkpt>
<trkpt lat="48.9407972" lon="2.7419519"><ele>51.57</ele><time>2026-4-29T0:21:14Z</time></trkpt>
<trkpt lat="48.9407364" lon="2.7422523"><ele>51.40</ele><time>2026-4-29T0:21:17Z</time></trkpt>
<trkpt lat="48.9406725" lon="2.7425534"><ele>52.08</ele><time>2026-4-29T0:21:20Z</time></trkpt>
<trkpt lat="48.9405954" lon="2.7428241"><ele>53.38</ele><time>2026-4-29T0:21:23Z</time></trkpt>
<trkpt lat="48.9405269" lon="2.7430909"><ele>54.50</ele><time>2026-4-29T0:21:26Z</time></trkpt>
<trkpt lat="48.9404876" lon="2.7433883"><ele>52.37</ele><time>2026-4-29T0:21:29Z</time></trkpt>
<trkpt lat="48.9404475" lon="2.7436725"><ele>51.05</ele><time>2026-4-29T0:21:32Z</time></trkpt>
<trkpt lat="48.9403965" lon="2.7439477"><ele>50.38</ele><time>2026-4-29T0:21:35Z</time></trkpt>
<trkpt lat="48.9403214" lon="2.7442816"><ele>49.50</ele><time>2026-4-29T0:21:38Z</time></trkpt>
<trkpt lat="48.9402537" lon="2.7446217"><ele>48.62</ele><time>2026-4-29T0:21:41Z</time></trkpt>
<trkpt lat="48.9401944" lon="2.7449595"><ele>49.27</ele><time>2026-4-29T0:21:44Z</time></trkpt>
<trkpt lat="48.9401293" lon="2.7452871"><ele>49.28</ele><time>2026-4-29T0:21:47Z</time></trkpt>
<trkpt lat="48.9400595" lon="2.7455946"><ele>49.63</ele><time>2026-4-29T0:21:50Z</time></trkpt>
<trkpt lat="48.9400026" lon="2.7459057"><ele>50.14</ele><time>2026-4-29T0:21:53Z</time></trkpt>
<trkpt lat="48.9399393" lon="2.7462132"><ele>50.26</ele><time>2026-4-29T0:21:56Z</time></trkpt>
<trkpt lat="48.9398753" lon="2.7465364"><ele>49.56</ele><time>2026-4-29T0:21:59Z</time></trkpt>
<trkpt lat="48.9398090" lon="2.7468555"><ele>49.41</ele><time>2026-4-29T0:22:2Z</time></trkpt>
<trkpt lat="48.9397466" lon="2.7471723"><ele>50.84</ele><time>2026-4-29T0:22:5Z</time></trkpt>
<trkpt lat="48.9396714" lon="2.7474773"><ele>52.03</ele><time>2026-4-29T0:22:8Z</time></trkpt>
<trkpt lat="48.9396130" lon="2.7477961"><ele>51.49</ele><time>2026-4-29T0:22:11Z</time></trkpt>
<trkpt lat="48.9395499" lon="2.7480940"><ele>51.88</ele><time>2026-4-29T0:22:14Z</time></trkpt>
<trkpt lat="48.9394782" lon="2.7483935"><ele>51.87</ele><time>2026-4-29T0:22:17Z</time></trkpt>
<trkpt lat="48.9394072" lon="2.7486859"><ele>51.55</ele><time>2026-4-29T0:22:20Z</time></trkpt>
<trkpt lat="48.9393598" lon="2.7490050"><ele>49.73</ele><time>2026-4-29T0:22:23Z</time></trkpt>
<trkpt lat="48.9392852" lon="2.7493162"><ele>50.20</ele><time>2026-4-29T0:22:26Z</time></trkpt>
<trkpt lat="48.9392291" lon="2.7496342"><ele>50.31</ele><time>2026-4-29T0:22:29Z</time></trkpt>
<trkpt lat="48.9391742" lon="2.7499479"><ele>50.29</ele><time>2026-4-29T0:22:32Z</time></trkpt>
<trkpt lat="48.9391426" lon="2.7502732"><ele>51.29</ele><time>2026-4-29T0:22:35Z</time></trkpt>
<trkpt lat="48.9391261" lon="2.7506157"><ele>51.14</ele><time>2026-4-29T0:22:38Z</time></trkpt>
<trkpt lat="48.9391119" lon="2.7509340"><ele>52.38</ele><time>2026-4-29T0:22:41Z</time></trkpt>
<trkpt lat="48.9391040" lon="2.7512405"><ele>51.80</ele><time>2026-4-29T0:22:44Z</time></trkpt>
<trkpt lat="48.9391222" lon="2.7516040"><ele>51.33</ele><time>2026-4-29T0:22:47Z</time></trkpt>
<trkpt lat="48.9391394" lon="2.7518856"><ele>50.65</ele><time>2026-4-29T0:22:50Z</time></trkpt>
<trkpt lat="48.9391909" lon="2.7522410"><ele>50.29</ele><time>2026-4-29T0:22:53Z</time></trkpt>
<trkpt lat="48.9392541" lon="2.7525819"><ele>49.94</ele><time>2026-4-29T0:22:56Z</time></trkpt>
<trkpt lat="48.9393146" lon="2.7529162"><ele>50.19</ele><time>2026-4-29T0:22:59Z</time></trkpt>
<trkpt lat="48.9393890" lon="2.7532501"><ele>49.99</ele><time>2026-4-29T0:23:2Z</time></trkpt>
<trkpt lat="48.9394675" lon="2.7535898"><ele>49.91</ele><time>2026-4-29T0:23:5Z</time></trkpt>
<trkpt lat="48.9395165" lon="2.7538551"><ele>49.61</ele><time>2026-4-29T0:23:8Z</time></trkpt>
<trkpt lat="48.9395489" lon="2.7541953"><ele>49.98</ele><time>2026-4-29T0:23:11Z</time></trkpt>
<trkpt lat="48.9395768" lon="2.7545373"><ele>50.31</ele><time>2026-4-29T0:23:14Z</time></trkpt>
<trkpt lat="48.9395489" lon="2.7548583"><ele>50.74</ele><time>2026-4-29T0:23:17Z</time></trkpt>
<trkpt lat="48.9394754" lon="2.7551611"><ele>51.17</ele><time>2026-4-29T0:23:20Z</time></trkpt>
<trkpt lat="48.9393735" lon="2.7554423"><ele>51.31</ele><time>2026-4-29T0:23:23Z</time></trkpt>
<trkpt lat="48.9392521" lon="2.7556968"><ele>51.76</ele><time>2026-4-29T0:23:26Z</time></trkpt>
<trkpt lat="48.9391089" lon="2.7559292"><ele>52.33</ele><time>2026-4-29T0:23:29Z</time></trkpt>
<trkpt lat="48.9389854" lon="2.7561774"><ele>52.72</ele><time>2026-4-29T0:23:32Z</time></trkpt>
<trkpt lat="48.9388270" lon="2.7563528"><ele>53.33</ele><time>2026-4-29T0:23:35Z</time></trkpt>
<trkpt lat="48.9386752" lon="2.7565742"><ele>52.96</ele><time>2026-4-29T0:23:38Z</time></trkpt>
<trkpt lat="48.9384952" lon="2.7567715"><ele>52.49</ele><time>2026-4-29T0:23:41Z</time></trkpt>
<trkpt lat="48.9382908" lon="2.7569164"><ele>52.15</ele><time>2026-4-29T0:23:44Z</time></trkpt>
<trkpt lat="48.9380895" lon="2.7569912"><ele>52.32</ele><time>2026-4-29T0:23:47Z</time></trkpt>
<trkpt lat="48.9378847" lon="2.7569385"><ele>51.72</ele><time>2026-4-29T0:23:50Z</time></trkpt>
<trkpt lat="48.9376640" lon="2.7568693"><ele>52.04</ele><time>2026-4-29T0:23:53Z</time></trkpt>
<trkpt lat="48.9374493" lon="2.7567790"><ele>52.20</ele><time>2026-4-29T0:23:56Z</time></trkpt>
<trkpt lat="48.9372258" lon="2.7566878"><ele>52.21</ele><time>2026-4-29T0:23:59Z</time></trkpt>
<trkpt lat="48.9370045" lon="2.7565688"><ele>52.96</ele><time>2026-4-29T0:24:2Z</time></trkpt>
<trkpt lat="48.9367774" lon="2.7564543"><ele>52.89</ele><time>2026-4-29T0:24:5Z</time></trkpt>
<trkpt lat="48.9365631" lon="2.7563531"><ele>53.33</ele><time>2026-4-29T0:24:8Z</time></trkpt>
<trkpt lat="48.9363534" lon="2.7562456"><ele>53.21</ele><time>2026-4-29T0:24:11Z</time></trkpt>
<trkpt lat="48.9361393" lon="2.7561625"><ele>53.68</ele><time>2026-4-29T0:24:14Z</time></trkpt>
<trkpt lat="48.9359284" lon="2.7560778"><ele>53.88</ele><time>2026-4-29T0:24:17Z</time></trkpt>
<trkpt lat="48.9357305" lon="2.7559921"><ele>53.76</ele><time>2026-4-29T0:24:20Z</time></trkpt>
<trkpt lat="48.9355345" lon="2.7559232"><ele>53.36</ele><time>2026-4-29T0:24:23Z</time></trkpt>
<trkpt lat="48.9353248" lon="2.7558765"><ele>52.66</ele><time>2026-4-29T0:24:26Z</time></trkpt>
<trkpt lat="48.9351025" lon="2.7558633"><ele>52.03</ele><time>2026-4-29T0:24:29Z</time></trkpt>
<trkpt lat="48.9348807" lon="2.7558723"><ele>52.49</ele><time>2026-4-29T0:24:32Z</time></trkpt>
<trkpt lat="48.9346509" lon="2.7559070"><ele>54.90</ele><time>2026-4-29T0:24:35Z</time></trkpt>
<trkpt lat="48.9344660" lon="2.7559753"><ele>54.64</ele><time>2026-4-29T0:24:38Z</time></trkpt>
<trkpt lat="48.9342603" lon="2.7560869"><ele>52.80</ele><time>2026-4-29T0:24:41Z</time></trkpt>
<trkpt lat="48.9340768" lon="2.7562548"><ele>51.32</ele><time>2026-4-29T0:24:44Z</time></trkpt>
<trkpt lat="48.9339082" lon="2.7564461"><ele>50.17</ele><time>2026-4-29T0:24:47Z</time></trkpt>
<trkpt lat="48.9337426" lon="2.7566510"><ele>51.91</ele><time>2026-4-29T0:24:50Z</time></trkpt>
<trkpt lat="48.9336037" lon="2.7569019"><ele>52.77</ele><time>2026-4-29T0:24:53Z</time></trkpt>
<trkpt lat="48.9334738" lon="2.7571671"><ele>53.48</ele><time>2026-4-29T0:24:56Z</time></trkpt>
<trkpt lat="48.9333402" lon="2.7574274"><ele>52.51</ele><time>2026-4-29T0:24:59Z</time></trkpt>
<trkpt lat="48.9332287" lon="2.7576963"><ele>53.30</ele><time>2026-4-29T0:25:2Z</time></trkpt>
<trkpt lat="48.9331254" lon="2.7580030"><ele>53.60</ele><time>2026-4-29T0:25:5Z</time></trkpt>
<trkpt lat="48.9330392" lon="2.7583287"><ele>53.13</ele><time>2026-4-29T0:25:8Z</time></trkpt>
<trkpt lat="48.9329759" lon="2.7586321"><ele>53.61</ele><time>2026-4-29T0:25:11Z</time></trkpt>
<trkpt lat="48.9329116" lon="2.7589640"><ele>53.26</ele><time>2026-4-29T0:25:14Z</time></trkpt>
<trkpt lat="48.9328706" lon="2.7593039"><ele>53.90</ele><time>2026-4-29T0:25:17Z</time></trkpt>
<trkpt lat="48.9328600" lon="2.7596684"><ele>53.05</ele><time>2026-4-29T0:25:20Z</time></trkpt>
<trkpt lat="48.9328564" lon="2.7600278"><ele>52.22</ele><time>2026-4-29T0:25:23Z</time></trkpt>
<trkpt lat="48.9328833" lon="2.7603856"><ele>50.83</ele><time>2026-4-29T0:25:26Z</time></trkpt>
<trkpt lat="48.9329104" lon="2.7607093"><ele>49.95</ele><time>2026-4-29T0:25:29Z</time></trkpt>
<trkpt lat="48.9329591" lon="2.7610391"><ele>50.46</ele><time>2026-4-29T0:25:32Z</time></trkpt>
<trkpt lat="48.9330028" lon="2.7613856"><ele>51.19</ele><time>2026-4-29T0:25:35Z</time></trkpt>
<trkpt lat="48.9330690" lon="2.7617227"><ele>52.42</ele><time>2026-4-29T0:25:38Z</time></trkpt>
<trkpt lat="48.9331434" lon="2.7620538"><ele>52.72</ele><time>2026-4-29T0:25:41Z</time></trkpt>
<trkpt lat="48.9332262" lon="2.7623847"><ele>52.74</ele><time>2026-4-29T0:25:44Z</time></trkpt>
<trkpt lat="48.9333203" lon="2.7627044"><ele>52.70</ele><time>2026-4-29T0:25:47Z</time></trkpt>
<trkpt lat="48.9334181" lon="2.7630140"><ele>53.04</ele><time>2026-4-29T0:25:50Z</time></trkpt>
<trkpt lat="48.9335280" lon="2.7633157"><ele>52.81</ele><time>2026-4-29T0:25:53Z</time></trkpt>
<trkpt lat="48.9336288" lon="2.7636384"><ele>53.09</ele><time>2026-4-29T0:25:56Z</time></trkpt>
<trkpt lat="48.9337471" lon="2.7639488"><ele>52.80</ele><time>2026-4-29T0:25:59Z</time></trkpt>
<trkpt lat="48.9338683" lon="2.7642394"><ele>52.45</ele><time>2026-4-29T0:26:2Z</time></trkpt>
<trkpt lat="48.9339909" lon="2.7645295"><ele>53.03</ele><time>2026-4-29T0:26:5Z</time></trkpt>
<trkpt lat="48.9341303" lon="2.7648164"><ele>53.35</ele><time>2026-4-29T0:26:8Z</time></trkpt>
<trkpt lat="48.9342441" lon="2.7651190"><ele>53.04</ele><time>2026-4-29T0:26:11Z</time></trkpt>
<trkpt lat="48.9343658" lon="2.7654343"><ele>52.40</ele><time>2026-4-29T0:26:14Z</time></trkpt>
<trkpt lat="48.9344856" lon="2.7657251"><ele>52.20</ele><time>2026-4-29T0:26:17Z</time></trkpt>
<trkpt lat="48.9346076" lon="2.7660364"><ele>51.98</ele><time>2026-4-29T0:26:20Z</time></trkpt>
<trkpt lat="48.9347320" lon="2.7663387"><ele>52.30</ele><time>2026-4-29T0:26:23Z</time></trkpt>
<trkpt lat="48.9348522" lon="2.7666296"><ele>52.48</ele><time>2026-4-29T0:26:26Z</time></trkpt>
<trkpt lat="48.9349654" lon="2.7669340"><ele>51.90</ele><time>2026-4-29T0:26:29Z</time></trkpt>
<trkpt lat="48.9350926" lon="2.7672339"><ele>52.46</ele><time>2026-4-29T0:26:32Z</time></trkpt>
<trkpt lat="48.9351901" lon="2.7674656"><ele>51.56</ele><time>2026-4-29T0:26:35Z</time></trkpt>
<trkpt lat="48.9353084" lon="2.7677588"><ele>51.14</ele><time>2026-4-29T0:26:38Z</time></trkpt>
<trkpt lat="48.9354346" lon="2.7680250"><ele>51.86</ele><time>2026-4-29T0:26:41Z</time></trkpt>
<trkpt lat="48.9355653" lon="2.7683131"><ele>52.45</ele><time>2026-4-29T0:26:44Z</time></trkpt>
<trkpt lat="48.9356778" lon="2.7685977"><ele>52.07</ele><time>2026-4-29T0:26:47Z</time></trkpt>
<trkpt lat="48.9358004" lon="2.7688765"><ele>52.90</ele><time>2026-4-29T0:26:50Z</time></trkpt>
<trkpt lat="48.9359119" lon="2.7691719"><ele>53.10</ele><time>2026-4-29T0:26:53Z</time></trkpt>
<trkpt lat="48.9360342" lon="2.7694523"><ele>52.31</ele><time>2026-4-29T0:26:56Z</time></trkpt>
<trkpt lat="48.9361555" lon="2.7697358"><ele>51.86</ele><time>2026-4-29T0:26:59Z</time></trkpt>
<trkpt lat="48.9362617" lon="2.7700263"><ele>50.52</ele><time>2026-4-29T0:27:2Z</time></trkpt>
<trkpt lat="48.9363838" lon="2.7703026"><ele>50.26</ele><time>2026-4-29T0:27:5Z</time></trkpt>
<trkpt lat="48.9365058" lon="2.7705727"><ele>50.93</ele><time>2026-4-29T0:27:8Z</time></trkpt>
<trkpt lat="48.9366185" lon="2.7708506"><ele>51.06</ele><time>2026-4-29T0:27:11Z</time></trkpt>
<trkpt lat="48.9367387" lon="2.7711478"><ele>50.13</ele><time>2026-4-29T0:27:14Z</time></trkpt>
<trkpt lat="48.9368513" lon="2.7714406"><ele>49.76</ele><time>2026-4-29T0:27:17Z</time></trkpt>
<trkpt lat="48.9369708" lon="2.7716867"><ele>49.08</ele><time>2026-4-29T0:27:20Z</time></trkpt>
<trkpt lat="48.9370736" lon="2.7719713"><ele>48.89</ele><time>2026-4-29T0:27:23Z</time></trkpt>
<trkpt lat="48.9371672" lon="2.7722399"><ele>51.51</ele><time>2026-4-29T0:27:26Z</time></trkpt>
<trkpt lat="48.9372526" lon="2.7724893"><ele>54.56</ele><time>2026-4-29T0:27:29Z</time></trkpt>
<trkpt lat="48.9373587" lon="2.7727352"><ele>53.24</ele><time>2026-4-29T0:27:32Z</time></trkpt>
<trkpt lat="48.9374976" lon="2.7729305"><ele>51.03</ele><time>2026-4-29T0:27:35Z</time></trkpt>
<trkpt lat="48.9376431" lon="2.7731341"><ele>50.88</ele><time>2026-4-29T0:27:38Z</time></trkpt>
<trkpt lat="48.9378251" lon="2.7733352"><ele>52.01</ele><time>2026-4-29T0:27:41Z</time></trkpt>
<trkpt lat="48.9380324" lon="2.7734251"><ele>54.71</ele><time>2026-4-29T0:27:44Z</time></trkpt>
<trkpt lat="48.9382354" lon="2.7735387"><ele>52.66</ele><time>2026-4-29T0:27:47Z</time></trkpt>
<trkpt lat="48.9384550" lon="2.7736111"><ele>52.91</ele><time>2026-4-29T0:27:50Z</time></trkpt>
<trkpt lat="48.9386345" lon="2.7736496"><ele>52.48</ele><time>2026-4-29T0:27:53Z</time></trkpt>
<trkpt lat="48.9388168" lon="2.7736994"><ele>51.24</ele><time>2026-4-29T0:27:56Z</time></trkpt>
<trkpt lat="48.9390144" lon="2.7737498"><ele>50.86</ele><time>2026-4-29T0:27:59Z</time></trkpt>
<trkpt lat="48.9392424" lon="2.7738151"><ele>50.98</ele><time>2026-4-29T0:28:2Z</time></trkpt>
<trkpt lat="48.9394528" lon="2.7738891"><ele>51.75</ele><time>2026-4-29T0:28:5Z</time></trkpt>
<trkpt lat="48.9396442" lon="2.7739598"><ele>51.49</ele><time>2026-4-29T0:28:8Z</time></trkpt>
<trkpt lat="48.9398334" lon="2.7740269"><ele>53.09</ele><time>2026-4-29T0:28:11Z</time></trkpt>
<trkpt lat="48.9400155" lon="2.7741475"><ele>52.23</ele><time>2026-4-29T0:28:14Z</time></trkpt>
<trkpt lat="48.9401910" lon="2.7742787"><ele>50.61</ele><time>2026-4-29T0:28:17Z</time></trkpt>
<trkpt lat="48.9403614" lon="2.7744138"><ele>51.55</ele><time>2026-4-29T0:28:20Z</time></trkpt>
<trkpt lat="48.9405216" lon="2.7745964"><ele>50.88</ele><time>2026-4-29T0:28:23Z</time></trkpt>
<trkpt lat="48.9406791" lon="2.7747784"><ele>51.94</ele><time>2026-4-29T0:28:26Z</time></trkpt>
<trkpt lat="48.9408133" lon="2.7750046"><ele>47.14</ele><time>2026-4-29T0:28:29Z</time></trkpt>
<trkpt lat="48.9409292" lon="2.7752453"><ele>47.61</ele><time>2026-4-29T0:28:32Z</time></trkpt>
<trkpt lat="48.9410175" lon="2.7755062"><ele>47.82</ele><time>2026-4-29T0:28:35Z</time></trkpt>
<trkpt lat="48.9410936" lon="2.7757858"><ele>47.65</ele><time>2026-4-29T0:28:38Z</time></trkpt>
<trkpt lat="48.9411776" lon="2.7760388"><ele>48.64</ele><time>2026-4-29T0:28:41Z</time></trkpt>
<trkpt lat="48.9412628" lon="2.7762985"><ele>48.09</ele><time>2026-4-29T0:28:44Z</time></trkpt>
<trkpt lat="48.9413932" lon="2.7765532"><ele>47.85</ele><time>2026-4-29T0:28:47Z</time></trkpt>
<trkpt lat="48.9415486" lon="2.7768367"><ele>48.02</ele><time>2026-4-29T0:28:50Z</time></trkpt>
<trkpt lat="48.9417421" lon="2.7770513"><ele>49.03</ele><time>2026-4-29T0:28:53Z</time></trkpt>
<trkpt lat="48.9419465" lon="2.7772255"><ele>47.17</ele><time>2026-4-29T0:28:56Z</time></trkpt>
<trkpt lat="48.9421480" lon="2.7772933"><ele>45.86</ele><time>2026-4-29T0:28:59Z</time></trkpt>
<trkpt lat="48.9423844" lon="2.7772708"><ele>48.43</ele><time>2026-4-29T0:29:2Z</time></trkpt>
<trkpt lat="48.9425913" lon="2.7772134"><ele>50.47</ele><time>2026-4-29T0:29:5Z</time></trkpt>
<trkpt lat="48.9428177" lon="2.7771899"><ele>51.43</ele><time>2026-4-29T0:29:8Z</time></trkpt>
<trkpt lat="48.9430410" lon="2.7771996"><ele>50.03</ele><time>2026-4-29T0:29:11Z</time></trkpt>
<trkpt lat="48.9432634" lon="2.7772000"><ele>49.09</ele><time>2026-4-29T0:29:14Z</time></trkpt>
<trkpt lat="48.9434749" lon="2.7771846"><ele>48.09</ele><time>2026-4-29T0:29:17Z</time></trkpt>
<trkpt lat="48.9436587" lon="2.7772274"><ele>47.98</ele><time>2026-4-29T0:29:20Z</time></trkpt>
<trkpt lat="48.9438420" lon="2.7773303"><ele>47.39</ele><time>2026-4-29T0:29:23Z</time></trkpt>
<trkpt lat="48.9440490" lon="2.7774149"><ele>48.05</ele><time>2026-4-29T0:29:26Z</time></trkpt>
<trkpt lat="48.9442210" lon="2.7775121"><ele>48.45</ele><time>2026-4-29T0:29:29Z</time></trkpt>
<trkpt lat="48.9444419" lon="2.7776212"><ele>49.67</ele><time>2026-4-29T0:29:32Z</time></trkpt>
<trkpt lat="48.9446606" lon="2.7777432"><ele>48.50</ele><time>2026-4-29T0:29:35Z</time></trkpt>
<trkpt lat="48.9448701" lon="2.7778623"><ele>47.37</ele><time>2026-4-29T0:29:38Z</time></trkpt>
<trkpt lat="48.9450402" lon="2.7779643"><ele>47.64</ele><time>2026-4-29T0:29:41Z</time></trkpt>
<trkpt lat="48.9452552" lon="2.7780734"><ele>47.55</ele><time>2026-4-29T0:29:44Z</time></trkpt>
<trkpt lat="48.9454624" lon="2.7781617"><ele>49.39</ele><time>2026-4-29T0:29:47Z</time></trkpt>
<trkpt lat="48.9456328" lon="2.7782576"><ele>48.91</ele><time>2026-4-29T0:29:50Z</time></trkpt>
<trkpt lat="48.9458501" lon="2.7783914"><ele>48.54</ele><time>2026-4-29T0:29:53Z</time></trkpt>
<trkpt lat="48.9460233" lon="2.7784898"><ele>47.84</ele><time>2026-4-29T0:29:56Z</time></trkpt>
<trkpt lat="48.9462455" lon="2.7786116"><ele>47.79</ele><time>2026-4-29T0:29:59Z</time></trkpt>
<trkpt lat="48.9464657" lon="2.7787441"><ele>46.92</ele><time>2026-4-29T0:30:2Z</time></trkpt>
<trkpt lat="48.9466318" lon="2.7788527"><ele>45.32</ele><time>2026-4-29T0:30:5Z</time></trkpt>
<trkpt lat="48.9467976" lon="2.7789786"><ele>45.82</ele><time>2026-4-29T0:30:8Z</time></trkpt>
<trkpt lat="48.9469643" lon="2.7791019"><ele>46.68</ele><time>2026-4-29T0:30:11Z</time></trkpt>
<trkpt lat="48.9471275" lon="2.7792236"><ele>46.04</ele><time>2026-4-29T0:30:14Z</time></trkpt>
<trkpt lat="48.9473461" lon="2.7793795"><ele>46.37</ele><time>2026-4-29T0:30:17Z</time></trkpt>
<trkpt lat="48.9475589" lon="2.7795211"><ele>46.24</ele><time>2026-4-29T0:30:20Z</time></trkpt>
<trkpt lat="48.9477822" lon="2.7796247"><ele>47.53</ele><time>2026-4-29T0:30:23Z</time></trkpt>
<trkpt lat="48.9479985" lon="2.7796941"><ele>47.60</ele><time>2026-4-29T0:30:26Z</time></trkpt>
<trkpt lat="48.9481817" lon="2.7797469"><ele>47.51</ele><time>2026-4-29T0:30:29Z</time></trkpt>
<trkpt lat="48.9484074" lon="2.7797636"><ele>49.40</ele><time>2026-4-29T0:30:32Z</time></trkpt>
<trkpt lat="48.9485903" lon="2.7797487"><ele>50.29</ele><time>2026-4-29T0:30:35Z</time></trkpt>
<trkpt lat="48.9488329" lon="2.7798356"><ele>50.98</ele><time>2026-4-29T0:30:38Z</time></trkpt>
<trkpt lat="48.9489889" lon="2.7799759"><ele>50.62</ele><time>2026-4-29T0:30:41Z</time></trkpt>
<trkpt lat="48.9491393" lon="2.7802481"><ele>49.24</ele><time>2026-4-29T0:30:44Z</time></trkpt>
<trkpt lat="48.9492387" lon="2.7805611"><ele>48.63</ele><time>2026-4-29T0:30:47Z</time></trkpt>
<trkpt lat="48.9493075" lon="2.7808922"><ele>49.24</ele><time>2026-4-29T0:30:50Z</time></trkpt>
<trkpt lat="48.9493637" lon="2.7812191"><ele>49.84</ele><time>2026-4-29T0:30:53Z</time></trkpt>
<trkpt lat="48.9493872" lon="2.7815530"><ele>49.76</ele><time>2026-4-29T0:30:56Z</time></trkpt>
<trkpt lat="48.9494494" lon="2.7818501"><ele>50.94</ele><time>2026-4-29T0:30:59Z</time></trkpt>
<trkpt lat="48.9495757" lon="2.7820785"><ele>50.74</ele><time>2026-4-29T0:31:2Z</time></trkpt>
<trkpt lat="48.9497215" lon="2.7822511"><ele>50.97</ele><time>2026-4-29T0:31:5Z</time></trkpt>
<trkpt lat="48.9499000" lon="2.7823469"><ele>50.70</ele><time>2026-4-29T0:31:8Z</time></trkpt>
<trkpt lat="48.9500852" lon="2.7823759"><ele>50.20</ele><time>2026-4-29T0:31:11Z</time></trkpt>
<trkpt lat="48.9503157" lon="2.7823954"><ele>50.19</ele><time>2026-4-29T0:31:14Z</time></trkpt>
<trkpt lat="48.9505370" lon="2.7823569"><ele>49.82</ele><time>2026-4-29T0:31:17Z</time></trkpt>
<trkpt lat="48.9507179" lon="2.7823516"><ele>49.36</ele><time>2026-4-29T0:31:20Z</time></trkpt>
<trkpt lat="48.9509505" lon="2.7824194"><ele>49.72</ele><time>2026-4-29T0:31:23Z</time></trkpt>
<trkpt lat="48.9511050" lon="2.7825672"><ele>49.82</ele><time>2026-4-29T0:31:26Z</time></trkpt>
<trkpt lat="48.9512415" lon="2.7828404"><ele>50.33</ele><time>2026-4-29T0:31:29Z</time></trkpt>
<trkpt lat="48.9513252" lon="2.7831744"><ele>49.80</ele><time>2026-4-29T0:31:32Z</time></trkpt>
<trkpt lat="48.9513729" lon="2.7835144"><ele>49.16</ele><time>2026-4-29T0:31:35Z</time></trkpt>
<trkpt lat="48.9513502" lon="2.7838718"><ele>47.82</ele><time>2026-4-29T0:31:38Z</time></trkpt>
<trkpt lat="48.9512512" lon="2.7841892"><ele>47.24</ele><time>2026-4-29T0:31:41Z</time></trkpt>
<trkpt lat="48.9510764" lon="2.7843897"><ele>45.52</ele><time>2026-4-29T0:31:44Z</time></trkpt>
<trkpt lat="48.9508727" lon="2.7844983"><ele>46.23</ele><time>2026-4-29T0:31:47Z</time></trkpt>
<trkpt lat="48.9506580" lon="2.7845740"><ele>45.42</ele><time>2026-4-29T0:31:50Z</time></trkpt>
<trkpt lat="48.9504427" lon="2.7846839"><ele>45.58</ele><time>2026-4-29T0:31:53Z</time></trkpt>
<trkpt lat="48.9502664" lon="2.7848903"><ele>46.16</ele><time>2026-4-29T0:31:56Z</time></trkpt>
<trkpt lat="48.9501293" lon="2.7851515"><ele>47.19</ele><time>2026-4-29T0:31:59Z</time></trkpt>
<trkpt lat="48.9500340" lon="2.7854602"><ele>48.37</ele><time>2026-4-29T0:32:2Z</time></trkpt>
<trkpt lat="48.9499633" lon="2.7857732"><ele>48.69</ele><time>2026-4-29T0:32:5Z</time></trkpt>
<trkpt lat="48.9499202" lon="2.7861249"><ele>49.19</ele><time>2026-4-29T0:32:8Z</time></trkpt>
<trkpt lat="48.9499033" lon="2.7864792"><ele>49.65</ele><time>2026-4-29T0:32:11Z</time></trkpt>
<trkpt lat="48.9498863" lon="2.7868272"><ele>49.20</ele><time>2026-4-29T0:32:14Z</time></trkpt>
<trkpt lat="48.9498812" lon="2.7871908"><ele>49.40</ele><time>2026-4-29T0:32:17Z</time></trkpt>
<trkpt lat="48.9498737" lon="2.7875413"><ele>49.32</ele><time>2026-4-29T0:32:20Z</time></trkpt>
<trkpt lat="48.9498657" lon="2.7878975"><ele>49.13</ele><time>2026-4-29T0:32:23Z</time></trkpt>
<trkpt lat="48.9498951" lon="2.7881705"><ele>49.46</ele><time>2026-4-29T0:32:26Z</time></trkpt>
<trkpt lat="48.9499113" lon="2.7885323"><ele>49.23</ele><time>2026-4-29T0:32:29Z</time></trkpt>
<trkpt lat="48.9499063" lon="2.7888934"><ele>49.32</ele><time>2026-4-29T0:32:32Z</time></trkpt>
<trkpt lat="48.9499158" lon="2.7892499"><ele>49.86</ele><time>2026-4-29T0:32:35Z</time></trkpt>
<trkpt lat="48.9499315" lon="2.7896009"><ele>49.42</ele><time>2026-4-29T0:32:38Z</time></trkpt>
<trkpt lat="48.9499298" lon="2.7899484"><ele>49.56</ele><time>2026-4-29T0:32:41Z</time></trkpt>
<trkpt lat="48.9499180" lon="2.7902978"><ele>49.71</ele><time>2026-4-29T0:32:44Z</time></trkpt>
<trkpt lat="48.9499223" lon="2.7906458"><ele>50.12</ele><time>2026-4-29T0:32:47Z</time></trkpt>
<trkpt lat="48.9499362" lon="2.7909839"><ele>50.71</ele><time>2026-4-29T0:32:50Z</time></trkpt>
<trkpt lat="48.9499428" lon="2.7912588"><ele>51.82</ele><time>2026-4-29T0:32:53Z</time></trkpt>
<trkpt lat="48.9499464" lon="2.7916192"><ele>51.88</ele><time>2026-4-29T0:32:56Z</time></trkpt>
<trkpt lat="48.9499554" lon="2.7919682"><ele>51.26</ele><time>2026-4-29T0:32:59Z</time></trkpt>
<trkpt lat="48.9499677" lon="2.7923292"><ele>51.63</ele><time>2026-4-29T0:33:2Z</time></trkpt>
<trkpt lat="48.9499691" lon="2.7926831"><ele>52.03</ele><time>2026-4-29T0:33:5Z</time></trkpt>
<trkpt lat="48.9499813" lon="2.7930575"><ele>51.58</ele><time>2026-4-29T0:33:8Z</time></trkpt>
<trkpt lat="48.9499911" lon="2.7933530"><ele>51.02</ele><time>2026-4-29T0:33:11Z</time></trkpt>
<trkpt lat="48.9499906" lon="2.7936889"><ele>50.88</ele><time>2026-4-29T0:33:14Z</time></trkpt>
<trkpt lat="48.9499703" lon="2.7939630"><ele>51.54</ele><time>2026-4-29T0:33:17Z</time></trkpt>
<trkpt lat="48.9499409" lon="2.7943141"><ele>51.56</ele><time>2026-4-29T0:33:20Z</time></trkpt>
<trkpt lat="48.9499151" lon="2.7946607"><ele>51.84</ele><time>2026-4-29T0:33:23Z</time></trkpt>
<trkpt lat="48.9498801" lon="2.7950139"><ele>52.12</ele><time>2026-4-29T0:33:26Z</time></trkpt>
<trkpt lat="48.9498284" lon="2.7953677"><ele>51.76</ele><time>2026-4-29T0:33:29Z</time></trkpt>
<trkpt lat="48.9497906" lon="2.7956385"><ele>50.89</ele><time>2026-4-29T0:33:32Z</time></trkpt>
<trkpt lat="48.9497467" lon="2.7959654"><ele>51.45</ele><time>2026-4-29T0:33:35Z</time></trkpt>
<trkpt lat="48.9496896" lon="2.7962889"><ele>50.45</ele><time>2026-4-29T0:33:38Z</time></trkpt>
<trkpt lat="48.9496268" lon="2.7965496"><ele>50.45</ele><time>2026-4-29T0:33:41Z</time></trkpt>
<trkpt lat="48.9495638" lon="2.7968771"><ele>51.29</ele><time>2026-4-29T0:33:44Z</time></trkpt>
<trkpt lat="48.9494954" lon="2.7972077"><ele>51.82</ele><time>2026-4-29T0:33:47Z</time></trkpt>
<trkpt lat="48.9494070" lon="2.7975247"><ele>54.75</ele><time>2026-4-29T0:33:50Z</time></trkpt>
<trkpt lat="48.9493185" lon="2.7978402"><ele>54.26</ele><time>2026-4-29T0:33:53Z</time></trkpt>
<trkpt lat="48.9492108" lon="2.7981429"><ele>53.09</ele><time>2026-4-29T0:33:56Z</time></trkpt>
<trkpt lat="48.9490992" lon="2.7984378"><ele>52.15</ele><time>2026-4-29T0:33:59Z</time></trkpt>
<trkpt lat="48.9489900" lon="2.7987427"><ele>52.24</ele><time>2026-4-29T0:34:2Z</time></trkpt>
<trkpt lat="48.9488591" lon="2.7990396"><ele>52.20</ele><time>2026-4-29T0:34:5Z</time></trkpt>
<trkpt lat="48.9487402" lon="2.7993386"><ele>52.70</ele><time>2026-4-29T0:34:8Z</time></trkpt>
<trkpt lat="48.9485959" lon="2.7996236"><ele>52.36</ele><time>2026-4-29T0:34:11Z</time></trkpt>
<trkpt lat="48.9484412" lon="2.7998969"><ele>52.95</ele><time>2026-4-29T0:34:14Z</time></trkpt>
<trkpt lat="48.9482828" lon="2.8001561"><ele>53.50</ele><time>2026-4-29T0:34:17Z</time></trkpt>
<trkpt lat="48.9481298" lon="2.8004274"><ele>53.54</ele><time>2026-4-29T0:34:20Z</time></trkpt>
<trkpt lat="48.9479814" lon="2.8007073"><ele>54.66</ele><time>2026-4-29T0:34:23Z</time></trkpt>
<trkpt lat="48.9478187" lon="2.8009734"><ele>54.40</ele><time>2026-4-29T0:34:26Z</time></trkpt>
<trkpt lat="48.9476644" lon="2.8012366"><ele>54.65</ele><time>2026-4-29T0:34:29Z</time></trkpt>
<trkpt lat="48.9475051" lon="2.8014982"><ele>54.05</ele><time>2026-4-29T0:34:32Z</time></trkpt>
<trkpt lat="48.9473552" lon="2.8017627"><ele>54.00</ele><time>2026-4-29T0:34:35Z</time></trkpt>
<trkpt lat="48.9472246" lon="2.8019624"><ele>53.58</ele><time>2026-4-29T0:34:38Z</time></trkpt>
<trkpt lat="48.9470667" lon="2.8022271"><ele>54.92</ele><time>2026-4-29T0:34:41Z</time></trkpt>
<trkpt lat="48.9469380" lon="2.8024280"><ele>54.77</ele><time>2026-4-29T0:34:44Z</time></trkpt>
<trkpt lat="48.9467819" lon="2.8026993"><ele>56.07</ele><time>2026-4-29T0:34:47Z</time></trkpt>
<trkpt lat="48.9466214" lon="2.8029617"><ele>56.56</ele><time>2026-4-29T0:34:50Z</time></trkpt>
<trkpt lat="48.9464700" lon="2.8032350"><ele>56.70</ele><time>2026-4-29T0:34:53Z</time></trkpt>
<trkpt lat="48.9463513" lon="2.8034440"><ele>55.52</ele><time>2026-4-29T0:34:56Z</time></trkpt>
<trkpt lat="48.9462349" lon="2.8036563"><ele>55.68</ele><time>2026-4-29T0:34:59Z</time></trkpt>
<trkpt lat="48.9461226" lon="2.8038761"><ele>54.19</ele><time>2026-4-29T0:35:2Z</time></trkpt>
<trkpt lat="48.9459631" lon="2.8041357"><ele>54.02</ele><time>2026-4-29T0:35:5Z</time></trkpt>
<trkpt lat="48.9458492" lon="2.8043551"><ele>53.65</ele><time>2026-4-29T0:35:8Z</time></trkpt>
<trkpt lat="48.9456908" lon="2.8046044"><ele>54.23</ele><time>2026-4-29T0:35:11Z</time></trkpt>
<trkpt lat="48.9455203" lon="2.8048565"><ele>54.90</ele><time>2026-4-29T0:35:14Z</time></trkpt>
<trkpt lat="48.9453501" lon="2.8050867"><ele>54.17</ele><time>2026-4-29T0:35:17Z</time></trkpt>
<trkpt lat="48.9451560" lon="2.8052171"><ele>52.92</ele><time>2026-4-29T0:35:20Z</time></trkpt>
<trkpt lat="48.9449303" lon="2.8053420"><ele>51.03</ele><time>2026-4-29T0:35:23Z</time></trkpt>
<trkpt lat="48.9446882" lon="2.8054902"><ele>51.22</ele><time>2026-4-29T0:35:26Z</time></trkpt>
<trkpt lat="48.9445056" lon="2.8055719"><ele>49.37</ele><time>2026-4-29T0:35:29Z</time></trkpt>
<trkpt lat="48.9442978" lon="2.8057147"><ele>50.12</ele><time>2026-4-29T0:35:32Z</time></trkpt>
<trkpt lat="48.9441007" lon="2.8058910"><ele>51.05</ele><time>2026-4-29T0:35:35Z</time></trkpt>
<trkpt lat="48.9439218" lon="2.8061330"><ele>51.71</ele><time>2026-4-29T0:35:38Z</time></trkpt>
<trkpt lat="48.9437568" lon="2.8063636"><ele>51.52</ele><time>2026-4-29T0:35:41Z</time></trkpt>
<trkpt lat="48.9436373" lon="2.8066465"><ele>53.09</ele><time>2026-4-29T0:35:44Z</time></trkpt>
<trkpt lat="48.9435243" lon="2.8069182"><ele>54.84</ele><time>2026-4-29T0:35:47Z</time></trkpt>
<trkpt lat="48.9434147" lon="2.8071480"><ele>54.42</ele><time>2026-4-29T0:35:50Z</time></trkpt>
<trkpt lat="48.9433240" lon="2.8074108"><ele>54.09</ele><time>2026-4-29T0:35:53Z</time></trkpt>
<trkpt lat="48.9432161" lon="2.8077249"><ele>52.80</ele><time>2026-4-29T0:35:56Z</time></trkpt>
<trkpt lat="48.9430675" lon="2.8079579"><ele>52.26</ele><time>2026-4-29T0:35:59Z</time></trkpt>
<trkpt lat="48.9429125" lon="2.8081004"><ele>51.45</ele><time>2026-4-29T0:36:2Z</time></trkpt>
<trkpt lat="48.9427449" lon="2.8082017"><ele>52.07</ele><time>2026-4-29T0:36:5Z</time></trkpt>
<trkpt lat="48.9425546" lon="2.8082496"><ele>51.57</ele><time>2026-4-29T0:36:8Z</time></trkpt>
<trkpt lat="48.9423470" lon="2.8082480"><ele>51.01</ele><time>2026-4-29T0:36:11Z</time></trkpt>
<trkpt lat="48.9421304" lon="2.8082453"><ele>50.40</ele><time>2026-4-29T0:36:14Z</time></trkpt>
<trkpt lat="48.9419267" lon="2.8082682"><ele>49.72</ele><time>2026-4-29T0:36:17Z</time></trkpt>
<trkpt lat="48.9417056" lon="2.8083090"><ele>50.57</ele><time>2026-4-29T0:36:20Z</time></trkpt>
<trkpt lat="48.9414957" lon="2.8083481"><ele>51.48</ele><time>2026-4-29T0:36:23Z</time></trkpt>
<trkpt lat="48.9413031" lon="2.8084109"><ele>51.29</ele><time>2026-4-29T0:36:26Z</time></trkpt>
<trkpt lat="48.9410961" lon="2.8084996"><ele>49.53</ele><time>2026-4-29T0:36:29Z</time></trkpt>
<trkpt lat="48.9409119" lon="2.8086058"><ele>48.62</ele><time>2026-4-29T0:36:32Z</time></trkpt>
<trkpt lat="48.9407337" lon="2.8086988"><ele>48.38</ele><time>2026-4-29T0:36:35Z</time></trkpt>
<trkpt lat="48.9405453" lon="2.8088118"><ele>50.08</ele><time>2026-4-29T0:36:38Z</time></trkpt>
<trkpt lat="48.9403656" lon="2.8089081"><ele>49.18</ele><time>2026-4-29T0:36:41Z</time></trkpt>
<trkpt lat="48.9401775" lon="2.8090228"><ele>49.55</ele><time>2026-4-29T0:36:44Z</time></trkpt>
<trkpt lat="48.9399589" lon="2.8091344"><ele>48.71</ele><time>2026-4-29T0:36:47Z</time></trkpt>
<trkpt lat="48.9397855" lon="2.8092155"><ele>48.62</ele><time>2026-4-29T0:36:50Z</time></trkpt>
<trkpt lat="48.9395782" lon="2.8093514"><ele>47.91</ele><time>2026-4-29T0:36:53Z</time></trkpt>
<trkpt lat="48.9393958" lon="2.8095215"><ele>46.76</ele><time>2026-4-29T0:36:56Z</time></trkpt>
<trkpt lat="48.9392383" lon="2.8096933"><ele>45.48</ele><time>2026-4-29T0:36:59Z</time></trkpt>
<trkpt lat="48.9390884" lon="2.8098857"><ele>46.61</ele><time>2026-4-29T0:37:2Z</time></trkpt>
<trkpt lat="48.9389535" lon="2.8101223"><ele>46.40</ele><time>2026-4-29T0:37:5Z</time></trkpt>
<trkpt lat="48.9388448" lon="2.8104148"><ele>46.91</ele><time>2026-4-29T0:37:8Z</time></trkpt>
<trkpt lat="48.9387486" lon="2.8107188"><ele>46.96</ele><time>2026-4-29T0:37:11Z</time></trkpt>
<trkpt lat="48.9386757" lon="2.8110171"><ele>47.46</ele><time>2026-4-29T0:37:14Z</time></trkpt>
<trkpt lat="48.9386201" lon="2.8113274"><ele>48.92</ele><time>2026-4-29T0:37:17Z</time></trkpt>
<trkpt lat="48.9385720" lon="2.8116423"><ele>49.80</ele><time>2026-4-29T0:37:20Z</time></trkpt>
<trkpt lat="48.9385156" lon="2.8119289"><ele>49.52</ele><time>2026-4-29T0:37:23Z</time></trkpt>
<trkpt lat="48.9384437" lon="2.8122636"><ele>49.12</ele><time>2026-4-29T0:37:26Z</time></trkpt>
<trkpt lat="48.9383734" lon="2.8125221"><ele>49.32</ele><time>2026-4-29T0:37:29Z</time></trkpt>
<trkpt lat="48.9383020" lon="2.8127742"><ele>50.27</ele><time>2026-4-29T0:37:32Z</time></trkpt>
<trkpt lat="48.9382338" lon="2.8130283"><ele>49.90</ele><time>2026-4-29T0:37:35Z</time></trkpt>
<trkpt lat="48.9381104" lon="2.8133551"><ele>50.14</ele><time>2026-4-29T0:37:38Z</time></trkpt>
<trkpt lat="48.9379772" lon="2.8136370"><ele>52.19</ele><time>2026-4-29T0:37:41Z</time></trkpt>
<trkpt lat="48.9378651" lon="2.8138544"><ele>52.51</ele><time>2026-4-29T0:37:44Z</time></trkpt>
<trkpt lat="48.9377205" lon="2.8140410"><ele>52.18</ele><time>2026-4-29T0:37:47Z</time></trkpt>
<trkpt lat="48.9375907" lon="2.8142465"><ele>52.27</ele><time>2026-4-29T0:37:50Z</time></trkpt>
<trkpt lat="48.9374013" lon="2.8144657"><ele>52.24</ele><time>2026-4-29T0:37:53Z</time></trkpt>
<trkpt lat="48.9372259" lon="2.8146993"><ele>50.79</ele><time>2026-4-29T0:37:56Z</time></trkpt>
<trkpt lat="48.9370735" lon="2.8148564"><ele>49.03</ele><time>2026-4-29T0:37:59Z</time></trkpt>
<trkpt lat="48.9368760" lon="2.8150539"><ele>48.89</ele><time>2026-4-29T0:38:2Z</time></trkpt>
<trkpt lat="48.9366764" lon="2.8152291"><ele>48.82</ele><time>2026-4-29T0:38:5Z</time></trkpt>
<trkpt lat="48.9364697" lon="2.8153696"><ele>49.21</ele><time>2026-4-29T0:38:8Z</time></trkpt>
<trkpt lat="48.9362751" lon="2.8155287"><ele>49.21</ele><time>2026-4-29T0:38:11Z</time></trkpt>
<trkpt lat="48.9360554" lon="2.8156556"><ele>49.12</ele><time>2026-4-29T0:38:14Z</time></trkpt>
<trkpt lat="48.9358365" lon="2.8157925"><ele>49.46</ele><time>2026-4-29T0:38:17Z</time></trkpt>
<trkpt lat="48.9356123" lon="2.8158977"><ele>49.37</ele><time>2026-4-29T0:38:20Z</time></trkpt>
<trkpt lat="48.9353936" lon="2.8160111"><ele>48.89</ele><time>2026-4-29T0:38:23Z</time></trkpt>
<trkpt lat="48.9351805" lon="2.8161232"><ele>48.86</ele><time>2026-4-29T0:38:26Z</time></trkpt>
<trkpt lat="48.9349824" lon="2.8162197"><ele>50.03</ele><time>2026-4-29T0:38:29Z</time></trkpt>
<trkpt lat="48.9347773" lon="2.8162641"><ele>49.59</ele><time>2026-4-29T0:38:32Z</time></trkpt>
<trkpt lat="48.9345896" lon="2.8162368"><ele>50.36</ele><time>2026-4-29T0:38:35Z</time></trkpt>
<trkpt lat="48.9343889" lon="2.8163787"><ele>49.12</ele><time>2026-4-29T0:38:38Z</time></trkpt>
<trkpt lat="48.9342101" lon="2.8164591"><ele>48.81</ele><time>2026-4-29T0:38:41Z</time></trkpt>
<trkpt lat="48.9340115" lon="2.8165374"><ele>49.01</ele><time>2026-4-29T0:38:44Z</time></trkpt>
<trkpt lat="48.9337862" lon="2.8166211"><ele>49.39</ele><time>2026-4-29T0:38:47Z</time></trkpt>
<trkpt lat="48.9336014" lon="2.8166886"><ele>46.87</ele><time>2026-4-29T0:38:50Z</time></trkpt>
<trkpt lat="48.9334103" lon="2.8167818"><ele>47.12</ele><time>2026-4-29T0:38:53Z</time></trkpt>
<trkpt lat="48.9332121" lon="2.8168726"><ele>46.70</ele><time>2026-4-29T0:38:56Z</time></trkpt>
<trkpt lat="48.9330378" lon="2.8169473"><ele>46.81</ele><time>2026-4-29T0:38:59Z</time></trkpt>
<trkpt lat="48.9328480" lon="2.8170265"><ele>48.04</ele><time>2026-4-29T0:39:2Z</time></trkpt>
<trkpt lat="48.9326310" lon="2.8171287"><ele>48.11</ele><time>2026-4-29T0:39:5Z</time></trkpt>
<trkpt lat="48.9324149" lon="2.8172432"><ele>48.71</ele><time>2026-4-29T0:39:8Z</time></trkpt>
<trkpt lat="48.9322450" lon="2.8173454"><ele>48.91</ele><time>2026-4-29T0:39:11Z</time></trkpt>
<trkpt lat="48.9320244" lon="2.8174626"><ele>49.47</ele><time>2026-4-29T0:39:14Z</time></trkpt>
<trkpt lat="48.9318356" lon="2.8175718"><ele>48.66</ele><time>2026-4-29T0:39:17Z</time></trkpt>
<trkpt lat="48.9316543" lon="2.8176895"><ele>48.82</ele><time>2026-4-29T0:39:20Z</time></trkpt>
<trkpt lat="48.9314775" lon="2.8177895"><ele>49.41</ele><time>2026-4-29T0:39:23Z</time></trkpt>
<trkpt lat="48.9312883" lon="2.8178942"><ele>48.64</ele><time>2026-4-29T0:39:26Z</time></trkpt>
<trkpt lat="48.9311231" lon="2.8180165"><ele>49.68</ele><time>2026-4-29T0:39:29Z</time></trkpt>
<trkpt lat="48.9309297" lon="2.8181457"><ele>49.29</ele><time>2026-4-29T0:39:32Z</time></trkpt>
<trkpt lat="48.9307309" lon="2.8182863"><ele>48.85</ele><time>2026-4-29T0:39:35Z</time></trkpt>
<trkpt lat="48.9305204" lon="2.8184308"><ele>48.70</ele><time>2026-4-29T0:39:38Z</time></trkpt>
<trkpt lat="48.9303132" lon="2.8185944"><ele>48.53</ele><time>2026-4-29T0:39:41Z</time></trkpt>
<trkpt lat="48.9301487" lon="2.8187178"><ele>48.94</ele><time>2026-4-29T0:39:44Z</time></trkpt>
<trkpt lat="48.9299381" lon="2.8188909"><ele>49.96</ele><time>2026-4-29T0:39:47Z</time></trkpt>
<trkpt lat="48.9297720" lon="2.8190251"><ele>50.25</ele><time>2026-4-29T0:39:50Z</time></trkpt>
<trkpt lat="48.9296058" lon="2.8191539"><ele>50.46</ele><time>2026-4-29T0:39:53Z</time></trkpt>
<trkpt lat="48.9294457" lon="2.8192910"><ele>50.51</ele><time>2026-4-29T0:39:56Z</time></trkpt>
<trkpt lat="48.9292846" lon="2.8194366"><ele>50.17</ele><time>2026-4-29T0:39:59Z</time></trkpt>
<trkpt lat="48.9290867" lon="2.8196342"><ele>49.53</ele><time>2026-4-29T0:40:2Z</time></trkpt>
<trkpt lat="48.9289300" lon="2.8197898"><ele>49.76</ele><time>2026-4-29T0:40:5Z</time></trkpt>
<trkpt lat="48.9287766" lon="2.8199476"><ele>49.49</ele><time>2026-4-29T0:40:8Z</time></trkpt>
<trkpt lat="48.9286215" lon="2.8201103"><ele>48.70</ele><time>2026-4-29T0:40:11Z</time></trkpt>
<trkpt lat="48.9284310" lon="2.8203147"><ele>48.41</ele><time>2026-4-29T0:40:14Z</time></trkpt>
<trkpt lat="48.9282560" lon="2.8205194"><ele>47.80</ele><time>2026-4-29T0:40:17Z</time></trkpt>
<trkpt lat="48.9280836" lon="2.8207349"><ele>47.88</ele><time>2026-4-29T0:40:20Z</time></trkpt>
<trkpt lat="48.9279053" lon="2.8209487"><ele>46.72</ele><time>2026-4-29T0:40:23Z</time></trkpt>
<trkpt lat="48.9277483" lon="2.8211534"><ele>46.43</ele><time>2026-4-29T0:40:26Z</time></trkpt>
<trkpt lat="48.9275948" lon="2.8213500"><ele>48.28</ele><time>2026-4-29T0:40:29Z</time></trkpt>
<trkpt lat="48.9274581" lon="2.8215354"><ele>48.55</ele><time>2026-4-29T0:40:32Z</time></trkpt>
<trkpt lat="48.9272837" lon="2.8217719"><ele>47.62</ele><time>2026-4-29T0:40:35Z</time></trkpt>
<trkpt lat="48.9271119" lon="2.8220121"><ele>46.58</ele><time>2026-4-29T0:40:38Z</time></trkpt>
<trkpt lat="48.9269532" lon="2.8222560"><ele>46.25</ele><time>2026-4-29T0:40:41Z</time></trkpt>
<trkpt lat="48.9268167" lon="2.8225070"><ele>46.79</ele><time>2026-4-29T0:40:44Z</time></trkpt>
<trkpt lat="48.9266701" lon="2.8227577"><ele>47.62</ele><time>2026-4-29T0:40:47Z</time></trkpt>
<trkpt lat="48.9265318" lon="2.8230023"><ele>47.34</ele><time>2026-4-29T0:40:50Z</time></trkpt>
<trkpt lat="48.9264143" lon="2.8232583"><ele>47.10</ele><time>2026-4-29T0:40:53Z</time></trkpt>
<trkpt lat="48.9262942" lon="2.8235192"><ele>46.76</ele><time>2026-4-29T0:40:56Z</time></trkpt>
<trkpt lat="48.9261689" lon="2.8238153"><ele>47.38</ele><time>2026-4-29T0:40:59Z</time></trkpt>
<trkpt lat="48.9260573" lon="2.8241097"><ele>48.41</ele><time>2026-4-29T0:41:2Z</time></trkpt>
<trkpt lat="48.9259542" lon="2.8244325"><ele>48.56</ele><time>2026-4-29T0:41:5Z</time></trkpt>
<trkpt lat="48.9258723" lon="2.8247388"><ele>48.90</ele><time>2026-4-29T0:41:8Z</time></trkpt>
<trkpt lat="48.9258071" lon="2.8250616"><ele>48.84</ele><time>2026-4-29T0:41:11Z</time></trkpt>
<trkpt lat="48.9257610" lon="2.8253831"><ele>47.96</ele><time>2026-4-29T0:41:14Z</time></trkpt>
<trkpt lat="48.9257245" lon="2.8257088"><ele>48.31</ele><time>2026-4-29T0:41:17Z</time></trkpt>
<trkpt lat="48.9257004" lon="2.8260098"><ele>49.14</ele><time>2026-4-29T0:41:20Z</time></trkpt>
<trkpt lat="48.9257007" lon="2.8263226"><ele>49.58</ele><time>2026-4-29T0:41:23Z</time></trkpt>
<trkpt lat="48.9256926" lon="2.8266090"><ele>49.90</ele><time>2026-4-29T0:41:26Z</time></trkpt>
<trkpt lat="48.9256623" lon="2.8269168"><ele>50.19</ele><time>2026-4-29T0:41:29Z</time></trkpt>
<trkpt lat="48.9256012" lon="2.8272223"><ele>50.39</ele><time>2026-4-29T0:41:32Z</time></trkpt>
<trkpt lat="48.9255275" lon="2.8275311"><ele>49.91</ele><time>2026-4-29T0:41:35Z</time></trkpt>
<trkpt lat="48.9254105" lon="2.8278350"><ele>50.20</ele><time>2026-4-29T0:41:38Z</time></trkpt>
<trkpt lat="48.9252989" lon="2.8280540"><ele>49.69</ele><time>2026-4-29T0:41:41Z</time></trkpt>
<trkpt lat="48.9251707" lon="2.8282526"><ele>49.31</ele><time>2026-4-29T0:41:44Z</time></trkpt>
<trkpt lat="48.9250368" lon="2.8284384"><ele>48.97</ele><time>2026-4-29T0:41:47Z</time></trkpt>
<trkpt lat="48.9248468" lon="2.8286404"><ele>49.65</ele><time>2026-4-29T0:41:50Z</time></trkpt>
<trkpt lat="48.9246460" lon="2.8288074"><ele>50.46</ele><time>2026-4-29T0:41:53Z</time></trkpt>
<trkpt lat="48.9244477" lon="2.8289392"><ele>50.48</ele><time>2026-4-29T0:41:56Z</time></trkpt>
<trkpt lat="48.9242545" lon="2.8290718"><ele>50.44</ele><time>2026-4-29T0:41:59Z</time></trkpt>
<trkpt lat="48.9240511" lon="2.8291801"><ele>49.67</ele><time>2026-4-29T0:42:2Z</time></trkpt>
<trkpt lat="48.9238518" lon="2.8292570"><ele>48.70</ele><time>2026-4-29T0:42:5Z</time></trkpt>
<trkpt lat="48.9236395" lon="2.8293571"><ele>51.06</ele><time>2026-4-29T0:42:8Z</time></trkpt>
<trkpt lat="48.9234628" lon="2.8294144"><ele>50.88</ele><time>2026-4-29T0:42:11Z</time></trkpt>
<trkpt lat="48.9232632" lon="2.8294729"><ele>51.78</ele><time>2026-4-29T0:42:14Z</time></trkpt>
<trkpt lat="48.9230455" lon="2.8294964"><ele>50.97</ele><time>2026-4-29T0:42:17Z</time></trkpt>
<trkpt lat="48.9228303" lon="2.8295119"><ele>49.93</ele><time>2026-4-29T0:42:20Z</time></trkpt>
<trkpt lat="48.9226156" lon="2.8295650"><ele>49.32</ele><time>2026-4-29T0:42:23Z</time></trkpt>
<trkpt lat="48.9224191" lon="2.8296481"><ele>49.23</ele><time>2026-4-29T0:42:26Z</time></trkpt>
<trkpt lat="48.9222408" lon="2.8297134"><ele>49.87</ele><time>2026-4-29T0:42:29Z</time></trkpt>
<trkpt lat="48.9220188" lon="2.8298268"><ele>51.88</ele><time>2026-4-29T0:42:32Z</time></trkpt>
<trkpt lat="48.9218032" lon="2.8299517"><ele>51.59</ele><time>2026-4-29T0:42:35Z</time></trkpt>
<trkpt lat="48.9215842" lon="2.8300930"><ele>51.62</ele><time>2026-4-29T0:42:38Z</time></trkpt>
<trkpt lat="48.9213829" lon="2.8302528"><ele>51.08</ele><time>2026-4-29T0:42:41Z</time></trkpt>
<trkpt lat="48.9211974" lon="2.8304256"><ele>50.87</ele><time>2026-4-29T0:42:44Z</time></trkpt>
<trkpt lat="48.9210090" lon="2.8306270"><ele>50.88</ele><time>2026-4-29T0:42:47Z</time></trkpt>
<trkpt lat="48.9208348" lon="2.8308452"><ele>49.87</ele><time>2026-4-29T0:42:50Z</time></trkpt>
<trkpt lat="48.9206892" lon="2.8310295"><ele>50.53</ele><time>2026-4-29T0:42:53Z</time></trkpt>
<trkpt lat="48.9205245" lon="2.8312829"><ele>51.00</ele><time>2026-4-29T0:42:56Z</time></trkpt>
<trkpt lat="48.9203683" lon="2.8315557"><ele>50.78</ele><time>2026-4-29T0:42:59Z</time></trkpt>
<trkpt lat="48.9202312" lon="2.8318334"><ele>49.78</ele><time>2026-4-29T0:43:2Z</time></trkpt>
<trkpt lat="48.9201006" lon="2.8321080"><ele>49.51</ele><time>2026-4-29T0:43:5Z</time></trkpt>
<trkpt lat="48.9199859" lon="2.8323893"><ele>49.20</ele><time>2026-4-29T0:43:8Z</time></trkpt>
<trkpt lat="48.9198936" lon="2.8326755"><ele>49.56</ele><time>2026-4-29T0:43:11Z</time></trkpt>
<trkpt lat="48.9197994" lon="2.8329562"><ele>49.99</ele><time>2026-4-29T0:43:14Z</time></trkpt>
<trkpt lat="48.9197084" lon="2.8332409"><ele>49.39</ele><time>2026-4-29T0:43:17Z</time></trkpt>
<trkpt lat="48.9196168" lon="2.8335111"><ele>49.62</ele><time>2026-4-29T0:43:20Z</time></trkpt>
<trkpt lat="48.9195319" lon="2.8338057"><ele>50.54</ele><time>2026-4-29T0:43:23Z</time></trkpt>
<trkpt lat="48.9194314" lon="2.8341118"><ele>49.69</ele><time>2026-4-29T0:43:26Z</time></trkpt>
<trkpt lat="48.9193405" lon="2.8344305"><ele>49.06</ele><time>2026-4-29T0:43:29Z</time></trkpt>
<trkpt lat="48.9192596" lon="2.8347541"><ele>49.01</ele><time>2026-4-29T0:43:32Z</time></trkpt>
<trkpt lat="48.9191534" lon="2.8350606"><ele>49.69</ele><time>2026-4-29T0:43:35Z</time></trkpt>
<trkpt lat="48.9190756" lon="2.8353767"><ele>49.91</ele><time>2026-4-29T0:43:38Z</time></trkpt>
<trkpt lat="48.9189993" lon="2.8356871"><ele>50.35</ele><time>2026-4-29T0:43:41Z</time></trkpt>
<trkpt lat="48.9189271" lon="2.8360154"><ele>50.76</ele><time>2026-4-29T0:43:44Z</time></trkpt>
<trkpt lat="48.9188537" lon="2.8363339"><ele>50.53</ele><time>2026-4-29T0:43:47Z</time></trkpt>
<trkpt lat="48.9187987" lon="2.8366350"><ele>50.41</ele><time>2026-4-29T0:43:50Z</time></trkpt>
<trkpt lat="48.9187432" lon="2.8369364"><ele>51.03</ele><time>2026-4-29T0:43:53Z</time></trkpt>
<trkpt lat="48.9186868" lon="2.8372579"><ele>52.81</ele><time>2026-4-29T0:43:56Z</time></trkpt>
<trkpt lat="48.9186202" lon="2.8375152"><ele>54.03</ele><time>2026-4-29T0:43:59Z</time></trkpt>
<trkpt lat="48.9186185" lon="2.8378325"><ele>53.07</ele><time>2026-4-29T0:44:2Z</time></trkpt>
<trkpt lat="48.9185873" lon="2.8381489"><ele>51.67</ele><time>2026-4-29T0:44:5Z</time></trkpt>
<trkpt lat="48.9185654" lon="2.8384869"><ele>51.10</ele><time>2026-4-29T0:44:8Z</time></trkpt>
<trkpt lat="48.9185645" lon="2.8388181"><ele>51.68</ele><time>2026-4-29T0:44:11Z</time></trkpt>
<trkpt lat="48.9185657" lon="2.8391628"><ele>51.81</ele><time>2026-4-29T0:44:14Z</time></trkpt>
<trkpt lat="48.9185881" lon="2.8395110"><ele>52.14</ele><time>2026-4-29T0:44:17Z</time></trkpt>
<trkpt lat="48.9186087" lon="2.8397854"><ele>52.33</ele><time>2026-4-29T0:44:20Z</time></trkpt>
<trkpt lat="48.9186583" lon="2.8400721"><ele>52.52</ele><time>2026-4-29T0:44:23Z</time></trkpt>
<trkpt lat="48.9187128" lon="2.8403455"><ele>52.87</ele><time>2026-4-29T0:44:26Z</time></trkpt>
<trkpt lat="48.9187656" lon="2.8406111"><ele>53.32</ele><time>2026-4-29T0:44:29Z</time></trkpt>
<trkpt lat="48.9188251" lon="2.8409584"><ele>53.18</ele><time>2026-4-29T0:44:32Z</time></trkpt>
<trkpt lat="48.9189015" lon="2.8412117"><ele>52.41</ele><time>2026-4-29T0:44:35Z</time></trkpt>
<trkpt lat="48.9190048" lon="2.8415413"><ele>52.25</ele><time>2026-4-29T0:44:38Z</time></trkpt>
<trkpt lat="48.9190897" lon="2.8417930"><ele>52.18</ele><time>2026-4-29T0:44:41Z</time></trkpt>
<trkpt lat="48.9191817" lon="2.8421222"><ele>53.54</ele><time>2026-4-29T0:44:44Z</time></trkpt>
<trkpt lat="48.9192759" lon="2.8424452"><ele>53.81</ele><time>2026-4-29T0:44:47Z</time></trkpt>
<trkpt lat="48.9193878" lon="2.8427514"><ele>54.83</ele><time>2026-4-29T0:44:50Z</time></trkpt>
<trkpt lat="48.9195001" lon="2.8430563"><ele>55.39</ele><time>2026-4-29T0:44:53Z</time></trkpt>
<trkpt lat="48.9196136" lon="2.8433545"><ele>55.37</ele><time>2026-4-29T0:44:56Z</time></trkpt>
<trkpt lat="48.9197315" lon="2.8436548"><ele>55.33</ele><time>2026-4-29T0:44:59Z</time></trkpt>
<trkpt lat="48.9198655" lon="2.8439584"><ele>53.82</ele><time>2026-4-29T0:45:2Z</time></trkpt>
<trkpt lat="48.9200132" lon="2.8442416"><ele>53.42</ele><time>2026-4-29T0:45:5Z</time></trkpt>
<trkpt lat="48.9201588" lon="2.8445231"><ele>53.84</ele><time>2026-4-29T0:45:8Z</time></trkpt>
<trkpt lat="48.9203088" lon="2.8447974"><ele>54.35</ele><time>2026-4-29T0:45:11Z</time></trkpt>
<trkpt lat="48.9204565" lon="2.8450678"><ele>54.89</ele><time>2026-4-29T0:45:14Z</time></trkpt>
<trkpt lat="48.9206122" lon="2.8453253"><ele>54.70</ele><time>2026-4-29T0:45:17Z</time></trkpt>
<trkpt lat="48.9207602" lon="2.8455823"><ele>54.84</ele><time>2026-4-29T0:45:20Z</time></trkpt>
<trkpt lat="48.9209215" lon="2.8458224"><ele>55.57</ele><time>2026-4-29T0:45:23Z</time></trkpt>
<trkpt lat="48.9210827" lon="2.8460613"><ele>55.38</ele><time>2026-4-29T0:45:26Z</time></trkpt>
<trkpt lat="48.9212568" lon="2.8463026"><ele>54.19</ele><time>2026-4-29T0:45:29Z</time></trkpt>
<trkpt lat="48.9214307" lon="2.8465510"><ele>52.06</ele><time>2026-4-29T0:45:32Z</time></trkpt>
<trkpt lat="48.9216035" lon="2.8467550"><ele>52.62</ele><time>2026-4-29T0:45:35Z</time></trkpt>
<trkpt lat="48.9217915" lon="2.8469551"><ele>52.28</ele><time>2026-4-29T0:45:38Z</time></trkpt>
<trkpt lat="48.9219809" lon="2.8471604"><ele>52.50</ele><time>2026-4-29T0:45:41Z</time></trkpt>
<trkpt lat="48.9221694" lon="2.8473551"><ele>53.07</ele><time>2026-4-29T0:45:44Z</time></trkpt>
<trkpt lat="48.9223470" lon="2.8475659"><ele>52.26</ele><time>2026-4-29T0:45:47Z</time></trkpt>
<trkpt lat="48.9225364" lon="2.8477563"><ele>52.90</ele><time>2026-4-29T0:45:50Z</time></trkpt>
<trkpt lat="48.9227217" lon="2.8479674"><ele>52.32</ele><time>2026-4-29T0:45:53Z</time></trkpt>
<trkpt lat="48.9228763" lon="2.8481175"><ele>50.82</ele><time>2026-4-29T0:45:56Z</time></trkpt>
<trkpt lat="48.9230737" lon="2.8483072"><ele>50.32</ele><time>2026-4-29T0:45:59Z</time></trkpt>
<trkpt lat="48.9232278" lon="2.8484572"><ele>51.03</ele><time>2026-4-29T0:46:2Z</time></trkpt>
<trkpt lat="48.9234272" lon="2.8486434"><ele>50.41</ele><time>2026-4-29T0:46:5Z</time></trkpt>
<trkpt lat="48.9236173" lon="2.8488149"><ele>49.17</ele><time>2026-4-29T0:46:8Z</time></trkpt>
<trkpt lat="48.9237908" lon="2.8489357"><ele>50.59</ele><time>2026-4-29T0:46:11Z</time></trkpt>
<trkpt lat="48.9239923" lon="2.8490877"><ele>50.90</ele><time>2026-4-29T0:46:14Z</time></trkpt>
<trkpt lat="48.9241600" lon="2.8491921"><ele>51.40</ele><time>2026-4-29T0:46:17Z</time></trkpt>
<trkpt lat="48.9243681" lon="2.8493484"><ele>50.79</ele><time>2026-4-29T0:46:20Z</time></trkpt>
<trkpt lat="48.9245846" lon="2.8494909"><ele>51.09</ele><time>2026-4-29T0:46:23Z</time></trkpt>
<trkpt lat="48.9248065" lon="2.8496089"><ele>50.81</ele><time>2026-4-29T0:46:26Z</time></trkpt>
<trkpt lat="48.9250113" lon="2.8497342"><ele>50.96</ele><time>2026-4-29T0:46:29Z</time></trkpt>
<trkpt lat="48.9252296" lon="2.8498544"><ele>50.89</ele><time>2026-4-29T0:46:32Z</time></trkpt>
<trkpt lat="48.9254361" lon="2.8499791"><ele>50.40</ele><time>2026-4-29T0:46:35Z</time></trkpt>
<trkpt lat="48.9256464" lon="2.8500791"><ele>52.03</ele><time>2026-4-29T0:46:38Z</time></trkpt>
<trkpt lat="48.9258504" lon="2.8501952"><ele>54.28</ele><time>2026-4-29T0:46:41Z</time></trkpt>
<trkpt lat="48.9260117" lon="2.8503504"><ele>48.67</ele><time>2026-4-29T0:46:44Z</time></trkpt>
<trkpt lat="48.9262007" lon="2.8505643"><ele>46.07</ele><time>2026-4-29T0:46:47Z</time></trkpt>
<trkpt lat="48.9263495" lon="2.8507774"><ele>47.62</ele><time>2026-4-29T0:46:50Z</time></trkpt>
<trkpt lat="48.9264814" lon="2.8510396"><ele>48.39</ele><time>2026-4-29T0:46:53Z</time></trkpt>
<trkpt lat="48.9266011" lon="2.8512489"><ele>46.45</ele><time>2026-4-29T0:46:56Z</time></trkpt>
<trkpt lat="48.9267750" lon="2.8514833"><ele>47.58</ele><time>2026-4-29T0:46:59Z</time></trkpt>
<trkpt lat="48.9269738" lon="2.8516823"><ele>48.10</ele><time>2026-4-29T0:47:2Z</time></trkpt>
<trkpt lat="48.9271773" lon="2.8518486"><ele>48.04</ele><time>2026-4-29T0:47:5Z</time></trkpt>
<trkpt lat="48.9273833" lon="2.8519968"><ele>47.25</ele><time>2026-4-29T0:47:8Z</time></trkpt>
<trkpt lat="48.9275987" lon="2.8521101"><ele>47.18</ele><time>2026-4-29T0:47:11Z</time></trkpt>
<trkpt lat="48.9278166" lon="2.8522085"><ele>46.53</ele><time>2026-4-29T0:47:14Z</time></trkpt>
<trkpt lat="48.9280049" lon="2.8522560"><ele>48.33</ele><time>2026-4-29T0:47:17Z</time></trkpt>
<trkpt lat="48.9282096" lon="2.8523162"><ele>49.12</ele><time>2026-4-29T0:47:20Z</time></trkpt>
<trkpt lat="48.9284483" lon="2.8523628"><ele>50.90</ele><time>2026-4-29T0:47:23Z</time></trkpt>
<trkpt lat="48.9286351" lon="2.8523509"><ele>50.97</ele><time>2026-4-29T0:47:26Z</time></trkpt>
<trkpt lat="48.9288663" lon="2.8523497"><ele>50.93</ele><time>2026-4-29T0:47:29Z</time></trkpt>
<trkpt lat="48.9291006" lon="2.8523367"><ele>51.03</ele><time>2026-4-29T0:47:32Z</time></trkpt>
<trkpt lat="48.9293288" lon="2.8522423"><ele>51.52</ele><time>2026-4-29T0:47:35Z</time></trkpt>
<trkpt lat="48.9295535" lon="2.8521681"><ele>51.57</ele><time>2026-4-29T0:47:38Z</time></trkpt>
<trkpt lat="48.9297757" lon="2.8520739"><ele>52.06</ele><time>2026-4-29T0:47:41Z</time></trkpt>
<trkpt lat="48.9299963" lon="2.8519854"><ele>51.76</ele><time>2026-4-29T0:47:44Z</time></trkpt>
<trkpt lat="48.9301964" lon="2.8519169"><ele>51.53</ele><time>2026-4-29T0:47:47Z</time></trkpt>
<trkpt lat="48.9304231" lon="2.8518436"><ele>51.55</ele><time>2026-4-29T0:47:50Z</time></trkpt>
<trkpt lat="48.9306066" lon="2.8517991"><ele>50.77</ele><time>2026-4-29T0:47:53Z</time></trkpt>
<trkpt lat="48.9307850" lon="2.8517640"><ele>51.13</ele><time>2026-4-29T0:47:56Z</time></trkpt>
<trkpt lat="48.9310098" lon="2.8517039"><ele>50.62</ele><time>2026-4-29T0:47:59Z</time></trkpt>
<trkpt lat="48.9312346" lon="2.8516368"><ele>51.36</ele><time>2026-4-29T0:48:2Z</time></trkpt>
<trkpt lat="48.9314486" lon="2.8515525"><ele>51.68</ele><time>2026-4-29T0:48:5Z</time></trkpt>
<trkpt lat="48.9316622" lon="2.8514118"><ele>51.73</ele><time>2026-4-29T0:48:8Z</time></trkpt>
<trkpt lat="48.9318265" lon="2.8512166"><ele>49.33</ele><time>2026-4-29T0:48:11Z</time></trkpt>
<trkpt lat="48.9319604" lon="2.8509340"><ele>46.75</ele><time>2026-4-29T0:48:14Z</time></trkpt>
<trkpt lat="48.9320745" lon="2.8506451"><ele>46.21</ele><time>2026-4-29T0:48:17Z</time></trkpt>
<trkpt lat="48.9321951" lon="2.8503657"><ele>44.57</ele><time>2026-4-29T0:48:20Z</time></trkpt>
<trkpt lat="48.9323516" lon="2.8501377"><ele>44.73</ele><time>2026-4-29T0:48:23Z</time></trkpt>
<trkpt lat="48.9325305" lon="2.8499532"><ele>44.25</ele><time>2026-4-29T0:48:26Z</time></trkpt>
<trkpt lat="48.9327443" lon="2.8499154"><ele>45.89</ele><time>2026-4-29T0:48:29Z</time></trkpt>
<trkpt lat="48.9329601" lon="2.8499619"><ele>46.85</ele><time>2026-4-29T0:48:32Z</time></trkpt>
<trkpt lat="48.9331693" lon="2.8500397"><ele>47.19</ele><time>2026-4-29T0:48:35Z</time></trkpt>
<trkpt lat="48.9333937" lon="2.8501393"><ele>47.22</ele><time>2026-4-29T0:48:38Z</time></trkpt>
<trkpt lat="48.9336051" lon="2.8502453"><ele>47.90</ele><time>2026-4-29T0:48:41Z</time></trkpt>
<trkpt lat="48.9337970" lon="2.8504077"><ele>47.23</ele><time>2026-4-29T0:48:44Z</time></trkpt>
<trkpt lat="48.9339404" lon="2.8505771"><ele>47.33</ele><time>2026-4-29T0:48:47Z</time></trkpt>
<trkpt lat="48.9340902" lon="2.8508329"><ele>46.36</ele><time>2026-4-29T0:48:50Z</time></trkpt>
<trkpt lat="48.9341794" lon="2.8511109"><ele>45.81</ele><time>2026-4-29T0:48:53Z</time></trkpt>
<trkpt lat="48.9342227" lon="2.8514247"><ele>47.64</ele><time>2026-4-29T0:48:56Z</time></trkpt>
<trkpt lat="48.9342591" lon="2.8517640"><ele>48.29</ele><time>2026-4-29T0:48:59Z</time></trkpt>
<trkpt lat="48.9342586" lon="2.8521160"><ele>49.64</ele><time>2026-4-29T0:49:2Z</time></trkpt>
<trkpt lat="48.9342660" lon="2.8524747"><ele>50.75</ele><time>2026-4-29T0:49:5Z</time></trkpt>
<trkpt lat="48.9342897" lon="2.8528308"><ele>51.89</ele><time>2026-4-29T0:49:8Z</time></trkpt>
<trkpt lat="48.9343252" lon="2.8531575"><ele>52.05</ele><time>2026-4-29T0:49:11Z</time></trkpt>
<trkpt lat="48.9343966" lon="2.8535006"><ele>53.09</ele><time>2026-4-29T0:49:14Z</time></trkpt>
<trkpt lat="48.9344868" lon="2.8538216"><ele>52.58</ele><time>2026-4-29T0:49:17Z</time></trkpt>
<trkpt lat="48.9346065" lon="2.8541188"><ele>52.02</ele><time>2026-4-29T0:49:20Z</time></trkpt>
<trkpt lat="48.9347543" lon="2.8544027"><ele>51.77</ele><time>2026-4-29T0:49:23Z</time></trkpt>
<trkpt lat="48.9349055" lon="2.8546372"><ele>52.20</ele><time>2026-4-29T0:49:26Z</time></trkpt>
<trkpt lat="48.9350740" lon="2.8548458"><ele>50.96</ele><time>2026-4-29T0:49:29Z</time></trkpt>
<trkpt lat="48.9352722" lon="2.8550145"><ele>51.08</ele><time>2026-4-29T0:49:32Z</time></trkpt>
<trkpt lat="48.9354643" lon="2.8551699"><ele>50.82</ele><time>2026-4-29T0:49:35Z</time></trkpt>
<trkpt lat="48.9356773" lon="2.8552885"><ele>50.40</ele><time>2026-4-29T0:49:38Z</time></trkpt>
<trkpt lat="48.9358943" lon="2.8553969"><ele>50.33</ele><time>2026-4-29T0:49:41Z</time></trkpt>
<trkpt lat="48.9361082" lon="2.8555099"><ele>50.45</ele><time>2026-4-29T0:49:44Z</time></trkpt>
<trkpt lat="48.9363285" lon="2.8556277"><ele>50.22</ele><time>2026-4-29T0:49:47Z</time></trkpt>
<trkpt lat="48.9365410" lon="2.8557561"><ele>49.67</ele><time>2026-4-29T0:49:50Z</time></trkpt>
<trkpt lat="48.9367119" lon="2.8558641"><ele>49.51</ele><time>2026-4-29T0:49:53Z</time></trkpt>
<trkpt lat="48.9369292" lon="2.8560019"><ele>49.10</ele><time>2026-4-29T0:49:56Z</time></trkpt>
<trkpt lat="48.9371398" lon="2.8561569"><ele>48.96</ele><time>2026-4-29T0:49:59Z</time></trkpt>
<trkpt lat="48.9373506" lon="2.8563009"><ele>48.38</ele><time>2026-4-29T0:50:2Z</time></trkpt>
<trkpt lat="48.9375631" lon="2.8564499"><ele>48.77</ele><time>2026-4-29T0:50:5Z</time></trkpt>
<trkpt lat="48.9377630" lon="2.8565907"><ele>48.65</ele><time>2026-4-29T0:50:8Z</time></trkpt>
<trkpt lat="48.9379630" lon="2.8567541"><ele>48.42</ele><time>2026-4-29T0:50:11Z</time></trkpt>
<trkpt lat="48.9381276" lon="2.8568903"><ele>48.70</ele><time>2026-4-29T0:50:14Z</time></trkpt>
<trkpt lat="48.9382891" lon="2.8570175"><ele>49.03</ele><time>2026-4-29T0:50:17Z</time></trkpt>
<trkpt lat="48.9384899" lon="2.8571923"><ele>49.24</ele><time>2026-4-29T0:50:20Z</time></trkpt>
<trkpt lat="48.9386712" lon="2.8573753"><ele>49.72</ele><time>2026-4-29T0:50:23Z</time></trkpt>
<trkpt lat="48.9388187" lon="2.8575360"><ele>49.70</ele><time>2026-4-29T0:50:26Z</time></trkpt>
<trkpt lat="48.9389825" lon="2.8577061"><ele>49.85</ele><time>2026-4-29T0:50:29Z</time></trkpt>
<trkpt lat="48.9391309" lon="2.8578609"><ele>49.80</ele><time>2026-4-29T0:50:32Z</time></trkpt>
<trkpt lat="48.9392981" lon="2.8580387"><ele>51.12</ele><time>2026-4-29T0:50:35Z</time></trkpt>
<trkpt lat="48.9394779" lon="2.8581498"><ele>52.86</ele><time>2026-4-29T0:50:38Z</time></trkpt>
<trkpt lat="48.9396939" lon="2.8581802"><ele>50.95</ele><time>2026-4-29T0:50:41Z</time></trkpt>
<trkpt lat="48.9398858" lon="2.8582223"><ele>49.81</ele><time>2026-4-29T0:50:44Z</time></trkpt>
<trkpt lat="48.9401165" lon="2.8582509"><ele>49.99</ele><time>2026-4-29T0:50:47Z</time></trkpt>
<trkpt lat="48.9403234" lon="2.8581966"><ele>49.55</ele><time>2026-4-29T0:50:50Z</time></trkpt>
<trkpt lat="48.9405200" lon="2.8580736"><ele>49.18</ele><time>2026-4-29T0:50:53Z</time></trkpt>
<trkpt lat="48.9407036" lon="2.8578978"><ele>49.64</ele><time>2026-4-29T0:50:56Z</time></trkpt>
<trkpt lat="48.9408737" lon="2.8577205"><ele>49.91</ele><time>2026-4-29T0:50:59Z</time></trkpt>
<trkpt lat="48.9410533" lon="2.8575501"><ele>50.07</ele><time>2026-4-29T0:51:2Z</time></trkpt>
<trkpt lat="48.9412359" lon="2.8574194"><ele>49.41</ele><time>2026-4-29T0:51:5Z</time></trkpt>
<trkpt lat="48.9414281" lon="2.8573139"><ele>50.25</ele><time>2026-4-29T0:51:8Z</time></trkpt>
<trkpt lat="48.9416264" lon="2.8572665"><ele>49.50</ele><time>2026-4-29T0:51:11Z</time></trkpt>
<trkpt lat="48.9418243" lon="2.8573113"><ele>49.88</ele><time>2026-4-29T0:51:14Z</time></trkpt>
<trkpt lat="48.9420377" lon="2.8573949"><ele>49.07</ele><time>2026-4-29T0:51:17Z</time></trkpt>
<trkpt lat="48.9422306" lon="2.8575428"><ele>48.75</ele><time>2026-4-29T0:51:20Z</time></trkpt>
<trkpt lat="48.9424181" lon="2.8577449"><ele>49.15</ele><time>2026-4-29T0:51:23Z</time></trkpt>
<trkpt lat="48.9425934" lon="2.8579736"><ele>48.44</ele><time>2026-4-29T0:51:26Z</time></trkpt>
<trkpt lat="48.9427302" lon="2.8582575"><ele>48.82</ele><time>2026-4-29T0:51:29Z</time></trkpt>
<trkpt lat="48.9428683" lon="2.8585356"><ele>49.28</ele><time>2026-4-29T0:51:32Z</time></trkpt>
<trkpt lat="48.9430059" lon="2.8588191"><ele>49.57</ele><time>2026-4-29T0:51:35Z</time></trkpt>
<trkpt lat="48.9431369" lon="2.8590898"><ele>49.57</ele><time>2026-4-29T0:51:38Z</time></trkpt>
<trkpt lat="48.9432525" lon="2.8593511"><ele>50.47</ele><time>2026-4-29T0:51:41Z</time></trkpt>
<trkpt lat="48.9433863" lon="2.8596216"><ele>50.79</ele><time>2026-4-29T0:51:44Z</time></trkpt>
<trkpt lat="48.9435183" lon="2.8598909"><ele>50.98</ele><time>2026-4-29T0:51:47Z</time></trkpt>
<trkpt lat="48.9436474" lon="2.8601448"><ele>50.85</ele><time>2026-4-29T0:51:50Z</time></trkpt>
<trkpt lat="48.9437870" lon="2.8604083"><ele>51.06</ele><time>2026-4-29T0:51:53Z</time></trkpt>
<trkpt lat="48.9439202" lon="2.8606620"><ele>50.62</ele><time>2026-4-29T0:51:56Z</time></trkpt>
<trkpt lat="48.9440540" lon="2.8609211"><ele>50.99</ele><time>2026-4-29T0:51:59Z</time></trkpt>
<trkpt lat="48.9441950" lon="2.8612028"><ele>51.03</ele><time>2026-4-29T0:52:2Z</time></trkpt>
<trkpt lat="48.9443274" lon="2.8614945"><ele>50.85</ele><time>2026-4-29T0:52:5Z</time></trkpt>
<trkpt lat="48.9444385" lon="2.8617774"><ele>51.22</ele><time>2026-4-29T0:52:8Z</time></trkpt>
<trkpt lat="48.9445873" lon="2.8620295"><ele>51.50</ele><time>2026-4-29T0:52:11Z</time></trkpt>
<trkpt lat="48.9447277" lon="2.8623095"><ele>52.11</ele><time>2026-4-29T0:52:14Z</time></trkpt>
<trkpt lat="48.9448716" lon="2.8625855"><ele>50.97</ele><time>2026-4-29T0:52:17Z</time></trkpt>
<trkpt lat="48.9450129" lon="2.8628464"><ele>50.06</ele><time>2026-4-29T0:52:20Z</time></trkpt>
<trkpt lat="48.9451374" lon="2.8630961"><ele>49.53</ele><time>2026-4-29T0:52:23Z</time></trkpt>
<trkpt lat="48.9452875" lon="2.8633470"><ele>46.25</ele><time>2026-4-29T0:52:26Z</time></trkpt>
<trkpt lat="48.9454156" lon="2.8635945"><ele>46.59</ele><time>2026-4-29T0:52:29Z</time></trkpt>
<trkpt lat="48.9455460" lon="2.8637969"><ele>45.91</ele><time>2026-4-29T0:52:32Z</time></trkpt>
<trkpt lat="48.9457005" lon="2.8640307"><ele>46.15</ele><time>2026-4-29T0:52:35Z</time></trkpt>
<trkpt lat="48.9458405" lon="2.8642354"><ele>46.52</ele><time>2026-4-29T0:52:38Z</time></trkpt>
<trkpt lat="48.9459940" lon="2.8644402"><ele>43.85</ele><time>2026-4-29T0:52:41Z</time></trkpt>
<trkpt lat="48.9461637" lon="2.8646768"><ele>44.32</ele><time>2026-4-29T0:52:44Z</time></trkpt>
<trkpt lat="48.9463185" lon="2.8648808"><ele>45.19</ele><time>2026-4-29T0:52:47Z</time></trkpt>
<trkpt lat="48.9464690" lon="2.8650553"><ele>46.38</ele><time>2026-4-29T0:52:50Z</time></trkpt>
<trkpt lat="48.9466327" lon="2.8652767"><ele>48.12</ele><time>2026-4-29T0:52:53Z</time></trkpt>
<trkpt lat="48.9467799" lon="2.8654722"><ele>48.70</ele><time>2026-4-29T0:52:56Z</time></trkpt>
<trkpt lat="48.9469505" lon="2.8656156"><ele>48.84</ele><time>2026-4-29T0:52:59Z</time></trkpt>
<trkpt lat="48.9471336" lon="2.8657782"><ele>49.39</ele><time>2026-4-29T0:53:2Z</time></trkpt>
<trkpt lat="48.9473465" lon="2.8659482"><ele>49.05</ele><time>2026-4-29T0:53:5Z</time></trkpt>
<trkpt lat="48.9475073" lon="2.8660861"><ele>48.20</ele><time>2026-4-29T0:53:8Z</time></trkpt>
<trkpt lat="48.9476735" lon="2.8661939"><ele>49.04</ele><time>2026-4-29T0:53:11Z</time></trkpt>
<trkpt lat="48.9478822" lon="2.8663242"><ele>49.17</ele><time>2026-4-29T0:53:14Z</time></trkpt>
<trkpt lat="48.9480863" lon="2.8664038"><ele>49.19</ele><time>2026-4-29T0:53:17Z</time></trkpt>
<trkpt lat="48.9482948" lon="2.8665425"><ele>48.25</ele><time>2026-4-29T0:53:20Z</time></trkpt>
<trkpt lat="48.9484720" lon="2.8666510"><ele>48.37</ele><time>2026-4-29T0:53:23Z</time></trkpt>
<trkpt lat="48.9486497" lon="2.8667496"><ele>49.01</ele><time>2026-4-29T0:53:26Z</time></trkpt>
<trkpt lat="48.9488185" lon="2.8669135"><ele>48.69</ele><time>2026-4-29T0:53:29Z</time></trkpt>
<trkpt lat="48.9489807" lon="2.8671260"><ele>48.43</ele><time>2026-4-29T0:53:32Z</time></trkpt>
<trkpt lat="48.9491539" lon="2.8672906"><ele>48.40</ele><time>2026-4-29T0:53:35Z</time></trkpt>
<trkpt lat="48.9493403" lon="2.8675267"><ele>48.16</ele><time>2026-4-29T0:53:38Z</time></trkpt>
<trkpt lat="48.9494839" lon="2.8677003"><ele>47.98</ele><time>2026-4-29T0:53:41Z</time></trkpt>
<trkpt lat="48.9496673" lon="2.8679064"><ele>48.23</ele><time>2026-4-29T0:53:44Z</time></trkpt>
<trkpt lat="48.9498465" lon="2.8681111"><ele>48.72</ele><time>2026-4-29T0:53:47Z</time></trkpt>
<trkpt lat="48.9500264" lon="2.8683517"><ele>48.83</ele><time>2026-4-29T0:53:50Z</time></trkpt>
<trkpt lat="48.9501545" lon="2.8685479"><ele>48.94</ele><time>2026-4-29T0:53:53Z</time></trkpt>
<trkpt lat="48.9502783" lon="2.8688416"><ele>47.73</ele><time>2026-4-29T0:53:56Z</time></trkpt>
<trkpt lat="48.9504007" lon="2.8691421"><ele>48.01</ele><time>2026-4-29T0:53:59Z</time></trkpt>
<trkpt lat="48.9505410" lon="2.8694154"><ele>48.40</ele><time>2026-4-29T0:54:2Z</time></trkpt>
<trkpt lat="48.9506701" lon="2.8696098"><ele>48.49</ele><time>2026-4-29T0:54:5Z</time></trkpt>
<trkpt lat="48.9508406" lon="2.8698514"><ele>48.77</ele><time>2026-4-29T0:54:8Z</time></trkpt>
<trkpt lat="48.9509790" lon="2.8700264"><ele>49.37</ele><time>2026-4-29T0:54:11Z</time></trkpt>
<trkpt lat="48.9511378" lon="2.8701602"><ele>50.28</ele><time>2026-4-29T0:54:14Z</time></trkpt>
<trkpt lat="48.9513124" lon="2.8703449"><ele>49.23</ele><time>2026-4-29T0:54:17Z</time></trkpt>
<trkpt lat="48.9514958" lon="2.8705120"><ele>48.89</ele><time>2026-4-29T0:54:20Z</time></trkpt>
<trkpt lat="48.9516752" lon="2.8706231"><ele>50.33</ele><time>2026-4-29T0:54:23Z</time></trkpt>
<trkpt lat="48.9518655" lon="2.8707131"><ele>49.72</ele><time>2026-4-29T0:54:26Z</time></trkpt>
<trkpt lat="48.9520670" lon="2.8707827"><ele>49.27</ele><time>2026-4-29T0:54:29Z</time></trkpt>
<trkpt lat="48.9522984" lon="2.8708347"><ele>49.43</ele><time>2026-4-29T0:54:32Z</time></trkpt>
<trkpt lat="48.9525211" lon="2.8709055"><ele>48.93</ele><time>2026-4-29T0:54:35Z</time></trkpt>
<trkpt lat="48.9527184" lon="2.8709603"><ele>49.11</ele><time>2026-4-29T0:54:38Z</time></trkpt>
<trkpt lat="48.9529323" lon="2.8710081"><ele>49.44</ele><time>2026-4-29T0:54:41Z</time></trkpt>
<trkpt lat="48.9531211" lon="2.8711128"><ele>49.73</ele><time>2026-4-29T0:54:44Z</time></trkpt>
<trkpt lat="48.9533379" lon="2.8712408"><ele>48.95</ele><time>2026-4-29T0:54:47Z</time></trkpt>
<trkpt lat="48.9535197" lon="2.8712950"><ele>49.54</ele><time>2026-4-29T0:54:50Z</time></trkpt>
<trkpt lat="48.9537050" lon="2.8713296"><ele>49.76</ele><time>2026-4-29T0:54:53Z</time></trkpt>
<trkpt lat="48.9539329" lon="2.8713761"><ele>49.44</ele><time>2026-4-29T0:54:56Z</time></trkpt>
<trkpt lat="48.9541129" lon="2.8714540"><ele>50.00</ele><time>2026-4-29T0:54:59Z</time></trkpt>
<trkpt lat="48.9543435" lon="2.8714806"><ele>50.62</ele><time>2026-4-29T0:55:2Z</time></trkpt>
<trkpt lat="48.9545624" lon="2.8714217"><ele>49.83</ele><time>2026-4-29T0:55:5Z</time></trkpt>
<trkpt lat="48.9547840" lon="2.8714667"><ele>49.89</ele><time>2026-4-29T0:55:8Z</time></trkpt>
<trkpt lat="48.9549915" lon="2.8714974"><ele>48.28</ele><time>2026-4-29T0:55:11Z</time></trkpt>
<trkpt lat="48.9551644" lon="2.8716598"><ele>45.89</ele><time>2026-4-29T0:55:14Z</time></trkpt>
<trkpt lat="48.9553569" lon="2.8717956"><ele>47.61</ele><time>2026-4-29T0:55:17Z</time></trkpt>
<trkpt lat="48.9555708" lon="2.8718400"><ele>48.55</ele><time>2026-4-29T0:55:20Z</time></trkpt>
<trkpt lat="48.9557653" lon="2.8718727"><ele>49.08</ele><time>2026-4-29T0:55:23Z</time></trkpt>
<trkpt lat="48.9559619" lon="2.8719589"><ele>49.88</ele><time>2026-4-29T0:55:26Z</time></trkpt>
<trkpt lat="48.9561355" lon="2.8718809"><ele>51.76</ele><time>2026-4-29T0:55:29Z</time></trkpt>
<trkpt lat="48.9563434" lon="2.8719466"><ele>52.34</ele><time>2026-4-29T0:55:32Z</time></trkpt>
<trkpt lat="48.9565232" lon="2.8720173"><ele>51.39</ele><time>2026-4-29T0:55:35Z</time></trkpt>
<trkpt lat="48.9567235" lon="2.8720360"><ele>51.72</ele><time>2026-4-29T0:55:38Z</time></trkpt>
<trkpt lat="48.9565261" lon="2.8719446"><ele>59.16</ele><time>2026-4-29T0:55:41Z</time></trkpt>
<trkpt lat="48.9563461" lon="2.8719163"><ele>56.10</ele><time>2026-4-29T0:55:44Z</time></trkpt>
<trkpt lat="48.9561466" lon="2.8718948"><ele>54.10</ele><time>2026-4-29T0:55:47Z</time></trkpt>
<trkpt lat="48.9559662" lon="2.8719751"><ele>51.61</ele><time>2026-4-29T0:55:50Z</time></trkpt>
<trkpt lat="48.9557433" lon="2.8718920"><ele>51.19</ele><time>2026-4-29T0:55:53Z</time></trkpt>
<trkpt lat="48.9555510" lon="2.8718432"><ele>50.72</ele><time>2026-4-29T0:55:56Z</time></trkpt>
<trkpt lat="48.9553520" lon="2.8717896"><ele>50.42</ele><time>2026-4-29T0:55:59Z</time></trkpt>
<trkpt lat="48.9551562" lon="2.8716778"><ele>48.90</ele><time>2026-4-29T0:56:2Z</time></trkpt>
<trkpt lat="48.9549426" lon="2.8715387"><ele>44.65</ele><time>2026-4-29T0:56:5Z</time></trkpt>
<trkpt lat="48.9547187" lon="2.8715083"><ele>42.75</ele><time>2026-4-29T0:56:8Z</time></trkpt>
<trkpt lat="48.9545308" lon="2.8714687"><ele>43.57</ele><time>2026-4-29T0:56:11Z</time></trkpt>
<trkpt lat="48.9543164" lon="2.8715188"><ele>47.12</ele><time>2026-4-29T0:56:14Z</time></trkpt>
<trkpt lat="48.9541320" lon="2.8715420"><ele>46.03</ele><time>2026-4-29T0:56:17Z</time></trkpt>
<trkpt lat="48.9539361" lon="2.8714638"><ele>46.27</ele><time>2026-4-29T0:56:20Z</time></trkpt>
<trkpt lat="48.9537618" lon="2.8713595"><ele>46.58</ele><time>2026-4-29T0:56:23Z</time></trkpt>
<trkpt lat="48.9535423" lon="2.8712902"><ele>46.84</ele><time>2026-4-29T0:56:26Z</time></trkpt>
<trkpt lat="48.9533569" lon="2.8712636"><ele>46.50</ele><time>2026-4-29T0:56:29Z</time></trkpt>
<trkpt lat="48.9531916" lon="2.8711532"><ele>46.98</ele><time>2026-4-29T0:56:32Z</time></trkpt>
<trkpt lat="48.9530220" lon="2.8710425"><ele>46.38</ele><time>2026-4-29T0:56:35Z</time></trkpt>
<trkpt lat="48.9528275" lon="2.8709707"><ele>46.89</ele><time>2026-4-29T0:56:38Z</time></trkpt>
<trkpt lat="48.9526024" lon="2.8709282"><ele>47.38</ele><time>2026-4-29T0:56:41Z</time></trkpt>
<trkpt lat="48.9523955" lon="2.8708586"><ele>47.61</ele><time>2026-4-29T0:56:44Z</time></trkpt>
<trkpt lat="48.9521988" lon="2.8708036"><ele>46.86</ele><time>2026-4-29T0:56:47Z</time></trkpt>
<trkpt lat="48.9520048" lon="2.8707395"><ele>47.18</ele><time>2026-4-29T0:56:50Z</time></trkpt>
<trkpt lat="48.9518052" lon="2.8706592"><ele>47.68</ele><time>2026-4-29T0:56:53Z</time></trkpt>
<trkpt lat="48.9516145" lon="2.8705504"><ele>48.47</ele><time>2026-4-29T0:56:56Z</time></trkpt>
<trkpt lat="48.9514227" lon="2.8704248"><ele>48.96</ele><time>2026-4-29T0:56:59Z</time></trkpt>
<trkpt lat="48.9512400" lon="2.8702858"><ele>49.52</ele><time>2026-4-29T0:57:2Z</time></trkpt>
<trkpt lat="48.9510714" lon="2.8701355"><ele>48.75</ele><time>2026-4-29T0:57:5Z</time></trkpt>
<trkpt lat="48.9509158" lon="2.8699793"><ele>48.29</ele><time>2026-4-29T0:57:8Z</time></trkpt>
<trkpt lat="48.9507647" lon="2.8697872"><ele>47.57</ele><time>2026-4-29T0:57:11Z</time></trkpt>
<trkpt lat="48.9506291" lon="2.8695701"><ele>47.49</ele><time>2026-4-29T0:57:14Z</time></trkpt>
<trkpt lat="48.9504881" lon="2.8693424"><ele>47.28</ele><time>2026-4-29T0:57:17Z</time></trkpt>
<trkpt lat="48.9503739" lon="2.8690998"><ele>47.74</ele><time>2026-4-29T0:57:20Z</time></trkpt>
<trkpt lat="48.9502578" lon="2.8688683"><ele>48.04</ele><time>2026-4-29T0:57:23Z</time></trkpt>
<trkpt lat="48.9501472" lon="2.8685822"><ele>48.21</ele><time>2026-4-29T0:57:26Z</time></trkpt>
<trkpt lat="48.9500279" lon="2.8683726"><ele>48.27</ele><time>2026-4-29T0:57:29Z</time></trkpt>
<trkpt lat="48.9498897" lon="2.8681900"><ele>48.47</ele><time>2026-4-29T0:57:32Z</time></trkpt>
<trkpt lat="48.9497595" lon="2.8679987"><ele>47.96</ele><time>2026-4-29T0:57:35Z</time></trkpt>
<trkpt lat="48.9495710" lon="2.8677814"><ele>47.48</ele><time>2026-4-29T0:57:38Z</time></trkpt>
<trkpt lat="48.9493803" lon="2.8675655"><ele>46.72</ele><time>2026-4-29T0:57:41Z</time></trkpt>
<trkpt lat="48.9491998" lon="2.8673462"><ele>47.55</ele><time>2026-4-29T0:57:44Z</time></trkpt>
<trkpt lat="48.9490142" lon="2.8671555"><ele>48.45</ele><time>2026-4-29T0:57:47Z</time></trkpt>
<trkpt lat="48.9488243" lon="2.8669535"><ele>47.83</ele><time>2026-4-29T0:57:50Z</time></trkpt>
<trkpt lat="48.9486644" lon="2.8667482"><ele>47.78</ele><time>2026-4-29T0:57:53Z</time></trkpt>
<trkpt lat="48.9484709" lon="2.8666083"><ele>47.26</ele><time>2026-4-29T0:57:56Z</time></trkpt>
<trkpt lat="48.9482870" lon="2.8665415"><ele>49.45</ele><time>2026-4-29T0:57:59Z</time></trkpt>
<trkpt lat="48.9481024" lon="2.8664222"><ele>48.81</ele><time>2026-4-29T0:58:2Z</time></trkpt>
<trkpt lat="48.9479168" lon="2.8663223"><ele>48.11</ele><time>2026-4-29T0:58:5Z</time></trkpt>
<trkpt lat="48.9477088" lon="2.8662105"><ele>47.79</ele><time>2026-4-29T0:58:8Z</time></trkpt>
<trkpt lat="48.9474938" lon="2.8660671"><ele>48.02</ele><time>2026-4-29T0:58:11Z</time></trkpt>
<trkpt lat="48.9472983" lon="2.8659202"><ele>47.28</ele><time>2026-4-29T0:58:14Z</time></trkpt>
<trkpt lat="48.9470997" lon="2.8657577"><ele>46.64</ele><time>2026-4-29T0:58:17Z</time></trkpt>
<trkpt lat="48.9469149" lon="2.8656073"><ele>47.07</ele><time>2026-4-29T0:58:20Z</time></trkpt>
<trkpt lat="48.9467408" lon="2.8654461"><ele>47.04</ele><time>2026-4-29T0:58:23Z</time></trkpt>
<trkpt lat="48.9465916" lon="2.8652513"><ele>47.58</ele><time>2026-4-29T0:58:26Z</time></trkpt>
<trkpt lat="48.9464249" lon="2.8650605"><ele>48.67</ele><time>2026-4-29T0:58:29Z</time></trkpt>
<trkpt lat="48.9462626" lon="2.8648361"><ele>48.80</ele><time>2026-4-29T0:58:32Z</time></trkpt>
<trkpt lat="48.9461267" lon="2.8646551"><ele>50.23</ele><time>2026-4-29T0:58:35Z</time></trkpt>
<trkpt lat="48.9459737" lon="2.8644648"><ele>49.33</ele><time>2026-4-29T0:58:38Z</time></trkpt>
<trkpt lat="48.9458073" lon="2.8642451"><ele>49.65</ele><time>2026-4-29T0:58:41Z</time></trkpt>
<trkpt lat="48.9456574" lon="2.8639614"><ele>48.82</ele><time>2026-4-29T0:58:44Z</time></trkpt>
<trkpt lat="48.9455175" lon="2.8637322"><ele>48.53</ele><time>2026-4-29T0:58:47Z</time></trkpt>
<trkpt lat="48.9453846" lon="2.8635090"><ele>46.77</ele><time>2026-4-29T0:58:50Z</time></trkpt>
<trkpt lat="48.9452643" lon="2.8632721"><ele>44.87</ele><time>2026-4-29T0:58:53Z</time></trkpt>
<trkpt lat="48.9451208" lon="2.8630140"><ele>45.76</ele><time>2026-4-29T0:58:56Z</time></trkpt>
<trkpt lat="48.9449701" lon="2.8627442"><ele>46.26</ele><time>2026-4-29T0:58:59Z</time></trkpt>
<trkpt lat="48.9448303" lon="2.8624590"><ele>46.88</ele><time>2026-4-29T0:59:2Z</time></trkpt>
<trkpt lat="48.9446946" lon="2.8621672"><ele>48.34</ele><time>2026-4-29T0:59:5Z</time></trkpt>
<trkpt lat="48.9445660" lon="2.8618914"><ele>49.37</ele><time>2026-4-29T0:59:8Z</time></trkpt>
<trkpt lat="48.9444491" lon="2.8616423"><ele>49.54</ele><time>2026-4-29T0:59:11Z</time></trkpt>
<trkpt lat="48.9443351" lon="2.8614294"><ele>49.94</ele><time>2026-4-29T0:59:14Z</time></trkpt>
<trkpt lat="48.9442073" lon="2.8612097"><ele>49.81</ele><time>2026-4-29T0:59:17Z</time></trkpt>
<trkpt lat="48.9440934" lon="2.8609925"><ele>50.29</ele><time>2026-4-29T0:59:20Z</time></trkpt>
<trkpt lat="48.9439773" lon="2.8607542"><ele>50.29</ele><time>2026-4-29T0:59:23Z</time></trkpt>
<trkpt lat="48.9438553" lon="2.8604987"><ele>50.10</ele><time>2026-4-29T0:59:26Z</time></trkpt>
<trkpt lat="48.9437307" lon="2.8602524"><ele>49.67</ele><time>2026-4-29T0:59:29Z</time></trkpt>
<trkpt lat="48.9436080" lon="2.8599893"><ele>50.57</ele><time>2026-4-29T0:59:32Z</time></trkpt>
<trkpt lat="48.9434684" lon="2.8597264"><ele>51.57</ele><time>2026-4-29T0:59:35Z</time></trkpt>
<trkpt lat="48.9433462" lon="2.8594949"><ele>52.36</ele><time>2026-4-29T0:59:38Z</time></trkpt>
<trkpt lat="48.9432422" lon="2.8592574"><ele>52.35</ele><time>2026-4-29T0:59:41Z</time></trkpt>
<trkpt lat="48.9431198" lon="2.8590353"><ele>52.48</ele><time>2026-4-29T0:59:44Z</time></trkpt>
<trkpt lat="48.9429986" lon="2.8587886"><ele>52.72</ele><time>2026-4-29T0:59:47Z</time></trkpt>
<trkpt lat="48.9428660" lon="2.8585407"><ele>52.50</ele><time>2026-4-29T0:59:50Z</time></trkpt>
<trkpt lat="48.9427368" lon="2.8582774"><ele>51.82</ele><time>2026-4-29T0:59:53Z</time></trkpt>
<trkpt lat="48.9425897" lon="2.8580242"><ele>51.45</ele><time>2026-4-29T0:59:56Z</time></trkpt>
<trkpt lat="48.9424302" lon="2.8577945"><ele>52.62</ele><time>2026-4-29T0:59:59Z</time></trkpt>
<trkpt lat="48.9422773" lon="2.8575882"><ele>52.97</ele><time>2026-4-29T1:0:2Z</time></trkpt>
<trkpt lat="48.9420999" lon="2.8574102"><ele>51.52</ele><time>2026-4-29T1:0:5Z</time></trkpt>
<trkpt lat="48.9419169" lon="2.8573249"><ele>50.00</ele><time>2026-4-29T1:0:8Z</time></trkpt>
<trkpt lat="48.9417332" lon="2.8572811"><ele>49.28</ele><time>2026-4-29T1:0:11Z</time></trkpt>
<trkpt lat="48.9415000" lon="2.8572907"><ele>49.28</ele><time>2026-4-29T1:0:14Z</time></trkpt>
<trkpt lat="48.9412966" lon="2.8573901"><ele>48.62</ele><time>2026-4-29T1:0:17Z</time></trkpt>
<trkpt lat="48.9411093" lon="2.8575081"><ele>49.14</ele><time>2026-4-29T1:0:20Z</time></trkpt>
<trkpt lat="48.9409194" lon="2.8576855"><ele>48.74</ele><time>2026-4-29T1:0:23Z</time></trkpt>
<trkpt lat="48.9407254" lon="2.8578818"><ele>48.74</ele><time>2026-4-29T1:0:26Z</time></trkpt>
<trkpt lat="48.9405705" lon="2.8580245"><ele>48.42</ele><time>2026-4-29T1:0:29Z</time></trkpt>
<trkpt lat="48.9404029" lon="2.8581497"><ele>48.27</ele><time>2026-4-29T1:0:32Z</time></trkpt>
<trkpt lat="48.9402022" lon="2.8582338"><ele>47.49</ele><time>2026-4-29T1:0:35Z</time></trkpt>
<trkpt lat="48.9399787" lon="2.8582369"><ele>46.64</ele><time>2026-4-29T1:0:38Z</time></trkpt>
<trkpt lat="48.9397679" lon="2.8582028"><ele>48.03</ele><time>2026-4-29T1:0:41Z</time></trkpt>
<trkpt lat="48.9395735" lon="2.8581729"><ele>49.55</ele><time>2026-4-29T1:0:44Z</time></trkpt>
<trkpt lat="48.9393772" lon="2.8580856"><ele>51.53</ele><time>2026-4-29T1:0:47Z</time></trkpt>
<trkpt lat="48.9392082" lon="2.8579401"><ele>49.46</ele><time>2026-4-29T1:0:50Z</time></trkpt>
<trkpt lat="48.9390101" lon="2.8577435"><ele>48.08</ele><time>2026-4-29T1:0:53Z</time></trkpt>
<trkpt lat="48.9388557" lon="2.8575771"><ele>48.70</ele><time>2026-4-29T1:0:56Z</time></trkpt>
<trkpt lat="48.9387082" lon="2.8574134"><ele>48.72</ele><time>2026-4-29T1:0:59Z</time></trkpt>
<trkpt lat="48.9385116" lon="2.8572182"><ele>47.93</ele><time>2026-4-29T1:1:2Z</time></trkpt>
<trkpt lat="48.9383104" lon="2.8570413"><ele>46.96</ele><time>2026-4-29T1:1:5Z</time></trkpt>
<trkpt lat="48.9381109" lon="2.8568620"><ele>46.92</ele><time>2026-4-29T1:1:8Z</time></trkpt>
<trkpt lat="48.9379294" lon="2.8566872"><ele>47.06</ele><time>2026-4-29T1:1:11Z</time></trkpt>
<trkpt lat="48.9377345" lon="2.8565608"><ele>47.77</ele><time>2026-4-29T1:1:14Z</time></trkpt>
<trkpt lat="48.9375228" lon="2.8564058"><ele>47.42</ele><time>2026-4-29T1:1:17Z</time></trkpt>
<trkpt lat="48.9373172" lon="2.8562567"><ele>47.08</ele><time>2026-4-29T1:1:20Z</time></trkpt>
<trkpt lat="48.9371068" lon="2.8561179"><ele>47.28</ele><time>2026-4-29T1:1:23Z</time></trkpt>
<trkpt lat="48.9369116" lon="2.8559987"><ele>46.88</ele><time>2026-4-29T1:1:26Z</time></trkpt>
<trkpt lat="48.9367027" lon="2.8558606"><ele>47.28</ele><time>2026-4-29T1:1:29Z</time></trkpt>
<trkpt lat="48.9364854" lon="2.8557259"><ele>46.99</ele><time>2026-4-29T1:1:32Z</time></trkpt>
<trkpt lat="48.9362643" lon="2.8555997"><ele>46.81</ele><time>2026-4-29T1:1:35Z</time></trkpt>
<trkpt lat="48.9360494" lon="2.8554709"><ele>46.42</ele><time>2026-4-29T1:1:38Z</time></trkpt>
<trkpt lat="48.9358763" lon="2.8553712"><ele>46.14</ele><time>2026-4-29T1:1:41Z</time></trkpt>
<trkpt lat="48.9356965" lon="2.8552870"><ele>46.46</ele><time>2026-4-29T1:1:44Z</time></trkpt>
<trkpt lat="48.9355280" lon="2.8551854"><ele>46.66</ele><time>2026-4-29T1:1:47Z</time></trkpt>
<trkpt lat="48.9353134" lon="2.8550638"><ele>46.52</ele><time>2026-4-29T1:1:50Z</time></trkpt>
<trkpt lat="48.9351262" lon="2.8548985"><ele>46.64</ele><time>2026-4-29T1:1:53Z</time></trkpt>
<trkpt lat="48.9349800" lon="2.8547376"><ele>46.62</ele><time>2026-4-29T1:1:56Z</time></trkpt>
<trkpt lat="48.9348126" lon="2.8544951"><ele>47.40</ele><time>2026-4-29T1:1:59Z</time></trkpt>
<trkpt lat="48.9346538" lon="2.8542267"><ele>47.48</ele><time>2026-4-29T1:2:2Z</time></trkpt>
<trkpt lat="48.9345253" lon="2.8539306"><ele>47.53</ele><time>2026-4-29T1:2:5Z</time></trkpt>
<trkpt lat="48.9344223" lon="2.8536052"><ele>47.57</ele><time>2026-4-29T1:2:8Z</time></trkpt>
<trkpt lat="48.9343583" lon="2.8532574"><ele>46.99</ele><time>2026-4-29T1:2:11Z</time></trkpt>
<trkpt lat="48.9343049" lon="2.8529051"><ele>45.88</ele><time>2026-4-29T1:2:14Z</time></trkpt>
<trkpt lat="48.9342702" lon="2.8525535"><ele>45.71</ele><time>2026-4-29T1:2:17Z</time></trkpt>
<trkpt lat="48.9342332" lon="2.8522113"><ele>45.73</ele><time>2026-4-29T1:2:20Z</time></trkpt>
<trkpt lat="48.9342276" lon="2.8518527"><ele>45.76</ele><time>2026-4-29T1:2:23Z</time></trkpt>
<trkpt lat="48.9342147" lon="2.8515125"><ele>45.81</ele><time>2026-4-29T1:2:26Z</time></trkpt>
<trkpt lat="48.9341667" lon="2.8511851"><ele>45.89</ele><time>2026-4-29T1:2:29Z</time></trkpt>
<trkpt lat="48.9340750" lon="2.8508861"><ele>45.13</ele><time>2026-4-29T1:2:32Z</time></trkpt>
<trkpt lat="48.9339538" lon="2.8506207"><ele>45.53</ele><time>2026-4-29T1:2:35Z</time></trkpt>
<trkpt lat="48.9337894" lon="2.8503964"><ele>45.72</ele><time>2026-4-29T1:2:38Z</time></trkpt>
<trkpt lat="48.9335907" lon="2.8502445"><ele>46.18</ele><time>2026-4-29T1:2:41Z</time></trkpt>
<trkpt lat="48.9333892" lon="2.8501447"><ele>46.59</ele><time>2026-4-29T1:2:44Z</time></trkpt>
<trkpt lat="48.9331848" lon="2.8500397"><ele>46.03</ele><time>2026-4-29T1:2:47Z</time></trkpt>
<trkpt lat="48.9329939" lon="2.8499514"><ele>46.69</ele><time>2026-4-29T1:2:50Z</time></trkpt>
<trkpt lat="48.9327926" lon="2.8498867"><ele>46.37</ele><time>2026-4-29T1:2:53Z</time></trkpt>
<trkpt lat="48.9325893" lon="2.8498940"><ele>45.91</ele><time>2026-4-29T1:2:56Z</time></trkpt>
<trkpt lat="48.9324102" lon="2.8499949"><ele>44.89</ele><time>2026-4-29T1:2:59Z</time></trkpt>
<trkpt lat="48.9322601" lon="2.8501474"><ele>46.12</ele><time>2026-4-29T1:3:2Z</time></trkpt>
<trkpt lat="48.9321235" lon="2.8504165"><ele>45.42</ele><time>2026-4-29T1:3:5Z</time></trkpt>
<trkpt lat="48.9319928" lon="2.8507147"><ele>46.06</ele><time>2026-4-29T1:3:8Z</time></trkpt>
<trkpt lat="48.9318847" lon="2.8510175"><ele>46.48</ele><time>2026-4-29T1:3:11Z</time></trkpt>
<trkpt lat="48.9317396" lon="2.8512768"><ele>45.94</ele><time>2026-4-29T1:3:14Z</time></trkpt>
<trkpt lat="48.9315620" lon="2.8514631"><ele>45.89</ele><time>2026-4-29T1:3:17Z</time></trkpt>
<trkpt lat="48.9313664" lon="2.8515638"><ele>47.28</ele><time>2026-4-29T1:3:20Z</time></trkpt>
<trkpt lat="48.9311745" lon="2.8516288"><ele>46.00</ele><time>2026-4-29T1:3:23Z</time></trkpt>
<trkpt lat="48.9309555" lon="2.8517142"><ele>47.08</ele><time>2026-4-29T1:3:26Z</time></trkpt>
<trkpt lat="48.9307324" lon="2.8517614"><ele>48.79</ele><time>2026-4-29T1:3:29Z</time></trkpt>
<trkpt lat="48.9305278" lon="2.8518107"><ele>48.87</ele><time>2026-4-29T1:3:32Z</time></trkpt>
<trkpt lat="48.9303266" lon="2.8518770"><ele>47.43</ele><time>2026-4-29T1:3:35Z</time></trkpt>
<trkpt lat="48.9301102" lon="2.8519415"><ele>49.03</ele><time>2026-4-29T1:3:38Z</time></trkpt>
<trkpt lat="48.9299019" lon="2.8520167"><ele>50.62</ele><time>2026-4-29T1:3:41Z</time></trkpt>
<trkpt lat="48.9296955" lon="2.8520963"><ele>50.58</ele><time>2026-4-29T1:3:44Z</time></trkpt>
<trkpt lat="48.9294978" lon="2.8521535"><ele>51.61</ele><time>2026-4-29T1:3:47Z</time></trkpt>
<trkpt lat="48.9293093" lon="2.8522283"><ele>51.61</ele><time>2026-4-29T1:3:50Z</time></trkpt>
<trkpt lat="48.9291194" lon="2.8522747"><ele>50.50</ele><time>2026-4-29T1:3:53Z</time></trkpt>
<trkpt lat="48.9289135" lon="2.8523200"><ele>48.87</ele><time>2026-4-29T1:3:56Z</time></trkpt>
<trkpt lat="48.9287080" lon="2.8523438"><ele>49.49</ele><time>2026-4-29T1:3:59Z</time></trkpt>
<trkpt lat="48.9285280" lon="2.8523330"><ele>47.62</ele><time>2026-4-29T1:4:2Z</time></trkpt>
<trkpt lat="48.9283398" lon="2.8523197"><ele>47.10</ele><time>2026-4-29T1:4:5Z</time></trkpt>
<trkpt lat="48.9281568" lon="2.8522804"><ele>47.23</ele><time>2026-4-29T1:4:8Z</time></trkpt>
<trkpt lat="48.9279275" lon="2.8522088"><ele>46.77</ele><time>2026-4-29T1:4:11Z</time></trkpt>
<trkpt lat="48.9277131" lon="2.8521338"><ele>47.14</ele><time>2026-4-29T1:4:14Z</time></trkpt>
<trkpt lat="48.9274984" lon="2.8520209"><ele>47.65</ele><time>2026-4-29T1:4:17Z</time></trkpt>
<trkpt lat="48.9272917" lon="2.8518791"><ele>48.49</ele><time>2026-4-29T1:4:20Z</time></trkpt>
<trkpt lat="48.9271024" lon="2.8517643"><ele>49.08</ele><time>2026-4-29T1:4:23Z</time></trkpt>
<trkpt lat="48.9269109" lon="2.8516040"><ele>49.01</ele><time>2026-4-29T1:4:26Z</time></trkpt>
<trkpt lat="48.9267276" lon="2.8513871"><ele>48.29</ele><time>2026-4-29T1:4:29Z</time></trkpt>
<trkpt lat="48.9265562" lon="2.8511439"><ele>47.88</ele><time>2026-4-29T1:4:32Z</time></trkpt>
<trkpt lat="48.9264133" lon="2.8508892"><ele>47.54</ele><time>2026-4-29T1:4:35Z</time></trkpt>
<trkpt lat="48.9262692" lon="2.8506218"><ele>47.71</ele><time>2026-4-29T1:4:38Z</time></trkpt>
<trkpt lat="48.9261036" lon="2.8503770"><ele>48.67</ele><time>2026-4-29T1:4:41Z</time></trkpt>
<trkpt lat="48.9259497" lon="2.8502288"><ele>49.55</ele><time>2026-4-29T1:4:44Z</time></trkpt>
<trkpt lat="48.9257324" lon="2.8500987"><ele>49.28</ele><time>2026-4-29T1:4:47Z</time></trkpt>
<trkpt lat="48.9255327" lon="2.8499780"><ele>49.57</ele><time>2026-4-29T1:4:50Z</time></trkpt>
<trkpt lat="48.9253162" lon="2.8498617"><ele>49.68</ele><time>2026-4-29T1:4:53Z</time></trkpt>
<trkpt lat="48.9250945" lon="2.8497224"><ele>49.75</ele><time>2026-4-29T1:4:56Z</time></trkpt>
<trkpt lat="48.9248769" lon="2.8496270"><ele>48.92</ele><time>2026-4-29T1:4:59Z</time></trkpt>
<trkpt lat="48.9246648" lon="2.8495002"><ele>49.63</ele><time>2026-4-29T1:5:2Z</time></trkpt>
<trkpt lat="48.9244841" lon="2.8493768"><ele>49.59</ele><time>2026-4-29T1:5:5Z</time></trkpt>
<trkpt lat="48.9243105" lon="2.8492441"><ele>50.95</ele><time>2026-4-29T1:5:8Z</time></trkpt>
<trkpt lat="48.9241334" lon="2.8491397"><ele>50.89</ele><time>2026-4-29T1:5:11Z</time></trkpt>
<trkpt lat="48.9239626" lon="2.8490034"><ele>49.04</ele><time>2026-4-29T1:5:14Z</time></trkpt>
<trkpt lat="48.9237891" lon="2.8488977"><ele>49.93</ele><time>2026-4-29T1:5:17Z</time></trkpt>
<trkpt lat="48.9236195" lon="2.8487512"><ele>49.12</ele><time>2026-4-29T1:5:20Z</time></trkpt>
<trkpt lat="48.9234478" lon="2.8486235"><ele>50.76</ele><time>2026-4-29T1:5:23Z</time></trkpt>
<trkpt lat="48.9232711" lon="2.8484497"><ele>50.60</ele><time>2026-4-29T1:5:26Z</time></trkpt>
<trkpt lat="48.9230843" lon="2.8482664"><ele>49.98</ele><time>2026-4-29T1:5:29Z</time></trkpt>
<trkpt lat="48.9228835" lon="2.8480694"><ele>52.81</ele><time>2026-4-29T1:5:32Z</time></trkpt>
<trkpt lat="48.9227010" lon="2.8478978"><ele>52.15</ele><time>2026-4-29T1:5:35Z</time></trkpt>
<trkpt lat="48.9225054" lon="2.8477171"><ele>52.70</ele><time>2026-4-29T1:5:38Z</time></trkpt>
<trkpt lat="48.9223190" lon="2.8475182"><ele>51.07</ele><time>2026-4-29T1:5:41Z</time></trkpt>
<trkpt lat="48.9221329" lon="2.8473285"><ele>49.87</ele><time>2026-4-29T1:5:44Z</time></trkpt>
<trkpt lat="48.9219424" lon="2.8471328"><ele>48.31</ele><time>2026-4-29T1:5:47Z</time></trkpt>
<trkpt lat="48.9217656" lon="2.8469093"><ele>48.11</ele><time>2026-4-29T1:5:50Z</time></trkpt>
<trkpt lat="48.9215819" lon="2.8467083"><ele>45.56</ele><time>2026-4-29T1:5:53Z</time></trkpt>
<trkpt lat="48.9214337" lon="2.8465435"><ele>46.70</ele><time>2026-4-29T1:5:56Z</time></trkpt>
<trkpt lat="48.9212956" lon="2.8463614"><ele>46.69</ele><time>2026-4-29T1:5:59Z</time></trkpt>
<trkpt lat="48.9211318" lon="2.8461273"><ele>46.89</ele><time>2026-4-29T1:6:2Z</time></trkpt>
<trkpt lat="48.9209526" lon="2.8459146"><ele>47.44</ele><time>2026-4-29T1:6:5Z</time></trkpt>
<trkpt lat="48.9207873" lon="2.8456770"><ele>47.91</ele><time>2026-4-29T1:6:8Z</time></trkpt>
<trkpt lat="48.9206288" lon="2.8454354"><ele>48.57</ele><time>2026-4-29T1:6:11Z</time></trkpt>
<trkpt lat="48.9204718" lon="2.8451722"><ele>49.49</ele><time>2026-4-29T1:6:14Z</time></trkpt>
<trkpt lat="48.9203264" lon="2.8448923"><ele>48.85</ele><time>2026-4-29T1:6:17Z</time></trkpt>
<trkpt lat="48.9201978" lon="2.8446899"><ele>49.76</ele><time>2026-4-29T1:6:20Z</time></trkpt>
<trkpt lat="48.9200626" lon="2.8444055"><ele>49.85</ele><time>2026-4-29T1:6:23Z</time></trkpt>
<trkpt lat="48.9199161" lon="2.8441248"><ele>49.70</ele><time>2026-4-29T1:6:26Z</time></trkpt>
<trkpt lat="48.9197847" lon="2.8438444"><ele>49.94</ele><time>2026-4-29T1:6:29Z</time></trkpt>
<trkpt lat="48.9196633" lon="2.8435573"><ele>50.43</ele><time>2026-4-29T1:6:32Z</time></trkpt>
<trkpt lat="48.9195531" lon="2.8432495"><ele>51.20</ele><time>2026-4-29T1:6:35Z</time></trkpt>
<trkpt lat="48.9194164" lon="2.8429532"><ele>51.20</ele><time>2026-4-29T1:6:38Z</time></trkpt>
<trkpt lat="48.9192944" lon="2.8426390"><ele>50.40</ele><time>2026-4-29T1:6:41Z</time></trkpt>
<trkpt lat="48.9192113" lon="2.8423893"><ele>50.33</ele><time>2026-4-29T1:6:44Z</time></trkpt>
<trkpt lat="48.9191186" lon="2.8420578"><ele>50.03</ele><time>2026-4-29T1:6:47Z</time></trkpt>
<trkpt lat="48.9190234" lon="2.8417412"><ele>50.50</ele><time>2026-4-29T1:6:50Z</time></trkpt>
<trkpt lat="48.9189248" lon="2.8414282"><ele>49.78</ele><time>2026-4-29T1:6:53Z</time></trkpt>
<trkpt lat="48.9188440" lon="2.8410968"><ele>49.32</ele><time>2026-4-29T1:6:56Z</time></trkpt>
<trkpt lat="48.9187955" lon="2.8408314"><ele>49.03</ele><time>2026-4-29T1:6:59Z</time></trkpt>
<trkpt lat="48.9187349" lon="2.8405717"><ele>48.83</ele><time>2026-4-29T1:7:2Z</time></trkpt>
<trkpt lat="48.9186504" lon="2.8402428"><ele>49.39</ele><time>2026-4-29T1:7:5Z</time></trkpt>
<trkpt lat="48.9185837" lon="2.8398998"><ele>48.47</ele><time>2026-4-29T1:7:8Z</time></trkpt>
<trkpt lat="48.9185439" lon="2.8395550"><ele>47.30</ele><time>2026-4-29T1:7:11Z</time></trkpt>
<trkpt lat="48.9185198" lon="2.8391975"><ele>47.34</ele><time>2026-4-29T1:7:14Z</time></trkpt>
<trkpt lat="48.9185168" lon="2.8388483"><ele>47.45</ele><time>2026-4-29T1:7:17Z</time></trkpt>
<trkpt lat="48.9185308" lon="2.8385012"><ele>47.87</ele><time>2026-4-29T1:7:20Z</time></trkpt>
<trkpt lat="48.9185408" lon="2.8381648"><ele>47.86</ele><time>2026-4-29T1:7:23Z</time></trkpt>
<trkpt lat="48.9185790" lon="2.8378810"><ele>49.65</ele><time>2026-4-29T1:7:26Z</time></trkpt>
<trkpt lat="48.9185998" lon="2.8375954"><ele>52.37</ele><time>2026-4-29T1:7:29Z</time></trkpt>
<trkpt lat="48.9186584" lon="2.8372930"><ele>51.95</ele><time>2026-4-29T1:7:32Z</time></trkpt>
<trkpt lat="48.9187157" lon="2.8369544"><ele>49.97</ele><time>2026-4-29T1:7:35Z</time></trkpt>
<trkpt lat="48.9187777" lon="2.8366491"><ele>50.16</ele><time>2026-4-29T1:7:38Z</time></trkpt>
<trkpt lat="48.9188379" lon="2.8363736"><ele>49.81</ele><time>2026-4-29T1:7:41Z</time></trkpt>
<trkpt lat="48.9189117" lon="2.8360325"><ele>49.74</ele><time>2026-4-29T1:7:44Z</time></trkpt>
<trkpt lat="48.9189739" lon="2.8356980"><ele>48.95</ele><time>2026-4-29T1:7:47Z</time></trkpt>
<trkpt lat="48.9190505" lon="2.8353604"><ele>48.44</ele><time>2026-4-29T1:7:50Z</time></trkpt>
<trkpt lat="48.9191426" lon="2.8350330"><ele>48.46</ele><time>2026-4-29T1:7:53Z</time></trkpt>
<trkpt lat="48.9192097" lon="2.8347765"><ele>47.67</ele><time>2026-4-29T1:7:56Z</time></trkpt>
<trkpt lat="48.9192989" lon="2.8344614"><ele>47.16</ele><time>2026-4-29T1:7:59Z</time></trkpt>
<trkpt lat="48.9193822" lon="2.8341552"><ele>47.04</ele><time>2026-4-29T1:8:2Z</time></trkpt>
<trkpt lat="48.9194585" lon="2.8338414"><ele>46.81</ele><time>2026-4-29T1:8:5Z</time></trkpt>
<trkpt lat="48.9195469" lon="2.8335410"><ele>47.19</ele><time>2026-4-29T1:8:8Z</time></trkpt>
<trkpt lat="48.9196363" lon="2.8333008"><ele>47.52</ele><time>2026-4-29T1:8:11Z</time></trkpt>
<trkpt lat="48.9197224" lon="2.8330564"><ele>47.71</ele><time>2026-4-29T1:8:14Z</time></trkpt>
<trkpt lat="48.9198293" lon="2.8327301"><ele>47.16</ele><time>2026-4-29T1:8:17Z</time></trkpt>
<trkpt lat="48.9199343" lon="2.8324084"><ele>47.10</ele><time>2026-4-29T1:8:20Z</time></trkpt>
<trkpt lat="48.9200571" lon="2.8321307"><ele>48.00</ele><time>2026-4-29T1:8:23Z</time></trkpt>
<trkpt lat="48.9201923" lon="2.8318387"><ele>47.81</ele><time>2026-4-29T1:8:26Z</time></trkpt>
<trkpt lat="48.9203195" lon="2.8315628"><ele>48.29</ele><time>2026-4-29T1:8:29Z</time></trkpt>
<trkpt lat="48.9204602" lon="2.8313128"><ele>47.69</ele><time>2026-4-29T1:8:32Z</time></trkpt>
<trkpt lat="48.9205892" lon="2.8311086"><ele>47.44</ele><time>2026-4-29T1:8:35Z</time></trkpt>
<trkpt lat="48.9207611" lon="2.8308747"><ele>47.59</ele><time>2026-4-29T1:8:38Z</time></trkpt>
<trkpt lat="48.9209406" lon="2.8306615"><ele>48.49</ele><time>2026-4-29T1:8:41Z</time></trkpt>
<trkpt lat="48.9211241" lon="2.8304547"><ele>49.26</ele><time>2026-4-29T1:8:44Z</time></trkpt>
<trkpt lat="48.9212883" lon="2.8303118"><ele>49.66</ele><time>2026-4-29T1:8:47Z</time></trkpt>
<trkpt lat="48.9214477" lon="2.8301611"><ele>48.74</ele><time>2026-4-29T1:8:50Z</time></trkpt>
<trkpt lat="48.9216649" lon="2.8300126"><ele>49.23</ele><time>2026-4-29T1:8:53Z</time></trkpt>
<trkpt lat="48.9218346" lon="2.8299072"><ele>49.25</ele><time>2026-4-29T1:8:56Z</time></trkpt>
<trkpt lat="48.9220088" lon="2.8298102"><ele>49.43</ele><time>2026-4-29T1:8:59Z</time></trkpt>
<trkpt lat="48.9221866" lon="2.8297335"><ele>50.02</ele><time>2026-4-29T1:9:2Z</time></trkpt>
<trkpt lat="48.9224283" lon="2.8296390"><ele>49.65</ele><time>2026-4-29T1:9:5Z</time></trkpt>
<trkpt lat="48.9226578" lon="2.8295891"><ele>49.11</ele><time>2026-4-29T1:9:8Z</time></trkpt>
<trkpt lat="48.9228554" lon="2.8295267"><ele>49.43</ele><time>2026-4-29T1:9:11Z</time></trkpt>
<trkpt lat="48.9230950" lon="2.8294926"><ele>50.44</ele><time>2026-4-29T1:9:14Z</time></trkpt>
<trkpt lat="48.9232848" lon="2.8294558"><ele>52.22</ele><time>2026-4-29T1:9:17Z</time></trkpt>
<trkpt lat="48.9234683" lon="2.8294203"><ele>51.54</ele><time>2026-4-29T1:9:20Z</time></trkpt>
<trkpt lat="48.9236999" lon="2.8293385"><ele>51.65</ele><time>2026-4-29T1:9:23Z</time></trkpt>
<trkpt lat="48.9239133" lon="2.8292418"><ele>49.74</ele><time>2026-4-29T1:9:26Z</time></trkpt>
<trkpt lat="48.9241409" lon="2.8291136"><ele>48.25</ele><time>2026-4-29T1:9:29Z</time></trkpt>
<trkpt lat="48.9243299" lon="2.8290002"><ele>47.89</ele><time>2026-4-29T1:9:32Z</time></trkpt>
<trkpt lat="48.9244963" lon="2.8288687"><ele>48.87</ele><time>2026-4-29T1:9:35Z</time></trkpt>
<trkpt lat="48.9246629" lon="2.8287532"><ele>48.63</ele><time>2026-4-29T1:9:38Z</time></trkpt>
<trkpt lat="48.9248688" lon="2.8285724"><ele>48.77</ele><time>2026-4-29T1:9:41Z</time></trkpt>
<trkpt lat="48.9250606" lon="2.8283631"><ele>48.80</ele><time>2026-4-29T1:9:44Z</time></trkpt>
<trkpt lat="48.9252274" lon="2.8281185"><ele>49.09</ele><time>2026-4-29T1:9:47Z</time></trkpt>
<trkpt lat="48.9253765" lon="2.8278475"><ele>48.89</ele><time>2026-4-29T1:9:50Z</time></trkpt>
<trkpt lat="48.9254776" lon="2.8275493"><ele>49.19</ele><time>2026-4-29T1:9:53Z</time></trkpt>
<trkpt lat="48.9255506" lon="2.8272492"><ele>48.62</ele><time>2026-4-29T1:9:56Z</time></trkpt>
<trkpt lat="48.9256276" lon="2.8269732"><ele>48.37</ele><time>2026-4-29T1:9:59Z</time></trkpt>
<trkpt lat="48.9256683" lon="2.8266290"><ele>48.38</ele><time>2026-4-29T1:10:2Z</time></trkpt>
<trkpt lat="48.9256785" lon="2.8262745"><ele>48.63</ele><time>2026-4-29T1:10:5Z</time></trkpt>
<trkpt lat="48.9256857" lon="2.8259923"><ele>48.39</ele><time>2026-4-29T1:10:8Z</time></trkpt>
<trkpt lat="48.9257075" lon="2.8257104"><ele>48.11</ele><time>2026-4-29T1:10:11Z</time></trkpt>
<trkpt lat="48.9257402" lon="2.8254336"><ele>47.84</ele><time>2026-4-29T1:10:14Z</time></trkpt>
<trkpt lat="48.9257681" lon="2.8251544"><ele>47.83</ele><time>2026-4-29T1:10:17Z</time></trkpt>
<trkpt lat="48.9258107" lon="2.8248738"><ele>47.80</ele><time>2026-4-29T1:10:20Z</time></trkpt>
<trkpt lat="48.9258649" lon="2.8246047"><ele>47.83</ele><time>2026-4-29T1:10:23Z</time></trkpt>
<trkpt lat="48.9259350" lon="2.8243398"><ele>47.75</ele><time>2026-4-29T1:10:26Z</time></trkpt>
<trkpt lat="48.9260394" lon="2.8240183"><ele>47.23</ele><time>2026-4-29T1:10:29Z</time></trkpt>
<trkpt lat="48.9261346" lon="2.8237832"><ele>47.16</ele><time>2026-4-29T1:10:32Z</time></trkpt>
<trkpt lat="48.9262278" lon="2.8235447"><ele>46.56</ele><time>2026-4-29T1:10:35Z</time></trkpt>
<trkpt lat="48.9263267" lon="2.8233159"><ele>47.00</ele><time>2026-4-29T1:10:38Z</time></trkpt>
<trkpt lat="48.9264352" lon="2.8230921"><ele>46.92</ele><time>2026-4-29T1:10:41Z</time></trkpt>
<trkpt lat="48.9265504" lon="2.8228702"><ele>46.70</ele><time>2026-4-29T1:10:44Z</time></trkpt>
<trkpt lat="48.9267061" lon="2.8225882"><ele>46.82</ele><time>2026-4-29T1:10:47Z</time></trkpt>
<trkpt lat="48.9268282" lon="2.8223816"><ele>46.37</ele><time>2026-4-29T1:10:50Z</time></trkpt>
<trkpt lat="48.9269569" lon="2.8221888"><ele>46.57</ele><time>2026-4-29T1:10:53Z</time></trkpt>
<trkpt lat="48.9270876" lon="2.8219899"><ele>46.72</ele><time>2026-4-29T1:10:56Z</time></trkpt>
<trkpt lat="48.9272213" lon="2.8217911"><ele>46.67</ele><time>2026-4-29T1:10:59Z</time></trkpt>
<trkpt lat="48.9273552" lon="2.8216000"><ele>47.36</ele><time>2026-4-29T1:11:2Z</time></trkpt>
<trkpt lat="48.9275272" lon="2.8213582"><ele>47.78</ele><time>2026-4-29T1:11:5Z</time></trkpt>
<trkpt lat="48.9276707" lon="2.8211673"><ele>47.12</ele><time>2026-4-29T1:11:8Z</time></trkpt>
<trkpt lat="48.9278150" lon="2.8209773"><ele>46.87</ele><time>2026-4-29T1:11:11Z</time></trkpt>
<trkpt lat="48.9279573" lon="2.8208025"><ele>46.90</ele><time>2026-4-29T1:11:14Z</time></trkpt>
<trkpt lat="48.9281086" lon="2.8206389"><ele>46.38</ele><time>2026-4-29T1:11:17Z</time></trkpt>
<trkpt lat="48.9282541" lon="2.8204543"><ele>46.41</ele><time>2026-4-29T1:11:20Z</time></trkpt>
<trkpt lat="48.9284384" lon="2.8202434"><ele>47.17</ele><time>2026-4-29T1:11:23Z</time></trkpt>
<trkpt lat="48.9285983" lon="2.8200714"><ele>47.74</ele><time>2026-4-29T1:11:26Z</time></trkpt>
<trkpt lat="48.9287784" lon="2.8198963"><ele>47.43</ele><time>2026-4-29T1:11:29Z</time></trkpt>
<trkpt lat="48.9289283" lon="2.8197270"><ele>47.07</ele><time>2026-4-29T1:11:32Z</time></trkpt>
<trkpt lat="48.9290885" lon="2.8195646"><ele>45.84</ele><time>2026-4-29T1:11:35Z</time></trkpt>
<trkpt lat="48.9292429" lon="2.8194213"><ele>46.23</ele><time>2026-4-29T1:11:38Z</time></trkpt>
<trkpt lat="48.9294027" lon="2.8192708"><ele>46.35</ele><time>2026-4-29T1:11:41Z</time></trkpt>
<trkpt lat="48.9295626" lon="2.8191404"><ele>46.58</ele><time>2026-4-29T1:11:44Z</time></trkpt>
<trkpt lat="48.9297261" lon="2.8189983"><ele>46.63</ele><time>2026-4-29T1:11:47Z</time></trkpt>
<trkpt lat="48.9299403" lon="2.8188249"><ele>46.69</ele><time>2026-4-29T1:11:50Z</time></trkpt>
<trkpt lat="48.9301573" lon="2.8186557"><ele>46.72</ele><time>2026-4-29T1:11:53Z</time></trkpt>
<trkpt lat="48.9303245" lon="2.8185249"><ele>46.71</ele><time>2026-4-29T1:11:56Z</time></trkpt>
<trkpt lat="48.9304910" lon="2.8183971"><ele>46.74</ele><time>2026-4-29T1:11:59Z</time></trkpt>
<trkpt lat="48.9306638" lon="2.8182872"><ele>47.08</ele><time>2026-4-29T1:12:2Z</time></trkpt>
<trkpt lat="48.9308384" lon="2.8181706"><ele>47.46</ele><time>2026-4-29T1:12:5Z</time></trkpt>
<trkpt lat="48.9310071" lon="2.8180587"><ele>48.10</ele><time>2026-4-29T1:12:8Z</time></trkpt>
<trkpt lat="48.9311809" lon="2.8179444"><ele>48.04</ele><time>2026-4-29T1:12:11Z</time></trkpt>
<trkpt lat="48.9313463" lon="2.8178319"><ele>47.68</ele><time>2026-4-29T1:12:14Z</time></trkpt>
<trkpt lat="48.9315180" lon="2.8177246"><ele>47.53</ele><time>2026-4-29T1:12:17Z</time></trkpt>
<trkpt lat="48.9316902" lon="2.8176205"><ele>48.03</ele><time>2026-4-29T1:12:20Z</time></trkpt>
<trkpt lat="48.9318649" lon="2.8175246"><ele>47.68</ele><time>2026-4-29T1:12:23Z</time></trkpt>
<trkpt lat="48.9320406" lon="2.8174301"><ele>48.95</ele><time>2026-4-29T1:12:26Z</time></trkpt>
<trkpt lat="48.9322124" lon="2.8173336"><ele>49.17</ele><time>2026-4-29T1:12:29Z</time></trkpt>
<trkpt lat="48.9323926" lon="2.8172471"><ele>47.83</ele><time>2026-4-29T1:12:32Z</time></trkpt>
<trkpt lat="48.9325637" lon="2.8171508"><ele>47.32</ele><time>2026-4-29T1:12:35Z</time></trkpt>
<trkpt lat="48.9327452" lon="2.8170533"><ele>46.75</ele><time>2026-4-29T1:12:38Z</time></trkpt>
<trkpt lat="48.9329219" lon="2.8169659"><ele>45.97</ele><time>2026-4-29T1:12:41Z</time></trkpt>
<trkpt lat="48.9331525" lon="2.8168563"><ele>45.86</ele><time>2026-4-29T1:12:44Z</time></trkpt>
<trkpt lat="48.9333817" lon="2.8167574"><ele>46.79</ele><time>2026-4-29T1:12:47Z</time></trkpt>
<trkpt lat="48.9335615" lon="2.8166809"><ele>47.10</ele><time>2026-4-29T1:12:50Z</time></trkpt>
<trkpt lat="48.9337371" lon="2.8166192"><ele>47.91</ele><time>2026-4-29T1:12:53Z</time></trkpt>
<trkpt lat="48.9339189" lon="2.8165494"><ele>47.15</ele><time>2026-4-29T1:12:56Z</time></trkpt>
<trkpt lat="48.9340953" lon="2.8164778"><ele>47.20</ele><time>2026-4-29T1:12:59Z</time></trkpt>
<trkpt lat="48.9342734" lon="2.8164139"><ele>47.08</ele><time>2026-4-29T1:13:2Z</time></trkpt>
<trkpt lat="48.9344803" lon="2.8163001"><ele>47.71</ele><time>2026-4-29T1:13:5Z</time></trkpt>
<trkpt lat="48.9346876" lon="2.8162636"><ele>48.12</ele><time>2026-4-29T1:13:8Z</time></trkpt>
<trkpt lat="48.9348908" lon="2.8162128"><ele>48.90</ele><time>2026-4-29T1:13:11Z</time></trkpt>
<trkpt lat="48.9351053" lon="2.8161152"><ele>49.18</ele><time>2026-4-29T1:13:14Z</time></trkpt>
<trkpt lat="48.9352848" lon="2.8160103"><ele>48.67</ele><time>2026-4-29T1:13:17Z</time></trkpt>
<trkpt lat="48.9354827" lon="2.8159213"><ele>49.15</ele><time>2026-4-29T1:13:20Z</time></trkpt>
<trkpt lat="48.9356972" lon="2.8158192"><ele>48.31</ele><time>2026-4-29T1:13:23Z</time></trkpt>
<trkpt lat="48.9359175" lon="2.8156959"><ele>48.34</ele><time>2026-4-29T1:13:26Z</time></trkpt>
<trkpt lat="48.9361204" lon="2.8155457"><ele>48.75</ele><time>2026-4-29T1:13:29Z</time></trkpt>
<trkpt lat="48.9363322" lon="2.8154143"><ele>48.70</ele><time>2026-4-29T1:13:32Z</time></trkpt>
<trkpt lat="48.9365452" lon="2.8152519"><ele>47.79</ele><time>2026-4-29T1:13:35Z</time></trkpt>
<trkpt lat="48.9367012" lon="2.8151126"><ele>47.77</ele><time>2026-4-29T1:13:38Z</time></trkpt>
<trkpt lat="48.9368607" lon="2.8149842"><ele>47.98</ele><time>2026-4-29T1:13:41Z</time></trkpt>
<trkpt lat="48.9370194" lon="2.8148306"><ele>47.54</ele><time>2026-4-29T1:13:44Z</time></trkpt>
<trkpt lat="48.9372076" lon="2.8146271"><ele>47.59</ele><time>2026-4-29T1:13:47Z</time></trkpt>
<trkpt lat="48.9373542" lon="2.8144569"><ele>47.83</ele><time>2026-4-29T1:13:50Z</time></trkpt>
<trkpt lat="48.9375099" lon="2.8142805"><ele>47.18</ele><time>2026-4-29T1:13:53Z</time></trkpt>
<trkpt lat="48.9376816" lon="2.8140391"><ele>47.47</ele><time>2026-4-29T1:13:56Z</time></trkpt>
<trkpt lat="48.9378436" lon="2.8137801"><ele>46.86</ele><time>2026-4-29T1:13:59Z</time></trkpt>
<trkpt lat="48.9379561" lon="2.8135542"><ele>48.18</ele><time>2026-4-29T1:14:2Z</time></trkpt>
<trkpt lat="48.9380881" lon="2.8132585"><ele>47.82</ele><time>2026-4-29T1:14:5Z</time></trkpt>
<trkpt lat="48.9382025" lon="2.8129569"><ele>47.22</ele><time>2026-4-29T1:14:8Z</time></trkpt>
<trkpt lat="48.9382831" lon="2.8127065"><ele>46.60</ele><time>2026-4-29T1:14:11Z</time></trkpt>
<trkpt lat="48.9383772" lon="2.8123760"><ele>45.08</ele><time>2026-4-29T1:14:14Z</time></trkpt>
<trkpt lat="48.9384580" lon="2.8120446"><ele>45.30</ele><time>2026-4-29T1:14:17Z</time></trkpt>
<trkpt lat="48.9385220" lon="2.8117095"><ele>44.90</ele><time>2026-4-29T1:14:20Z</time></trkpt>
<trkpt lat="48.9385776" lon="2.8113894"><ele>44.56</ele><time>2026-4-29T1:14:23Z</time></trkpt>
<trkpt lat="48.9386349" lon="2.8110478"><ele>43.74</ele><time>2026-4-29T1:14:26Z</time></trkpt>
<trkpt lat="48.9387076" lon="2.8107278"><ele>43.15</ele><time>2026-4-29T1:14:29Z</time></trkpt>
<trkpt lat="48.9387935" lon="2.8104180"><ele>43.27</ele><time>2026-4-29T1:14:32Z</time></trkpt>
<trkpt lat="48.9389086" lon="2.8101153"><ele>43.23</ele><time>2026-4-29T1:14:35Z</time></trkpt>
<trkpt lat="48.9390612" lon="2.8098618"><ele>44.50</ele><time>2026-4-29T1:14:38Z</time></trkpt>
<trkpt lat="48.9391817" lon="2.8096373"><ele>45.81</ele><time>2026-4-29T1:14:41Z</time></trkpt>
<trkpt lat="48.9393787" lon="2.8094514"><ele>46.82</ele><time>2026-4-29T1:14:44Z</time></trkpt>
<trkpt lat="48.9395791" lon="2.8093127"><ele>46.69</ele><time>2026-4-29T1:14:47Z</time></trkpt>
<trkpt lat="48.9397930" lon="2.8091721"><ele>47.15</ele><time>2026-4-29T1:14:50Z</time></trkpt>
<trkpt lat="48.9400201" lon="2.8090721"><ele>46.69</ele><time>2026-4-29T1:14:53Z</time></trkpt>
<trkpt lat="48.9401924" lon="2.8089895"><ele>46.40</ele><time>2026-4-29T1:14:56Z</time></trkpt>
<trkpt lat="48.9403701" lon="2.8088804"><ele>46.26</ele><time>2026-4-29T1:14:59Z</time></trkpt>
<trkpt lat="48.9405445" lon="2.8088036"><ele>45.74</ele><time>2026-4-29T1:15:2Z</time></trkpt>
<trkpt lat="48.9407703" lon="2.8086782"><ele>44.66</ele><time>2026-4-29T1:15:5Z</time></trkpt>
<trkpt lat="48.9409477" lon="2.8085917"><ele>44.60</ele><time>2026-4-29T1:15:8Z</time></trkpt>
<trkpt lat="48.9411514" lon="2.8084552"><ele>45.43</ele><time>2026-4-29T1:15:11Z</time></trkpt>
<trkpt lat="48.9413607" lon="2.8083595"><ele>45.52</ele><time>2026-4-29T1:15:14Z</time></trkpt>
<trkpt lat="48.9415768" lon="2.8083078"><ele>46.63</ele><time>2026-4-29T1:15:17Z</time></trkpt>
<trkpt lat="48.9418165" lon="2.8082735"><ele>46.95</ele><time>2026-4-29T1:15:20Z</time></trkpt>
<trkpt lat="48.9420067" lon="2.8082634"><ele>46.35</ele><time>2026-4-29T1:15:23Z</time></trkpt>
<trkpt lat="48.9422342" lon="2.8082734"><ele>45.49</ele><time>2026-4-29T1:15:26Z</time></trkpt>
<trkpt lat="48.9424438" lon="2.8082863"><ele>45.28</ele><time>2026-4-29T1:15:29Z</time></trkpt>
<trkpt lat="48.9426616" lon="2.8082676"><ele>43.62</ele><time>2026-4-29T1:15:32Z</time></trkpt>
<trkpt lat="48.9428817" lon="2.8081541"><ele>42.30</ele><time>2026-4-29T1:15:35Z</time></trkpt>
<trkpt lat="48.9430553" lon="2.8080012"><ele>39.53</ele><time>2026-4-29T1:15:38Z</time></trkpt>
<trkpt lat="48.9432111" lon="2.8077472"><ele>38.71</ele><time>2026-4-29T1:15:41Z</time></trkpt>
<trkpt lat="48.9433053" lon="2.8074585"><ele>39.52</ele><time>2026-4-29T1:15:44Z</time></trkpt>
<trkpt lat="48.9433766" lon="2.8071674"><ele>45.19</ele><time>2026-4-29T1:15:47Z</time></trkpt>
<trkpt lat="48.9434849" lon="2.8068980"><ele>44.38</ele><time>2026-4-29T1:15:50Z</time></trkpt>
<trkpt lat="48.9435704" lon="2.8066551"><ele>43.44</ele><time>2026-4-29T1:15:53Z</time></trkpt>
<trkpt lat="48.9436865" lon="2.8064108"><ele>43.27</ele><time>2026-4-29T1:15:56Z</time></trkpt>
<trkpt lat="48.9438140" lon="2.8061938"><ele>43.91</ele><time>2026-4-29T1:15:59Z</time></trkpt>
<trkpt lat="48.9439521" lon="2.8059989"><ele>44.30</ele><time>2026-4-29T1:16:2Z</time></trkpt>
<trkpt lat="48.9441314" lon="2.8057574"><ele>45.86</ele><time>2026-4-29T1:16:5Z</time></trkpt>
<trkpt lat="48.9443263" lon="2.8055769"><ele>47.46</ele><time>2026-4-29T1:16:8Z</time></trkpt>
<trkpt lat="48.9445337" lon="2.8055172"><ele>45.38</ele><time>2026-4-29T1:16:11Z</time></trkpt>
<trkpt lat="48.9447147" lon="2.8053982"><ele>43.00</ele><time>2026-4-29T1:16:14Z</time></trkpt>
<trkpt lat="48.9449280" lon="2.8053094"><ele>44.88</ele><time>2026-4-29T1:16:17Z</time></trkpt>
<trkpt lat="48.9451442" lon="2.8052275"><ele>44.81</ele><time>2026-4-29T1:16:20Z</time></trkpt>
<trkpt lat="48.9453245" lon="2.8050970"><ele>46.92</ele><time>2026-4-29T1:16:23Z</time></trkpt>
<trkpt lat="48.9454694" lon="2.8048871"><ele>47.80</ele><time>2026-4-29T1:16:26Z</time></trkpt>
<trkpt lat="48.9455975" lon="2.8046753"><ele>49.15</ele><time>2026-4-29T1:16:29Z</time></trkpt>
<trkpt lat="48.9457313" lon="2.8044828"><ele>47.07</ele><time>2026-4-29T1:16:32Z</time></trkpt>
<trkpt lat="48.9458446" lon="2.8042535"><ele>41.87</ele><time>2026-4-29T1:16:35Z</time></trkpt>
<trkpt lat="48.9459701" lon="2.8040296"><ele>42.92</ele><time>2026-4-29T1:16:38Z</time></trkpt>
<trkpt lat="48.9461037" lon="2.8038381"><ele>42.51</ele><time>2026-4-29T1:16:41Z</time></trkpt>
<trkpt lat="48.9462519" lon="2.8035787"><ele>44.83</ele><time>2026-4-29T1:16:44Z</time></trkpt>
<trkpt lat="48.9464002" lon="2.8033224"><ele>45.14</ele><time>2026-4-29T1:16:47Z</time></trkpt>
<trkpt lat="48.9465586" lon="2.8030554"><ele>48.06</ele><time>2026-4-29T1:16:50Z</time></trkpt>
<trkpt lat="48.9466832" lon="2.8028491"><ele>47.57</ele><time>2026-4-29T1:16:53Z</time></trkpt>
<trkpt lat="48.9468488" lon="2.8025859"><ele>47.73</ele><time>2026-4-29T1:16:56Z</time></trkpt>
<trkpt lat="48.9469798" lon="2.8023919"><ele>48.29</ele><time>2026-4-29T1:16:59Z</time></trkpt>
<trkpt lat="48.9471040" lon="2.8021875"><ele>48.69</ele><time>2026-4-29T1:17:2Z</time></trkpt>
<trkpt lat="48.9472317" lon="2.8019848"><ele>48.86</ele><time>2026-4-29T1:17:5Z</time></trkpt>
<trkpt lat="48.9473560" lon="2.8017764"><ele>48.89</ele><time>2026-4-29T1:17:8Z</time></trkpt>
<trkpt lat="48.9475099" lon="2.8015220"><ele>48.57</ele><time>2026-4-29T1:17:11Z</time></trkpt>
<trkpt lat="48.9476677" lon="2.8012557"><ele>48.95</ele><time>2026-4-29T1:17:14Z</time></trkpt>
<trkpt lat="48.9478294" lon="2.8009924"><ele>50.00</ele><time>2026-4-29T1:17:17Z</time></trkpt>
<trkpt lat="48.9479920" lon="2.8007276"><ele>50.14</ele><time>2026-4-29T1:17:20Z</time></trkpt>
<trkpt lat="48.9481474" lon="2.8004591"><ele>50.24</ele><time>2026-4-29T1:17:23Z</time></trkpt>
<trkpt lat="48.9482705" lon="2.8002527"><ele>50.08</ele><time>2026-4-29T1:17:26Z</time></trkpt>
<trkpt lat="48.9484289" lon="2.7999764"><ele>49.83</ele><time>2026-4-29T1:17:29Z</time></trkpt>
<trkpt lat="48.9485865" lon="2.7997096"><ele>49.23</ele><time>2026-4-29T1:17:32Z</time></trkpt>
<trkpt lat="48.9486976" lon="2.7994834"><ele>49.66</ele><time>2026-4-29T1:17:35Z</time></trkpt>
<trkpt lat="48.9488295" lon="2.7991997"><ele>48.60</ele><time>2026-4-29T1:17:38Z</time></trkpt>
<trkpt lat="48.9489565" lon="2.7988972"><ele>49.13</ele><time>2026-4-29T1:17:41Z</time></trkpt>
<trkpt lat="48.9490798" lon="2.7985820"><ele>48.30</ele><time>2026-4-29T1:17:44Z</time></trkpt>
<trkpt lat="48.9491712" lon="2.7983405"><ele>47.39</ele><time>2026-4-29T1:17:47Z</time></trkpt>
<trkpt lat="48.9492761" lon="2.7980113"><ele>46.67</ele><time>2026-4-29T1:17:50Z</time></trkpt>
<trkpt lat="48.9493531" lon="2.7977589"><ele>46.04</ele><time>2026-4-29T1:17:53Z</time></trkpt>
<trkpt lat="48.9494281" lon="2.7974987"><ele>44.87</ele><time>2026-4-29T1:17:56Z</time></trkpt>
<trkpt lat="48.9494976" lon="2.7971488"><ele>44.56</ele><time>2026-4-29T1:17:59Z</time></trkpt>
<trkpt lat="48.9495556" lon="2.7968824"><ele>45.18</ele><time>2026-4-29T1:18:2Z</time></trkpt>
<trkpt lat="48.9496347" lon="2.7965447"><ele>44.19</ele><time>2026-4-29T1:18:5Z</time></trkpt>
<trkpt lat="48.9497092" lon="2.7961965"><ele>43.53</ele><time>2026-4-29T1:18:8Z</time></trkpt>
<trkpt lat="48.9497539" lon="2.7959278"><ele>42.82</ele><time>2026-4-29T1:18:11Z</time></trkpt>
<trkpt lat="48.9498046" lon="2.7955899"><ele>42.54</ele><time>2026-4-29T1:18:14Z</time></trkpt>
<trkpt lat="48.9498330" lon="2.7952859"><ele>43.23</ele><time>2026-4-29T1:18:17Z</time></trkpt>
<trkpt lat="48.9498609" lon="2.7949802"><ele>43.91</ele><time>2026-4-29T1:18:20Z</time></trkpt>
<trkpt lat="48.9498846" lon="2.7947082"><ele>44.44</ele><time>2026-4-29T1:18:23Z</time></trkpt>
<trkpt lat="48.9499012" lon="2.7944340"><ele>44.60</ele><time>2026-4-29T1:18:26Z</time></trkpt>
<trkpt lat="48.9499046" lon="2.7940645"><ele>45.25</ele><time>2026-4-29T1:18:29Z</time></trkpt>
<trkpt lat="48.9499236" lon="2.7937868"><ele>45.52</ele><time>2026-4-29T1:18:32Z</time></trkpt>
<trkpt lat="48.9499284" lon="2.7934983"><ele>45.85</ele><time>2026-4-29T1:18:35Z</time></trkpt>
<trkpt lat="48.9499227" lon="2.7932037"><ele>46.13</ele><time>2026-4-29T1:18:38Z</time></trkpt>
<trkpt lat="48.9499261" lon="2.7929236"><ele>46.17</ele><time>2026-4-29T1:18:41Z</time></trkpt>
<trkpt lat="48.9499222" lon="2.7925583"><ele>46.66</ele><time>2026-4-29T1:18:44Z</time></trkpt>
<trkpt lat="48.9499106" lon="2.7922822"><ele>46.20</ele><time>2026-4-29T1:18:47Z</time></trkpt>
<trkpt lat="48.9499232" lon="2.7919978"><ele>46.81</ele><time>2026-4-29T1:18:50Z</time></trkpt>
<trkpt lat="48.9499180" lon="2.7917199"><ele>46.37</ele><time>2026-4-29T1:18:53Z</time></trkpt>
<trkpt lat="48.9499017" lon="2.7914449"><ele>46.61</ele><time>2026-4-29T1:18:56Z</time></trkpt>
<trkpt lat="48.9498971" lon="2.7910814"><ele>47.10</ele><time>2026-4-29T1:18:59Z</time></trkpt>
<trkpt lat="48.9498913" lon="2.7907165"><ele>47.18</ele><time>2026-4-29T1:19:2Z</time></trkpt>
<trkpt lat="48.9498883" lon="2.7904371"><ele>46.93</ele><time>2026-4-29T1:19:5Z</time></trkpt>
<trkpt lat="48.9498796" lon="2.7901587"><ele>47.12</ele><time>2026-4-29T1:19:8Z</time></trkpt>
<trkpt lat="48.9498810" lon="2.7898748"><ele>47.29</ele><time>2026-4-29T1:19:11Z</time></trkpt>
<trkpt lat="48.9498718" lon="2.7895959"><ele>47.71</ele><time>2026-4-29T1:19:14Z</time></trkpt>
<trkpt lat="48.9498708" lon="2.7893082"><ele>47.68</ele><time>2026-4-29T1:19:17Z</time></trkpt>
<trkpt lat="48.9498576" lon="2.7889409"><ele>47.79</ele><time>2026-4-29T1:19:20Z</time></trkpt>
<trkpt lat="48.9498597" lon="2.7886489"><ele>47.45</ele><time>2026-4-29T1:19:23Z</time></trkpt>
<trkpt lat="48.9498474" lon="2.7883635"><ele>47.72</ele><time>2026-4-29T1:19:26Z</time></trkpt>
<trkpt lat="48.9498351" lon="2.7880850"><ele>47.61</ele><time>2026-4-29T1:19:29Z</time></trkpt>
<trkpt lat="48.9498409" lon="2.7878078"><ele>48.05</ele><time>2026-4-29T1:19:32Z</time></trkpt>
<trkpt lat="48.9498314" lon="2.7875286"><ele>47.55</ele><time>2026-4-29T1:19:35Z</time></trkpt>
<trkpt lat="48.9498415" lon="2.7872544"><ele>48.40</ele><time>2026-4-29T1:19:38Z</time></trkpt>
<trkpt lat="48.9498463" lon="2.7869649"><ele>48.95</ele><time>2026-4-29T1:19:41Z</time></trkpt>
<trkpt lat="48.9498531" lon="2.7866211"><ele>49.02</ele><time>2026-4-29T1:19:44Z</time></trkpt>
<trkpt lat="48.9498703" lon="2.7862708"><ele>49.28</ele><time>2026-4-29T1:19:47Z</time></trkpt>
<trkpt lat="48.9499021" lon="2.7859373"><ele>49.42</ele><time>2026-4-29T1:19:50Z</time></trkpt>
<trkpt lat="48.9499574" lon="2.7856472"><ele>49.14</ele><time>2026-4-29T1:19:53Z</time></trkpt>
<trkpt lat="48.9500132" lon="2.7853712"><ele>48.38</ele><time>2026-4-29T1:19:56Z</time></trkpt>
<trkpt lat="48.9501219" lon="2.7850899"><ele>47.89</ele><time>2026-4-29T1:19:59Z</time></trkpt>
<trkpt lat="48.9502752" lon="2.7848200"><ele>47.81</ele><time>2026-4-29T1:20:2Z</time></trkpt>
<trkpt lat="48.9504780" lon="2.7846256"><ele>48.10</ele><time>2026-4-29T1:20:5Z</time></trkpt>
<trkpt lat="48.9506998" lon="2.7845396"><ele>47.76</ele><time>2026-4-29T1:20:8Z</time></trkpt>
<trkpt lat="48.9508783" lon="2.7844718"><ele>47.34</ele><time>2026-4-29T1:20:11Z</time></trkpt>
<trkpt lat="48.9510712" lon="2.7843320"><ele>47.30</ele><time>2026-4-29T1:20:14Z</time></trkpt>
<trkpt lat="48.9512408" lon="2.7841126"><ele>47.11</ele><time>2026-4-29T1:20:17Z</time></trkpt>
<trkpt lat="48.9512912" lon="2.7838024"><ele>46.73</ele><time>2026-4-29T1:20:20Z</time></trkpt>
<trkpt lat="48.9513014" lon="2.7834679"><ele>46.53</ele><time>2026-4-29T1:20:23Z</time></trkpt>
<trkpt lat="48.9512833" lon="2.7831483"><ele>47.53</ele><time>2026-4-29T1:20:26Z</time></trkpt>
<trkpt lat="48.9512239" lon="2.7828697"><ele>47.89</ele><time>2026-4-29T1:20:29Z</time></trkpt>
<trkpt lat="48.9511225" lon="2.7826122"><ele>48.90</ele><time>2026-4-29T1:20:32Z</time></trkpt>
<trkpt lat="48.9509523" lon="2.7824417"><ele>51.49</ele><time>2026-4-29T1:20:35Z</time></trkpt>
<trkpt lat="48.9507423" lon="2.7823402"><ele>51.34</ele><time>2026-4-29T1:20:38Z</time></trkpt>
<trkpt lat="48.9505216" lon="2.7823392"><ele>51.34</ele><time>2026-4-29T1:20:41Z</time></trkpt>
<trkpt lat="48.9502850" lon="2.7823626"><ele>50.42</ele><time>2026-4-29T1:20:44Z</time></trkpt>
<trkpt lat="48.9500929" lon="2.7823663"><ele>50.37</ele><time>2026-4-29T1:20:47Z</time></trkpt>
<trkpt lat="48.9499138" lon="2.7823309"><ele>50.62</ele><time>2026-4-29T1:20:50Z</time></trkpt>
<trkpt lat="48.9497082" lon="2.7822326"><ele>51.11</ele><time>2026-4-29T1:20:53Z</time></trkpt>
<trkpt lat="48.9495524" lon="2.7820888"><ele>51.22</ele><time>2026-4-29T1:20:56Z</time></trkpt>
<trkpt lat="48.9494000" lon="2.7818534"><ele>50.50</ele><time>2026-4-29T1:20:59Z</time></trkpt>
<trkpt lat="48.9493354" lon="2.7815527"><ele>51.20</ele><time>2026-4-29T1:21:2Z</time></trkpt>
<trkpt lat="48.9493077" lon="2.7812816"><ele>51.35</ele><time>2026-4-29T1:21:5Z</time></trkpt>
<trkpt lat="48.9492728" lon="2.7809166"><ele>52.06</ele><time>2026-4-29T1:21:8Z</time></trkpt>
<trkpt lat="48.9492254" lon="2.7805643"><ele>51.78</ele><time>2026-4-29T1:21:11Z</time></trkpt>
<trkpt lat="48.9491409" lon="2.7802487"><ele>51.26</ele><time>2026-4-29T1:21:14Z</time></trkpt>
<trkpt lat="48.9489980" lon="2.7799626"><ele>50.92</ele><time>2026-4-29T1:21:17Z</time></trkpt>
<trkpt lat="48.9488396" lon="2.7798253"><ele>51.53</ele><time>2026-4-29T1:21:20Z</time></trkpt>
<trkpt lat="48.9486222" lon="2.7797145"><ele>52.29</ele><time>2026-4-29T1:21:23Z</time></trkpt>
<trkpt lat="48.9483985" lon="2.7796811"><ele>53.21</ele><time>2026-4-29T1:21:26Z</time></trkpt>
<trkpt lat="48.9481621" lon="2.7796764"><ele>54.06</ele><time>2026-4-29T1:21:29Z</time></trkpt>
<trkpt lat="48.9479828" lon="2.7796408"><ele>53.19</ele><time>2026-4-29T1:21:32Z</time></trkpt>
<trkpt lat="48.9477670" lon="2.7795745"><ele>50.35</ele><time>2026-4-29T1:21:35Z</time></trkpt>
<trkpt lat="48.9475579" lon="2.7794640"><ele>49.98</ele><time>2026-4-29T1:21:38Z</time></trkpt>
<trkpt lat="48.9473511" lon="2.7793129"><ele>50.02</ele><time>2026-4-29T1:21:41Z</time></trkpt>
<trkpt lat="48.9471862" lon="2.7791929"><ele>50.39</ele><time>2026-4-29T1:21:44Z</time></trkpt>
<trkpt lat="48.9469748" lon="2.7790262"><ele>49.29</ele><time>2026-4-29T1:21:47Z</time></trkpt>
<trkpt lat="48.9468121" lon="2.7789021"><ele>49.35</ele><time>2026-4-29T1:21:50Z</time></trkpt>
<trkpt lat="48.9466500" lon="2.7787698"><ele>49.51</ele><time>2026-4-29T1:21:53Z</time></trkpt>
<trkpt lat="48.9464801" lon="2.7786747"><ele>49.82</ele><time>2026-4-29T1:21:56Z</time></trkpt>
<trkpt lat="48.9463059" lon="2.7785791"><ele>50.28</ele><time>2026-4-29T1:21:59Z</time></trkpt>
<trkpt lat="48.9461335" lon="2.7784829"><ele>50.93</ele><time>2026-4-29T1:22:2Z</time></trkpt>
<trkpt lat="48.9459119" lon="2.7783745"><ele>51.29</ele><time>2026-4-29T1:22:5Z</time></trkpt>
<trkpt lat="48.9457341" lon="2.7782903"><ele>50.96</ele><time>2026-4-29T1:22:8Z</time></trkpt>
<trkpt lat="48.9455640" lon="2.7782004"><ele>50.62</ele><time>2026-4-29T1:22:11Z</time></trkpt>
<trkpt lat="48.9453417" lon="2.7780915"><ele>50.28</ele><time>2026-4-29T1:22:14Z</time></trkpt>
<trkpt lat="48.9451269" lon="2.7779605"><ele>51.01</ele><time>2026-4-29T1:22:17Z</time></trkpt>
<trkpt lat="48.9449496" lon="2.7778922"><ele>51.05</ele><time>2026-4-29T1:22:20Z</time></trkpt>
<trkpt lat="48.9447226" lon="2.7777716"><ele>51.10</ele><time>2026-4-29T1:22:23Z</time></trkpt>
<trkpt lat="48.9445171" lon="2.7776385"><ele>51.43</ele><time>2026-4-29T1:22:26Z</time></trkpt>
<trkpt lat="48.9443354" lon="2.7775576"><ele>51.97</ele><time>2026-4-29T1:22:29Z</time></trkpt>
<trkpt lat="48.9441609" lon="2.7774511"><ele>52.69</ele><time>2026-4-29T1:22:32Z</time></trkpt>
<trkpt lat="48.9439525" lon="2.7773485"><ele>52.29</ele><time>2026-4-29T1:22:35Z</time></trkpt>
<trkpt lat="48.9437438" lon="2.7772612"><ele>49.86</ele><time>2026-4-29T1:22:38Z</time></trkpt>
<trkpt lat="48.9435414" lon="2.7771790"><ele>47.50</ele><time>2026-4-29T1:22:41Z</time></trkpt>
<trkpt lat="48.9433205" lon="2.7771803"><ele>47.65</ele><time>2026-4-29T1:22:44Z</time></trkpt>
<trkpt lat="48.9430918" lon="2.7772048"><ele>49.31</ele><time>2026-4-29T1:22:47Z</time></trkpt>
<trkpt lat="48.9428649" lon="2.7771924"><ele>49.74</ele><time>2026-4-29T1:22:50Z</time></trkpt>
<trkpt lat="48.9426558" lon="2.7772111"><ele>48.89</ele><time>2026-4-29T1:22:53Z</time></trkpt>
<trkpt lat="48.9424372" lon="2.7772697"><ele>49.01</ele><time>2026-4-29T1:22:56Z</time></trkpt>
<trkpt lat="48.9422372" lon="2.7772712"><ele>50.47</ele><time>2026-4-29T1:22:59Z</time></trkpt>
<trkpt lat="48.9420546" lon="2.7772337"><ele>51.40</ele><time>2026-4-29T1:23:2Z</time></trkpt>
<trkpt lat="48.9418462" lon="2.7771378"><ele>49.97</ele><time>2026-4-29T1:23:5Z</time></trkpt>
<trkpt lat="48.9416657" lon="2.7769644"><ele>49.45</ele><time>2026-4-29T1:23:8Z</time></trkpt>
<trkpt lat="48.9414948" lon="2.7767239"><ele>50.64</ele><time>2026-4-29T1:23:11Z</time></trkpt>
<trkpt lat="48.9413738" lon="2.7765133"><ele>51.95</ele><time>2026-4-29T1:23:14Z</time></trkpt>
<trkpt lat="48.9412639" lon="2.7762766"><ele>51.44</ele><time>2026-4-29T1:23:17Z</time></trkpt>
<trkpt lat="48.9411777" lon="2.7760176"><ele>50.91</ele><time>2026-4-29T1:23:20Z</time></trkpt>
<trkpt lat="48.9411061" lon="2.7757648"><ele>50.74</ele><time>2026-4-29T1:23:23Z</time></trkpt>
<trkpt lat="48.9410290" lon="2.7755081"><ele>50.27</ele><time>2026-4-29T1:23:26Z</time></trkpt>
<trkpt lat="48.9409262" lon="2.7751731"><ele>49.79</ele><time>2026-4-29T1:23:29Z</time></trkpt>
<trkpt lat="48.9408199" lon="2.7749341"><ele>49.90</ele><time>2026-4-29T1:23:32Z</time></trkpt>
<trkpt lat="48.9406683" lon="2.7746638"><ele>50.44</ele><time>2026-4-29T1:23:35Z</time></trkpt>
<trkpt lat="48.9404840" lon="2.7744517"><ele>49.05</ele><time>2026-4-29T1:23:38Z</time></trkpt>
<trkpt lat="48.9402797" lon="2.7742675"><ele>47.24</ele><time>2026-4-29T1:23:41Z</time></trkpt>
<trkpt lat="48.9401204" lon="2.7741397"><ele>47.63</ele><time>2026-4-29T1:23:44Z</time></trkpt>
<trkpt lat="48.9399042" lon="2.7740050"><ele>44.98</ele><time>2026-4-29T1:23:47Z</time></trkpt>
<trkpt lat="48.9397211" lon="2.7739202"><ele>45.54</ele><time>2026-4-29T1:23:50Z</time></trkpt>
<trkpt lat="48.9394893" lon="2.7738321"><ele>46.52</ele><time>2026-4-29T1:23:53Z</time></trkpt>
<trkpt lat="48.9392673" lon="2.7737557"><ele>45.47</ele><time>2026-4-29T1:23:56Z</time></trkpt>
<trkpt lat="48.9390842" lon="2.7737026"><ele>45.58</ele><time>2026-4-29T1:23:59Z</time></trkpt>
<trkpt lat="48.9389002" lon="2.7736475"><ele>45.36</ele><time>2026-4-29T1:24:2Z</time></trkpt>
<trkpt lat="48.9387159" lon="2.7736251"><ele>44.76</ele><time>2026-4-29T1:24:5Z</time></trkpt>
<trkpt lat="48.9384941" lon="2.7735740"><ele>45.21</ele><time>2026-4-29T1:24:8Z</time></trkpt>
<trkpt lat="48.9382682" lon="2.7734845"><ele>44.03</ele><time>2026-4-29T1:24:11Z</time></trkpt>
<trkpt lat="48.9380412" lon="2.7733900"><ele>44.98</ele><time>2026-4-29T1:24:14Z</time></trkpt>
<trkpt lat="48.9378466" lon="2.7732637"><ele>45.03</ele><time>2026-4-29T1:24:17Z</time></trkpt>
<trkpt lat="48.9376627" lon="2.7731169"><ele>45.06</ele><time>2026-4-29T1:24:20Z</time></trkpt>
<trkpt lat="48.9375088" lon="2.7729328"><ele>46.08</ele><time>2026-4-29T1:24:23Z</time></trkpt>
<trkpt lat="48.9373611" lon="2.7727394"><ele>46.70</ele><time>2026-4-29T1:24:26Z</time></trkpt>
<trkpt lat="48.9372328" lon="2.7725400"><ele>50.23</ele><time>2026-4-29T1:24:29Z</time></trkpt>
<trkpt lat="48.9371618" lon="2.7722836"><ele>50.53</ele><time>2026-4-29T1:24:32Z</time></trkpt>
<trkpt lat="48.9370610" lon="2.7720168"><ele>50.20</ele><time>2026-4-29T1:24:35Z</time></trkpt>
<trkpt lat="48.9369577" lon="2.7717213"><ele>48.91</ele><time>2026-4-29T1:24:38Z</time></trkpt>
<trkpt lat="48.9368406" lon="2.7714686"><ele>48.23</ele><time>2026-4-29T1:24:41Z</time></trkpt>
<trkpt lat="48.9367211" lon="2.7711692"><ele>49.63</ele><time>2026-4-29T1:24:44Z</time></trkpt>
<trkpt lat="48.9366083" lon="2.7708884"><ele>49.31</ele><time>2026-4-29T1:24:47Z</time></trkpt>
<trkpt lat="48.9365051" lon="2.7706083"><ele>49.87</ele><time>2026-4-29T1:24:50Z</time></trkpt>
<trkpt lat="48.9363906" lon="2.7703200"><ele>49.89</ele><time>2026-4-29T1:24:53Z</time></trkpt>
<trkpt lat="48.9362840" lon="2.7700650"><ele>50.41</ele><time>2026-4-29T1:24:56Z</time></trkpt>
<trkpt lat="48.9361661" lon="2.7697818"><ele>50.28</ele><time>2026-4-29T1:24:59Z</time></trkpt>
<trkpt lat="48.9360410" lon="2.7694758"><ele>50.54</ele><time>2026-4-29T1:25:2Z</time></trkpt>
<trkpt lat="48.9359107" lon="2.7691826"><ele>51.19</ele><time>2026-4-29T1:25:5Z</time></trkpt>
<trkpt lat="48.9358154" lon="2.7689424"><ele>51.49</ele><time>2026-4-29T1:25:8Z</time></trkpt>
<trkpt lat="48.9357231" lon="2.7687004"><ele>52.05</ele><time>2026-4-29T1:25:11Z</time></trkpt>
<trkpt lat="48.9355921" lon="2.7684028"><ele>52.53</ele><time>2026-4-29T1:25:14Z</time></trkpt>
<trkpt lat="48.9354590" lon="2.7681056"><ele>51.57</ele><time>2026-4-29T1:25:17Z</time></trkpt>
<trkpt lat="48.9353324" lon="2.7678019"><ele>51.38</ele><time>2026-4-29T1:25:20Z</time></trkpt>
<trkpt lat="48.9352400" lon="2.7675646"><ele>52.35</ele><time>2026-4-29T1:25:23Z</time></trkpt>
<trkpt lat="48.9351456" lon="2.7673284"><ele>52.60</ele><time>2026-4-29T1:25:26Z</time></trkpt>
<trkpt lat="48.9350327" lon="2.7670311"><ele>53.46</ele><time>2026-4-29T1:25:29Z</time></trkpt>
<trkpt lat="48.9349052" lon="2.7667275"><ele>53.70</ele><time>2026-4-29T1:25:32Z</time></trkpt>
<trkpt lat="48.9348136" lon="2.7664844"><ele>53.30</ele><time>2026-4-29T1:25:35Z</time></trkpt>
<trkpt lat="48.9347134" lon="2.7662498"><ele>52.65</ele><time>2026-4-29T1:25:38Z</time></trkpt>
<trkpt lat="48.9346127" lon="2.7660035"><ele>52.01</ele><time>2026-4-29T1:25:41Z</time></trkpt>
<trkpt lat="48.9345140" lon="2.7657583"><ele>51.90</ele><time>2026-4-29T1:25:44Z</time></trkpt>
<trkpt lat="48.9343875" lon="2.7654488"><ele>52.96</ele><time>2026-4-29T1:25:47Z</time></trkpt>
<trkpt lat="48.9342621" lon="2.7651480"><ele>52.07</ele><time>2026-4-29T1:25:50Z</time></trkpt>
<trkpt lat="48.9341266" lon="2.7648477"><ele>51.50</ele><time>2026-4-29T1:25:53Z</time></trkpt>
<trkpt lat="48.9340052" lon="2.7645733"><ele>51.84</ele><time>2026-4-29T1:25:56Z</time></trkpt>
<trkpt lat="48.9338845" lon="2.7642974"><ele>50.97</ele><time>2026-4-29T1:25:59Z</time></trkpt>
<trkpt lat="48.9337640" lon="2.7640176"><ele>51.93</ele><time>2026-4-29T1:26:2Z</time></trkpt>
<trkpt lat="48.9336453" lon="2.7637122"><ele>52.10</ele><time>2026-4-29T1:26:5Z</time></trkpt>
<trkpt lat="48.9335361" lon="2.7634026"><ele>52.85</ele><time>2026-4-29T1:26:8Z</time></trkpt>
<trkpt lat="48.9334214" lon="2.7630897"><ele>51.92</ele><time>2026-4-29T1:26:11Z</time></trkpt>
<trkpt lat="48.9333377" lon="2.7628403"><ele>52.49</ele><time>2026-4-29T1:26:14Z</time></trkpt>
<trkpt lat="48.9332626" lon="2.7625842"><ele>52.58</ele><time>2026-4-29T1:26:17Z</time></trkpt>
<trkpt lat="48.9331768" lon="2.7622464"><ele>52.54</ele><time>2026-4-29T1:26:20Z</time></trkpt>
<trkpt lat="48.9331088" lon="2.7619814"><ele>53.32</ele><time>2026-4-29T1:26:23Z</time></trkpt>
<trkpt lat="48.9330447" lon="2.7617183"><ele>53.31</ele><time>2026-4-29T1:26:26Z</time></trkpt>
<trkpt lat="48.9329767" lon="2.7613818"><ele>52.28</ele><time>2026-4-29T1:26:29Z</time></trkpt>
<trkpt lat="48.9329288" lon="2.7610707"><ele>52.54</ele><time>2026-4-29T1:26:32Z</time></trkpt>
<trkpt lat="48.9328914" lon="2.7607511"><ele>53.47</ele><time>2026-4-29T1:26:35Z</time></trkpt>
<trkpt lat="48.9328733" lon="2.7604144"><ele>54.70</ele><time>2026-4-29T1:26:38Z</time></trkpt>
<trkpt lat="48.9328612" lon="2.7600555"><ele>54.11</ele><time>2026-4-29T1:26:41Z</time></trkpt>
<trkpt lat="48.9328680" lon="2.7597034"><ele>53.03</ele><time>2026-4-29T1:26:44Z</time></trkpt>
<trkpt lat="48.9328869" lon="2.7593701"><ele>52.02</ele><time>2026-4-29T1:26:47Z</time></trkpt>
<trkpt lat="48.9329150" lon="2.7590968"><ele>52.23</ele><time>2026-4-29T1:26:50Z</time></trkpt>
<trkpt lat="48.9329478" lon="2.7588264"><ele>52.01</ele><time>2026-4-29T1:26:53Z</time></trkpt>
<trkpt lat="48.9329947" lon="2.7585597"><ele>52.63</ele><time>2026-4-29T1:26:56Z</time></trkpt>
<trkpt lat="48.9330412" lon="2.7582901"><ele>52.42</ele><time>2026-4-29T1:26:59Z</time></trkpt>
<trkpt lat="48.9331156" lon="2.7580350"><ele>50.73</ele><time>2026-4-29T1:27:2Z</time></trkpt>
<trkpt lat="48.9331924" lon="2.7577744"><ele>50.46</ele><time>2026-4-29T1:27:5Z</time></trkpt>
<trkpt lat="48.9332848" lon="2.7575324"><ele>49.22</ele><time>2026-4-29T1:27:8Z</time></trkpt>
<trkpt lat="48.9334066" lon="2.7572396"><ele>49.51</ele><time>2026-4-29T1:27:11Z</time></trkpt>
<trkpt lat="48.9335330" lon="2.7569674"><ele>50.43</ele><time>2026-4-29T1:27:14Z</time></trkpt>
<trkpt lat="48.9336874" lon="2.7567039"><ele>50.95</ele><time>2026-4-29T1:27:17Z</time></trkpt>
<trkpt lat="48.9338363" lon="2.7564663"><ele>51.69</ele><time>2026-4-29T1:27:20Z</time></trkpt>
<trkpt lat="48.9340252" lon="2.7562926"><ele>50.98</ele><time>2026-4-29T1:27:23Z</time></trkpt>
<trkpt lat="48.9341909" lon="2.7561304"><ele>49.98</ele><time>2026-4-29T1:27:26Z</time></trkpt>
<trkpt lat="48.9343831" lon="2.7559851"><ele>50.18</ele><time>2026-4-29T1:27:29Z</time></trkpt>
<trkpt lat="48.9345764" lon="2.7559175"><ele>50.31</ele><time>2026-4-29T1:27:32Z</time></trkpt>
<trkpt lat="48.9347655" lon="2.7558649"><ele>50.33</ele><time>2026-4-29T1:27:35Z</time></trkpt>
<trkpt lat="48.9349884" lon="2.7558343"><ele>49.94</ele><time>2026-4-29T1:27:38Z</time></trkpt>
<trkpt lat="48.9352216" lon="2.7558311"><ele>50.46</ele><time>2026-4-29T1:27:41Z</time></trkpt>
<trkpt lat="48.9354555" lon="2.7558799"><ele>50.82</ele><time>2026-4-29T1:27:44Z</time></trkpt>
<trkpt lat="48.9356696" lon="2.7559499"><ele>51.10</ele><time>2026-4-29T1:27:47Z</time></trkpt>
<trkpt lat="48.9358849" lon="2.7560326"><ele>51.07</ele><time>2026-4-29T1:27:50Z</time></trkpt>
<trkpt lat="48.9360951" lon="2.7560722"><ele>50.19</ele><time>2026-4-29T1:27:53Z</time></trkpt>
<trkpt lat="48.9362625" lon="2.7562027"><ele>50.24</ele><time>2026-4-29T1:27:56Z</time></trkpt>
<trkpt lat="48.9364578" lon="2.7563169"><ele>49.58</ele><time>2026-4-29T1:27:59Z</time></trkpt>
<trkpt lat="48.9366713" lon="2.7564185"><ele>49.50</ele><time>2026-4-29T1:28:2Z</time></trkpt>
<trkpt lat="48.9368946" lon="2.7565166"><ele>49.64</ele><time>2026-4-29T1:28:5Z</time></trkpt>
<trkpt lat="48.9370666" lon="2.7566010"><ele>49.31</ele><time>2026-4-29T1:28:8Z</time></trkpt>
<trkpt lat="48.9372401" lon="2.7566931"><ele>49.24</ele><time>2026-4-29T1:28:11Z</time></trkpt>
<trkpt lat="48.9374178" lon="2.7567732"><ele>49.75</ele><time>2026-4-29T1:28:14Z</time></trkpt>
<trkpt lat="48.9375990" lon="2.7568454"><ele>49.45</ele><time>2026-4-29T1:28:17Z</time></trkpt>
<trkpt lat="48.9377796" lon="2.7569060"><ele>49.41</ele><time>2026-4-29T1:28:20Z</time></trkpt>
<trkpt lat="48.9379617" lon="2.7569316"><ele>49.86</ele><time>2026-4-29T1:28:23Z</time></trkpt>
<trkpt lat="48.9381550" lon="2.7569148"><ele>50.01</ele><time>2026-4-29T1:28:26Z</time></trkpt>
<trkpt lat="48.9383475" lon="2.7568326"><ele>49.53</ele><time>2026-4-29T1:28:29Z</time></trkpt>
<trkpt lat="48.9385105" lon="2.7567027"><ele>49.48</ele><time>2026-4-29T1:28:32Z</time></trkpt>
<trkpt lat="48.9386996" lon="2.7564745"><ele>50.05</ele><time>2026-4-29T1:28:35Z</time></trkpt>
<trkpt lat="48.9388726" lon="2.7562485"><ele>50.50</ele><time>2026-4-29T1:28:38Z</time></trkpt>
<trkpt lat="48.9390105" lon="2.7560209"><ele>49.98</ele><time>2026-4-29T1:28:41Z</time></trkpt>
<trkpt lat="48.9391437" lon="2.7558053"><ele>49.45</ele><time>2026-4-29T1:28:44Z</time></trkpt>
<trkpt lat="48.9392838" lon="2.7555538"><ele>49.00</ele><time>2026-4-29T1:28:47Z</time></trkpt>
<trkpt lat="48.9393971" lon="2.7553030"><ele>48.76</ele><time>2026-4-29T1:28:50Z</time></trkpt>
<trkpt lat="48.9394958" lon="2.7550020"><ele>48.93</ele><time>2026-4-29T1:28:53Z</time></trkpt>
<trkpt lat="48.9395490" lon="2.7546669"><ele>49.61</ele><time>2026-4-29T1:28:56Z</time></trkpt>
<trkpt lat="48.9395480" lon="2.7543142"><ele>49.87</ele><time>2026-4-29T1:28:59Z</time></trkpt>
<trkpt lat="48.9395223" lon="2.7539838"><ele>49.99</ele><time>2026-4-29T1:29:2Z</time></trkpt>
<trkpt lat="48.9394530" lon="2.7536534"><ele>50.03</ele><time>2026-4-29T1:29:5Z</time></trkpt>
<trkpt lat="48.9393959" lon="2.7533251"><ele>50.25</ele><time>2026-4-29T1:29:8Z</time></trkpt>
<trkpt lat="48.9393308" lon="2.7529965"><ele>50.23</ele><time>2026-4-29T1:29:11Z</time></trkpt>
<trkpt lat="48.9392475" lon="2.7526720"><ele>50.13</ele><time>2026-4-29T1:29:14Z</time></trkpt>
<trkpt lat="48.9391724" lon="2.7523303"><ele>50.87</ele><time>2026-4-29T1:29:17Z</time></trkpt>
<trkpt lat="48.9391204" lon="2.7519750"><ele>50.67</ele><time>2026-4-29T1:29:20Z</time></trkpt>
<trkpt lat="48.9390803" lon="2.7516279"><ele>49.71</ele><time>2026-4-29T1:29:23Z</time></trkpt>
<trkpt lat="48.9390684" lon="2.7512685"><ele>50.49</ele><time>2026-4-29T1:29:26Z</time></trkpt>
<trkpt lat="48.9390852" lon="2.7509121"><ele>50.74</ele><time>2026-4-29T1:29:29Z</time></trkpt>
<trkpt lat="48.9390951" lon="2.7505521"><ele>50.61</ele><time>2026-4-29T1:29:32Z</time></trkpt>
<trkpt lat="48.9391288" lon="2.7502023"><ele>50.77</ele><time>2026-4-29T1:29:35Z</time></trkpt>
<trkpt lat="48.9391827" lon="2.7498809"><ele>50.20</ele><time>2026-4-29T1:29:38Z</time></trkpt>
<trkpt lat="48.9392217" lon="2.7496049"><ele>50.81</ele><time>2026-4-29T1:29:41Z</time></trkpt>
<trkpt lat="48.9392822" lon="2.7492626"><ele>50.52</ele><time>2026-4-29T1:29:44Z</time></trkpt>
<trkpt lat="48.9393429" lon="2.7490026"><ele>49.51</ele><time>2026-4-29T1:29:47Z</time></trkpt>
<trkpt lat="48.9394104" lon="2.7486587"><ele>49.46</ele><time>2026-4-29T1:29:50Z</time></trkpt>
<trkpt lat="48.9394826" lon="2.7483260"><ele>50.10</ele><time>2026-4-29T1:29:53Z</time></trkpt>
<trkpt lat="48.9395436" lon="2.7479891"><ele>50.56</ele><time>2026-4-29T1:29:56Z</time></trkpt>
<trkpt lat="48.9396129" lon="2.7476344"><ele>51.05</ele><time>2026-4-29T1:29:59Z</time></trkpt>
<trkpt lat="48.9396604" lon="2.7473612"><ele>50.81</ele><time>2026-4-29T1:30:2Z</time></trkpt>
<trkpt lat="48.9397168" lon="2.7470956"><ele>50.63</ele><time>2026-4-29T1:30:5Z</time></trkpt>
<trkpt lat="48.9397721" lon="2.7468305"><ele>50.96</ele><time>2026-4-29T1:30:8Z</time></trkpt>
<trkpt lat="48.9398557" lon="2.7464990"><ele>50.39</ele><time>2026-4-29T1:30:11Z</time></trkpt>
<trkpt lat="48.9399109" lon="2.7462325"><ele>49.51</ele><time>2026-4-29T1:30:14Z</time></trkpt>
<trkpt lat="48.9399806" lon="2.7458871"><ele>48.77</ele><time>2026-4-29T1:30:17Z</time></trkpt>
<trkpt lat="48.9400549" lon="2.7455369"><ele>48.69</ele><time>2026-4-29T1:30:20Z</time></trkpt>
<trkpt lat="48.9401141" lon="2.7451984"><ele>49.67</ele><time>2026-4-29T1:30:23Z</time></trkpt>
<trkpt lat="48.9401751" lon="2.7448578"><ele>49.10</ele><time>2026-4-29T1:30:26Z</time></trkpt>
<trkpt lat="48.9402457" lon="2.7445187"><ele>48.57</ele><time>2026-4-29T1:30:29Z</time></trkpt>
<trkpt lat="48.9403199" lon="2.7441839"><ele>48.53</ele><time>2026-4-29T1:30:32Z</time></trkpt>
<trkpt lat="48.9403852" lon="2.7438875"><ele>49.12</ele><time>2026-4-29T1:30:35Z</time></trkpt>
<trkpt lat="48.9404482" lon="2.7435636"><ele>49.33</ele><time>2026-4-29T1:30:38Z</time></trkpt>
<trkpt lat="48.9404825" lon="2.7432516"><ele>50.04</ele><time>2026-4-29T1:30:41Z</time></trkpt>
<trkpt lat="48.9405153" lon="2.7429819"><ele>51.66</ele><time>2026-4-29T1:30:44Z</time></trkpt>
<trkpt lat="48.9405972" lon="2.7426795"><ele>49.50</ele><time>2026-4-29T1:30:47Z</time></trkpt>
<trkpt lat="48.9406678" lon="2.7424238"><ele>48.28</ele><time>2026-4-29T1:30:50Z</time></trkpt>
<trkpt lat="48.9407322" lon="2.7421290"><ele>47.78</ele><time>2026-4-29T1:30:53Z</time></trkpt>
<trkpt lat="48.9407840" lon="2.7418347"><ele>47.62</ele><time>2026-4-29T1:30:56Z</time></trkpt>
<trkpt lat="48.9408423" lon="2.7415618"><ele>47.82</ele><time>2026-4-29T1:30:59Z</time></trkpt>
<trkpt lat="48.9409119" lon="2.7412096"><ele>48.55</ele><time>2026-4-29T1:31:2Z</time></trkpt>
<trkpt lat="48.9409638" lon="2.7409434"><ele>48.80</ele><time>2026-4-29T1:31:5Z</time></trkpt>
<trkpt lat="48.9410208" lon="2.7406823"><ele>48.82</ele><time>2026-4-29T1:31:8Z</time></trkpt>
<trkpt lat="48.9410864" lon="2.7403400"><ele>49.05</ele><time>2026-4-29T1:31:11Z</time></trkpt>
<trkpt lat="48.9411622" lon="2.7400165"><ele>48.19</ele><time>2026-4-29T1:31:14Z</time></trkpt>
<trkpt lat="48.9412214" lon="2.7397087"><ele>48.23</ele><time>2026-4-29T1:31:17Z</time></trkpt>
<trkpt lat="48.9412864" lon="2.7393898"><ele>47.77</ele><time>2026-4-29T1:31:20Z</time></trkpt>
<trkpt lat="48.9413395" lon="2.7390516"><ele>48.60</ele><time>2026-4-29T1:31:23Z</time></trkpt>
<trkpt lat="48.9413763" lon="2.7387824"><ele>48.84</ele><time>2026-4-29T1:31:26Z</time></trkpt>
<trkpt lat="48.9414035" lon="2.7384391"><ele>49.24</ele><time>2026-4-29T1:31:29Z</time></trkpt>
<trkpt lat="48.9414431" lon="2.7381151"><ele>50.22</ele><time>2026-4-29T1:31:32Z</time></trkpt>
<trkpt lat="48.9414654" lon="2.7378182"><ele>50.45</ele><time>2026-4-29T1:31:35Z</time></trkpt>
<trkpt lat="48.9414882" lon="2.7375083"><ele>49.76</ele><time>2026-4-29T1:31:38Z</time></trkpt>
<trkpt lat="48.9414856" lon="2.7371595"><ele>49.42</ele><time>2026-4-29T1:31:41Z</time></trkpt>
<trkpt lat="48.9414829" lon="2.7367983"><ele>49.83</ele><time>2026-4-29T1:31:44Z</time></trkpt>
<trkpt lat="48.9414952" lon="2.7364471"><ele>49.80</ele><time>2026-4-29T1:31:47Z</time></trkpt>
<trkpt lat="48.9414862" lon="2.7360959"><ele>50.42</ele><time>2026-4-29T1:31:50Z</time></trkpt>
<trkpt lat="48.9414673" lon="2.7357430"><ele>50.61</ele><time>2026-4-29T1:31:53Z</time></trkpt>
<trkpt lat="48.9414485" lon="2.7353956"><ele>50.73</ele><time>2026-4-29T1:31:56Z</time></trkpt>
<trkpt lat="48.9414097" lon="2.7350384"><ele>50.82</ele><time>2026-4-29T1:31:59Z</time></trkpt>
<trkpt lat="48.9413905" lon="2.7346967"><ele>50.78</ele><time>2026-4-29T1:32:2Z</time></trkpt>
<trkpt lat="48.9413541" lon="2.7343674"><ele>51.05</ele><time>2026-4-29T1:32:5Z</time></trkpt>
<trkpt lat="48.9413272" lon="2.7340397"><ele>51.03</ele><time>2026-4-29T1:32:8Z</time></trkpt>
<trkpt lat="48.9413154" lon="2.7337642"><ele>50.63</ele><time>2026-4-29T1:32:11Z</time></trkpt>
<trkpt lat="48.9412954" lon="2.7334904"><ele>50.88</ele><time>2026-4-29T1:32:14Z</time></trkpt>
<trkpt lat="48.9412786" lon="2.7331292"><ele>51.57</ele><time>2026-4-29T1:32:17Z</time></trkpt>
<trkpt lat="48.9412562" lon="2.7327839"><ele>51.80</ele><time>2026-4-29T1:32:20Z</time></trkpt>
<trkpt lat="48.9412438" lon="2.7324225"><ele>51.79</ele><time>2026-4-29T1:32:23Z</time></trkpt>
<trkpt lat="48.9412361" lon="2.7320540"><ele>52.24</ele><time>2026-4-29T1:32:26Z</time></trkpt>
<trkpt lat="48.9412321" lon="2.7317062"><ele>52.08</ele><time>2026-4-29T1:32:29Z</time></trkpt>
<trkpt lat="48.9412424" lon="2.7313780"><ele>52.16</ele><time>2026-4-29T1:32:32Z</time></trkpt>
<trkpt lat="48.9412587" lon="2.7310652"><ele>52.68</ele><time>2026-4-29T1:32:35Z</time></trkpt>
<trkpt lat="48.9412750" lon="2.7307702"><ele>54.22</ele><time>2026-4-29T1:32:38Z</time></trkpt>
<trkpt lat="48.9412860" lon="2.7304692"><ele>53.23</ele><time>2026-4-29T1:32:41Z</time></trkpt>
<trkpt lat="48.9413193" lon="2.7301668"><ele>52.92</ele><time>2026-4-29T1:32:44Z</time></trkpt>
<trkpt lat="48.9413472" lon="2.7298475"><ele>51.31</ele><time>2026-4-29T1:32:47Z</time></trkpt>
<trkpt lat="48.9413903" lon="2.7295488"><ele>51.09</ele><time>2026-4-29T1:32:50Z</time></trkpt>
<trkpt lat="48.9414261" lon="2.7292299"><ele>49.94</ele><time>2026-4-29T1:32:53Z</time></trkpt>
<trkpt lat="48.9414788" lon="2.7288907"><ele>49.61</ele><time>2026-4-29T1:32:56Z</time></trkpt>
<trkpt lat="48.9415456" lon="2.7285493"><ele>49.32</ele><time>2026-4-29T1:32:59Z</time></trkpt>
<trkpt lat="48.9416395" lon="2.7282152"><ele>49.19</ele><time>2026-4-29T1:33:2Z</time></trkpt>
<trkpt lat="48.9417338" lon="2.7278877"><ele>49.16</ele><time>2026-4-29T1:33:5Z</time></trkpt>
<trkpt lat="48.9418347" lon="2.7275842"><ele>49.30</ele><time>2026-4-29T1:33:8Z</time></trkpt>
<trkpt lat="48.9419431" lon="2.7272779"><ele>48.66</ele><time>2026-4-29T1:33:11Z</time></trkpt>
<trkpt lat="48.9420637" lon="2.7269973"><ele>48.55</ele><time>2026-4-29T1:33:14Z</time></trkpt>
<trkpt lat="48.9421957" lon="2.7267180"><ele>48.32</ele><time>2026-4-29T1:33:17Z</time></trkpt>
<trkpt lat="48.9423521" lon="2.7264544"><ele>48.76</ele><time>2026-4-29T1:33:20Z</time></trkpt>
<trkpt lat="48.9425128" lon="2.7262265"><ele>50.01</ele><time>2026-4-29T1:33:23Z</time></trkpt>
<trkpt lat="48.9426847" lon="2.7259935"><ele>49.44</ele><time>2026-4-29T1:33:26Z</time></trkpt>
<trkpt lat="48.9428750" lon="2.7257918"><ele>49.41</ele><time>2026-4-29T1:33:29Z</time></trkpt>
<trkpt lat="48.9430781" lon="2.7256140"><ele>50.38</ele><time>2026-4-29T1:33:32Z</time></trkpt>
<trkpt lat="48.9432823" lon="2.7254385"><ele>49.36</ele><time>2026-4-29T1:33:35Z</time></trkpt>
<trkpt lat="48.9434854" lon="2.7252797"><ele>50.04</ele><time>2026-4-29T1:33:38Z</time></trkpt>
<trkpt lat="48.9437050" lon="2.7251449"><ele>47.48</ele><time>2026-4-29T1:33:41Z</time></trkpt>
<trkpt lat="48.9438867" lon="2.7250016"><ele>47.21</ele><time>2026-4-29T1:33:44Z</time></trkpt>
<trkpt lat="48.9440638" lon="2.7248089"><ele>47.34</ele><time>2026-4-29T1:33:47Z</time></trkpt>
<trkpt lat="48.9442116" lon="2.7246238"><ele>47.75</ele><time>2026-4-29T1:33:50Z</time></trkpt>
<trkpt lat="48.9443453" lon="2.7243831"><ele>47.13</ele><time>2026-4-29T1:33:53Z</time></trkpt>
<trkpt lat="48.9445045" lon="2.7241074"><ele>46.70</ele><time>2026-4-29T1:33:56Z</time></trkpt>
<trkpt lat="48.9446298" lon="2.7238191"><ele>47.62</ele><time>2026-4-29T1:33:59Z</time></trkpt>
<trkpt lat="48.9447309" lon="2.7235061"><ele>47.27</ele><time>2026-4-29T1:34:2Z</time></trkpt>
<trkpt lat="48.9448089" lon="2.7231760"><ele>46.83</ele><time>2026-4-29T1:34:5Z</time></trkpt>
<trkpt lat="48.9448637" lon="2.7229076"><ele>45.12</ele><time>2026-4-29T1:34:8Z</time></trkpt>
<trkpt lat="48.9449164" lon="2.7225632"><ele>46.08</ele><time>2026-4-29T1:34:11Z</time></trkpt>
<trkpt lat="48.9449612" lon="2.7222532"><ele>47.62</ele><time>2026-4-29T1:34:14Z</time></trkpt>
<trkpt lat="48.9449784" lon="2.7219447"><ele>47.92</ele><time>2026-4-29T1:34:17Z</time></trkpt>
<trkpt lat="48.9449875" lon="2.7215842"><ele>49.30</ele><time>2026-4-29T1:34:20Z</time></trkpt>
<trkpt lat="48.9449936" lon="2.7212267"><ele>49.74</ele><time>2026-4-29T1:34:23Z</time></trkpt>
<trkpt lat="48.9450087" lon="2.7209391"><ele>49.49</ele><time>2026-4-29T1:34:26Z</time></trkpt>
<trkpt lat="48.9450184" lon="2.7206602"><ele>50.24</ele><time>2026-4-29T1:34:29Z</time></trkpt>
<trkpt lat="48.9450147" lon="2.7203758"><ele>50.16</ele><time>2026-4-29T1:34:32Z</time></trkpt>
<trkpt lat="48.9450109" lon="2.7200954"><ele>50.69</ele><time>2026-4-29T1:34:35Z</time></trkpt>
<trkpt lat="48.9450252" lon="2.7197370"><ele>49.75</ele><time>2026-4-29T1:34:38Z</time></trkpt>
<trkpt lat="48.9450397" lon="2.7193742"><ele>50.23</ele><time>2026-4-29T1:34:41Z</time></trkpt>
<trkpt lat="48.9450411" lon="2.7190222"><ele>52.58</ele><time>2026-4-29T1:34:44Z</time></trkpt>
<trkpt lat="48.9450302" lon="2.7187420"><ele>52.37</ele><time>2026-4-29T1:34:47Z</time></trkpt>
<trkpt lat="48.9450181" lon="2.7183845"><ele>52.95</ele><time>2026-4-29T1:34:50Z</time></trkpt>
<trkpt lat="48.9449862" lon="2.7180420"><ele>53.10</ele><time>2026-4-29T1:34:53Z</time></trkpt>
<trkpt lat="48.9449635" lon="2.7176896"><ele>51.03</ele><time>2026-4-29T1:34:56Z</time></trkpt>
<trkpt lat="48.9449684" lon="2.7173479"><ele>51.59</ele><time>2026-4-29T1:34:59Z</time></trkpt>
<trkpt lat="48.9449557" lon="2.7170722"><ele>51.92</ele><time>2026-4-29T1:35:2Z</time></trkpt>
<trkpt lat="48.9449424" lon="2.7167984"><ele>52.03</ele><time>2026-4-29T1:35:5Z</time></trkpt>
<trkpt lat="48.9449257" lon="2.7164535"><ele>52.23</ele><time>2026-4-29T1:35:8Z</time></trkpt>
<trkpt lat="48.9448984" lon="2.7161004"><ele>51.03</ele><time>2026-4-29T1:35:11Z</time></trkpt>
<trkpt lat="48.9448869" lon="2.7157495"><ele>51.31</ele><time>2026-4-29T1:35:14Z</time></trkpt>
<trkpt lat="48.9448736" lon="2.7154656"><ele>51.18</ele><time>2026-4-29T1:35:17Z</time></trkpt>
<trkpt lat="48.9448479" lon="2.7151078"><ele>51.39</ele><time>2026-4-29T1:35:20Z</time></trkpt>
<trkpt lat="48.9448377" lon="2.7148286"><ele>51.41</ele><time>2026-4-29T1:35:23Z</time></trkpt>
<trkpt lat="48.9448329" lon="2.7145541"><ele>52.00</ele><time>2026-4-29T1:35:26Z</time></trkpt>
<trkpt lat="48.9448170" lon="2.7142061"><ele>52.17</ele><time>2026-4-29T1:35:29Z</time></trkpt>
<trkpt lat="48.9448059" lon="2.7139322"><ele>52.50</ele><time>2026-4-29T1:35:32Z</time></trkpt>
<trkpt lat="48.9447827" lon="2.7135664"><ele>52.87</ele><time>2026-4-29T1:35:35Z</time></trkpt>
<trkpt lat="48.9447633" lon="2.7132931"><ele>53.04</ele><time>2026-4-29T1:35:38Z</time></trkpt>
<trkpt lat="48.9447463" lon="2.7129320"><ele>53.77</ele><time>2026-4-29T1:35:41Z</time></trkpt>
<trkpt lat="48.9447167" lon="2.7125795"><ele>53.53</ele><time>2026-4-29T1:35:44Z</time></trkpt>
<trkpt lat="48.9447016" lon="2.7123007"><ele>51.83</ele><time>2026-4-29T1:35:47Z</time></trkpt>
<trkpt lat="48.9446844" lon="2.7120194"><ele>52.32</ele><time>2026-4-29T1:35:50Z</time></trkpt>
<trkpt lat="48.9446669" lon="2.7117429"><ele>53.59</ele><time>2026-4-29T1:35:53Z</time></trkpt>
<trkpt lat="48.9446526" lon="2.7114694"><ele>53.79</ele><time>2026-4-29T1:35:56Z</time></trkpt>
<trkpt lat="48.9446339" lon="2.7111919"><ele>53.83</ele><time>2026-4-29T1:35:59Z</time></trkpt>
<trkpt lat="48.9446178" lon="2.7108480"><ele>54.42</ele><time>2026-4-29T1:36:2Z</time></trkpt>
<trkpt lat="48.9446079" lon="2.7104968"><ele>54.54</ele><time>2026-4-29T1:36:5Z</time></trkpt>
<trkpt lat="48.9446302" lon="2.7102196"><ele>53.66</ele><time>2026-4-29T1:36:8Z</time></trkpt>
<trkpt lat="48.9446639" lon="2.7099465"><ele>52.42</ele><time>2026-4-29T1:36:11Z</time></trkpt>
<trkpt lat="48.9447107" lon="2.7096807"><ele>53.18</ele><time>2026-4-29T1:36:14Z</time></trkpt>
<trkpt lat="48.9448057" lon="2.7093544"><ele>52.90</ele><time>2026-4-29T1:36:17Z</time></trkpt>
<trkpt lat="48.9449150" lon="2.7090555"><ele>53.57</ele><time>2026-4-29T1:36:20Z</time></trkpt>
<trkpt lat="48.9450784" lon="2.7088225"><ele>54.15</ele><time>2026-4-29T1:36:23Z</time></trkpt>
<trkpt lat="48.9452585" lon="2.7085845"><ele>50.41</ele><time>2026-4-29T1:36:26Z</time></trkpt>
<trkpt lat="48.9454446" lon="2.7083772"><ele>49.95</ele><time>2026-4-29T1:36:29Z</time></trkpt>
<trkpt lat="48.9456228" lon="2.7082360"><ele>48.78</ele><time>2026-4-29T1:36:32Z</time></trkpt>
<trkpt lat="48.9458451" lon="2.7081168"><ele>48.44</ele><time>2026-4-29T1:36:35Z</time></trkpt>
<trkpt lat="48.9460442" lon="2.7081176"><ele>48.91</ele><time>2026-4-29T1:36:38Z</time></trkpt>
<trkpt lat="48.9462198" lon="2.7082624"><ele>51.96</ele><time>2026-4-29T1:36:41Z</time></trkpt>
<trkpt lat="48.9464315" lon="2.7082752"><ele>54.90</ele><time>2026-4-29T1:36:44Z</time></trkpt>
<trkpt lat="48.9466337" lon="2.7081718"><ele>54.07</ele><time>2026-4-29T1:36:47Z</time></trkpt>
<trkpt lat="48.9468316" lon="2.7081432"><ele>54.98</ele><time>2026-4-29T1:36:50Z</time></trkpt>
<trkpt lat="48.9470624" lon="2.7080206"><ele>46.25</ele><time>2026-4-29T1:36:53Z</time></trkpt>
<trkpt lat="48.9472599" lon="2.7079506"><ele>43.72</ele><time>2026-4-29T1:36:56Z</time></trkpt>
<trkpt lat="48.9474538" lon="2.7078539"><ele>42.20</ele><time>2026-4-29T1:36:59Z</time></trkpt>
<trkpt lat="48.9476096" lon="2.7077172"><ele>44.22</ele><time>2026-4-29T1:37:2Z</time></trkpt>
<trkpt lat="48.9477782" lon="2.7074645"><ele>45.20</ele><time>2026-4-29T1:37:5Z</time></trkpt>
<trkpt lat="48.9478783" lon="2.7071274"><ele>45.36</ele><time>2026-4-29T1:37:8Z</time></trkpt>
<trkpt lat="48.9479390" lon="2.7068624"><ele>44.92</ele><time>2026-4-29T1:37:11Z</time></trkpt>
<trkpt lat="48.9480087" lon="2.7066050"><ele>44.42</ele><time>2026-4-29T1:37:14Z</time></trkpt>
<trkpt lat="48.9480551" lon="2.7063361"><ele>44.85</ele><time>2026-4-29T1:37:17Z</time></trkpt>
<trkpt lat="48.9480670" lon="2.7060622"><ele>45.38</ele><time>2026-4-29T1:37:20Z</time></trkpt>
<trkpt lat="48.9480981" lon="2.7057012"><ele>47.82</ele><time>2026-4-29T1:37:23Z</time></trkpt>
<trkpt lat="48.9480971" lon="2.7054159"><ele>48.51</ele><time>2026-4-29T1:37:26Z</time></trkpt>
<trkpt lat="48.9480980" lon="2.7051358"><ele>49.17</ele><time>2026-4-29T1:37:29Z</time></trkpt>
<trkpt lat="48.9480863" lon="2.7048462"><ele>49.52</ele><time>2026-4-29T1:37:32Z</time></trkpt>
<trkpt lat="48.9480737" lon="2.7045646"><ele>49.91</ele><time>2026-4-29T1:37:35Z</time></trkpt>
<trkpt lat="48.9480429" lon="2.7042864"><ele>49.04</ele><time>2026-4-29T1:37:38Z</time></trkpt>
<trkpt lat="48.9480208" lon="2.7040135"><ele>49.42</ele><time>2026-4-29T1:37:41Z</time></trkpt>
<trkpt lat="48.9479935" lon="2.7037355"><ele>49.19</ele><time>2026-4-29T1:37:44Z</time></trkpt>
<trkpt lat="48.9479543" lon="2.7034642"><ele>50.33</ele><time>2026-4-29T1:37:47Z</time></trkpt>
<trkpt lat="48.9479164" lon="2.7031123"><ele>50.91</ele><time>2026-4-29T1:37:50Z</time></trkpt>
<trkpt lat="48.9478795" lon="2.7028408"><ele>50.81</ele><time>2026-4-29T1:37:53Z</time></trkpt>
<trkpt lat="48.9478316" lon="2.7024832"><ele>50.65</ele><time>2026-4-29T1:37:56Z</time></trkpt>
<trkpt lat="48.9477815" lon="2.7022150"><ele>49.96</ele><time>2026-4-29T1:37:59Z</time></trkpt>
<trkpt lat="48.9477263" lon="2.7018704"><ele>48.48</ele><time>2026-4-29T1:38:2Z</time></trkpt>
<trkpt lat="48.9476458" lon="2.7015374"><ele>48.21</ele><time>2026-4-29T1:38:5Z</time></trkpt>
<trkpt lat="48.9475733" lon="2.7012866"><ele>47.91</ele><time>2026-4-29T1:38:8Z</time></trkpt>
<trkpt lat="48.9474620" lon="2.7009628"><ele>47.61</ele><time>2026-4-29T1:38:11Z</time></trkpt>
<trkpt lat="48.9473510" lon="2.7006502"><ele>47.85</ele><time>2026-4-29T1:38:14Z</time></trkpt>
<trkpt lat="48.9472069" lon="2.7003759"><ele>47.58</ele><time>2026-4-29T1:38:17Z</time></trkpt>
<trkpt lat="48.9470632" lon="2.7001140"><ele>47.61</ele><time>2026-4-29T1:38:20Z</time></trkpt>
<trkpt lat="48.9469142" lon="2.6998832"><ele>47.70</ele><time>2026-4-29T1:38:23Z</time></trkpt>
<trkpt lat="48.9467442" lon="2.6996844"><ele>47.60</ele><time>2026-4-29T1:38:26Z</time></trkpt>
<trkpt lat="48.9465555" lon="2.6994783"><ele>46.77</ele><time>2026-4-29T1:38:29Z</time></trkpt>
<trkpt lat="48.9463544" lon="2.6992925"><ele>47.98</ele><time>2026-4-29T1:38:32Z</time></trkpt>
<trkpt lat="48.9461504" lon="2.6991393"><ele>48.73</ele><time>2026-4-29T1:38:35Z</time></trkpt>
<trkpt lat="48.9459483" lon="2.6989608"><ele>47.91</ele><time>2026-4-29T1:38:38Z</time></trkpt>
<trkpt lat="48.9457559" lon="2.6987944"><ele>47.78</ele><time>2026-4-29T1:38:41Z</time></trkpt>
<trkpt lat="48.9455551" lon="2.6986608"><ele>48.11</ele><time>2026-4-29T1:38:44Z</time></trkpt>
<trkpt lat="48.9453689" lon="2.6985201"><ele>47.78</ele><time>2026-4-29T1:38:47Z</time></trkpt>
<trkpt lat="48.9451905" lon="2.6983128"><ele>47.40</ele><time>2026-4-29T1:38:50Z</time></trkpt>
<trkpt lat="48.9450146" lon="2.6980647"><ele>48.08</ele><time>2026-4-29T1:38:53Z</time></trkpt>
<trkpt lat="48.9448680" lon="2.6977906"><ele>49.16</ele><time>2026-4-29T1:38:56Z</time></trkpt>
<trkpt lat="48.9447456" lon="2.6974845"><ele>49.11</ele><time>2026-4-29T1:38:59Z</time></trkpt>
<trkpt lat="48.9446836" lon="2.6971853"><ele>47.70</ele><time>2026-4-29T1:39:2Z</time></trkpt>
<trkpt lat="48.9446264" lon="2.6969172"><ele>47.88</ele><time>2026-4-29T1:39:5Z</time></trkpt>
<trkpt lat="48.9446066" lon="2.6966444"><ele>48.09</ele><time>2026-4-29T1:39:8Z</time></trkpt>
<trkpt lat="48.9445949" lon="2.6963688"><ele>48.45</ele><time>2026-4-29T1:39:11Z</time></trkpt>
<trkpt lat="48.9446189" lon="2.6960181"><ele>48.79</ele><time>2026-4-29T1:39:14Z</time></trkpt>
<trkpt lat="48.9446720" lon="2.6957020"><ele>49.91</ele><time>2026-4-29T1:39:17Z</time></trkpt>
<trkpt lat="48.9447526" lon="2.6953798"><ele>49.03</ele><time>2026-4-29T1:39:20Z</time></trkpt>
<trkpt lat="48.9448338" lon="2.6950444"><ele>49.86</ele><time>2026-4-29T1:39:23Z</time></trkpt>
<trkpt lat="48.9449149" lon="2.6947340"><ele>51.18</ele><time>2026-4-29T1:39:26Z</time></trkpt>
<trkpt lat="48.9449750" lon="2.6943997"><ele>50.66</ele><time>2026-4-29T1:39:29Z</time></trkpt>
<trkpt lat="48.9450216" lon="2.6940458"><ele>49.74</ele><time>2026-4-29T1:39:32Z</time></trkpt>
<trkpt lat="48.9450679" lon="2.6937190"><ele>50.29</ele><time>2026-4-29T1:39:35Z</time></trkpt>
<trkpt lat="48.9451079" lon="2.6933596"><ele>50.95</ele><time>2026-4-29T1:39:38Z</time></trkpt>
<trkpt lat="48.9451339" lon="2.6930776"><ele>51.39</ele><time>2026-4-29T1:39:41Z</time></trkpt>
<trkpt lat="48.9451641" lon="2.6927161"><ele>51.06</ele><time>2026-4-29T1:39:44Z</time></trkpt>
<trkpt lat="48.9451813" lon="2.6924418"><ele>51.67</ele><time>2026-4-29T1:39:47Z</time></trkpt>
<trkpt lat="48.9452033" lon="2.6921662"><ele>52.23</ele><time>2026-4-29T1:39:50Z</time></trkpt>
<trkpt lat="48.9452308" lon="2.6918767"><ele>52.54</ele><time>2026-4-29T1:39:53Z</time></trkpt>
<trkpt lat="48.9452491" lon="2.6915908"><ele>53.74</ele><time>2026-4-29T1:39:56Z</time></trkpt>
<trkpt lat="48.9452779" lon="2.6913181"><ele>53.45</ele><time>2026-4-29T1:39:59Z</time></trkpt>
<trkpt lat="48.9453488" lon="2.6909734"><ele>54.44</ele><time>2026-4-29T1:40:2Z</time></trkpt>
<trkpt lat="48.9454330" lon="2.6906659"><ele>53.84</ele><time>2026-4-29T1:40:5Z</time></trkpt>
<trkpt lat="48.9455202" lon="2.6903808"><ele>52.46</ele><time>2026-4-29T1:40:8Z</time></trkpt>
<trkpt lat="48.9456168" lon="2.6901254"><ele>51.67</ele><time>2026-4-29T1:40:11Z</time></trkpt>
<trkpt lat="48.9454341" lon="2.6900659"><ele>49.56</ele><time>2026-4-29T1:40:14Z</time></trkpt>
<trkpt lat="48.9453630" lon="2.6903219"><ele>49.93</ele><time>2026-4-29T1:40:17Z</time></trkpt>
</trkseg></trk></gpx>